Time,TemperatureF,DewpointF,PressureIn,WindDirection,WindDirectionDegrees,WindSpeedMPH,WindSpeedGustMPH,Humidity,HourlyPrecipIn,Conditions,Clouds,dailyrainin,SoftwareType,DateUTC
2013-03-17 00:00:00,53.8,46.4,30.01,West,266,0.0,0.0,76,0.00,,---,0.00,VWS V14.01,2013-03-17 04:00:00,
2013-03-17 00:01:00,53.8,46.4,30.01,West,266,0.0,0.0,76,0.00,,---,0.00,VWS V14.01,2013-03-17 04:01:00,
2013-03-17 00:02:00,53.6,46.2,30.01,West,266,0.0,0.0,76,0.00,,---,0.00,VWS V14.01,2013-03-17 04:02:00,
2013-03-17 00:03:00,53.4,46.0,30.01,West,266,0.0,0.0,76,0.00,,---,0.00,VWS V14.01,2013-03-17 04:03:00,
2013-03-17 00:04:00,53.3,45.9,30.01,West,266,0.0,0.0,76,0.00,,---,0.00,VWS V14.01,2013-03-17 04:04:00,
2013-03-17 00:05:00,53.3,45.9,30.01,West,266,0.0,0.0,76,0.00,,---,0.00,VWS V14.01,2013-03-17 04:05:00,
2013-03-17 00:06:00,53.2,46.2,30.01,West,266,0.0,0.0,77,0.00,,---,0.00,VWS V14.01,2013-03-17 04:06:00,
2013-03-17 00:07:00,53.1,46.1,30.01,West,266,0.0,0.0,77,0.00,,---,0.00,VWS V14.01,2013-03-17 04:07:00,
2013-03-17 00:08:00,53.0,46.0,30.01,West,266,0.0,0.0,77,0.00,,---,0.00,VWS V14.01,2013-03-17 04:08:00,
2013-03-17 00:09:00,52.9,45.9,30.01,West,266,0.0,0.0,77,0.00,,---,0.00,VWS V14.01,2013-03-17 04:09:00,
2013-03-17 00:10:00,52.7,46.0,30.01,West,266,0.0,0.0,78,0.00,,---,0.00,VWS V14.01,2013-03-17 04:10:00,
2013-03-17 00:11:00,52.7,46.0,30.01,West,266,0.0,0.0,78,0.00,,---,0.00,VWS V14.01,2013-03-17 04:11:00,
2013-03-17 00:12:00,52.6,46.0,30.01,West,266,0.0,0.0,78,0.00,,---,0.00,VWS V14.01,2013-03-17 04:12:00,
2013-03-17 00:13:00,52.4,45.8,30.01,West,266,0.0,0.0,78,0.00,,---,0.00,VWS V14.01,2013-03-17 04:13:00,
2013-03-17 00:14:00,52.4,45.8,30.01,West,266,0.0,0.0,78,0.00,,---,0.00,VWS V14.01,2013-03-17 04:14:00,
2013-03-17 00:15:00,52.3,45.7,30.01,West,266,0.0,0.0,78,0.00,,---,0.00,VWS V14.01,2013-03-17 04:15:00,
2013-03-17 00:16:00,52.2,45.6,30.01,West,266,0.0,0.0,78,0.00,,---,0.00,VWS V14.01,2013-03-17 04:16:00,
2013-03-17 00:17:00,52.0,45.4,30.01,West,266,0.0,0.0,78,0.00,,---,0.00,VWS V14.01,2013-03-17 04:17:00,
2013-03-17 00:18:00,51.9,45.6,30.01,West,266,0.0,0.0,79,0.00,,---,0.00,VWS V14.01,2013-03-17 04:18:00,
2013-03-17 00:19:00,51.8,45.5,30.01,West,266,0.0,0.0,79,0.00,,---,0.00,VWS V14.01,2013-03-17 04:19:00,
2013-03-17 00:20:00,51.7,45.4,30.01,West,266,0.0,0.0,79,0.00,,---,0.00,VWS V14.01,2013-03-17 04:20:00,
2013-03-17 00:21:00,51.6,45.3,30.01,West,266,0.0,0.0,79,0.00,,---,0.00,VWS V14.01,2013-03-17 04:21:00,
2013-03-17 00:22:00,51.5,45.5,30.01,West,266,0.0,0.0,80,0.00,,---,0.00,VWS V14.01,2013-03-17 04:22:00,
2013-03-17 00:23:00,51.4,45.5,30.01,West,266,0.0,0.0,80,0.00,,---,0.00,VWS V14.01,2013-03-17 04:23:00,
2013-03-17 00:24:00,51.3,45.3,30.01,West,266,0.0,0.0,80,0.00,,---,0.00,VWS V14.01,2013-03-17 04:24:00,
2013-03-17 00:25:00,51.2,45.6,30.01,West,266,0.0,0.0,81,0.00,,---,0.00,VWS V14.01,2013-03-17 04:25:00,
2013-03-17 00:26:00,51.1,45.5,30.01,West,266,0.0,0.0,81,0.00,,---,0.00,VWS V14.01,2013-03-17 04:26:00,
2013-03-17 00:27:00,51.0,45.4,30.01,West,266,0.0,0.0,81,0.00,,---,0.00,VWS V14.01,2013-03-17 04:27:00,
2013-03-17 00:28:00,51.0,45.4,30.01,West,266,0.0,0.0,81,0.00,,---,0.00,VWS V14.01,2013-03-17 04:28:00,
2013-03-17 00:29:00,50.9,45.3,30.01,West,266,0.0,0.0,81,0.00,,---,0.00,VWS V14.01,2013-03-17 04:29:00,
2013-03-17 00:30:00,50.9,45.6,30.01,West,266,0.0,0.0,82,0.00,,---,0.00,VWS V14.01,2013-03-17 04:30:00,
2013-03-17 00:31:00,50.8,45.5,30.01,West,266,0.0,0.0,82,0.00,,---,0.00,VWS V14.01,2013-03-17 04:31:00,
2013-03-17 00:32:00,50.8,45.5,30.01,West,266,0.0,0.0,82,0.00,,---,0.00,VWS V14.01,2013-03-17 04:32:00,
2013-03-17 00:33:00,50.7,45.4,30.01,West,266,0.0,0.0,82,0.00,,---,0.00,VWS V14.01,2013-03-17 04:33:00,
2013-03-17 00:34:00,50.6,45.3,30.01,West,266,0.0,0.0,82,0.00,,---,0.00,VWS V14.01,2013-03-17 04:34:00,
2013-03-17 00:35:00,50.6,45.3,30.01,West,266,0.0,0.0,82,0.00,,---,0.00,VWS V14.01,2013-03-17 04:35:00,
2013-03-17 00:36:00,50.5,45.2,30.01,West,266,0.0,0.0,82,0.00,,---,0.00,VWS V14.01,2013-03-17 04:36:00,
2013-03-17 00:37:00,50.5,45.2,30.01,West,266,0.0,0.0,82,0.00,,---,0.00,VWS V14.01,2013-03-17 04:37:00,
2013-03-17 00:38:00,50.4,45.4,30.01,West,266,0.0,0.0,83,0.00,,---,0.00,VWS V14.01,2013-03-17 04:38:00,
2013-03-17 00:39:00,50.4,45.4,30.01,West,266,0.0,0.0,83,0.00,,---,0.00,VWS V14.01,2013-03-17 04:39:00,
2013-03-17 00:40:00,50.3,45.3,30.01,West,266,0.0,0.0,83,0.00,,---,0.00,VWS V14.01,2013-03-17 04:40:00,
2013-03-17 00:41:00,50.3,45.3,30.01,West,266,0.0,0.0,83,0.00,,---,0.00,VWS V14.01,2013-03-17 04:41:00,
2013-03-17 00:42:00,50.2,45.2,30.01,West,266,0.0,0.0,83,0.00,,---,0.00,VWS V14.01,2013-03-17 04:42:00,
2013-03-17 00:43:00,50.2,45.6,30.01,West,266,0.0,0.0,84,0.00,,---,0.00,VWS V14.01,2013-03-17 04:43:00,
2013-03-17 00:44:00,50.2,45.6,30.01,West,266,0.0,0.0,84,0.00,,---,0.00,VWS V14.01,2013-03-17 04:44:00,
2013-03-17 00:45:00,50.1,45.5,30.00,West,266,0.0,0.0,84,0.00,,---,0.00,VWS V14.01,2013-03-17 04:45:00,
2013-03-17 00:46:00,50.1,45.5,30.00,West,266,0.0,0.0,84,0.00,,---,0.00,VWS V14.01,2013-03-17 04:46:00,
2013-03-17 00:47:00,50.0,45.4,30.00,West,266,0.0,0.0,84,0.00,,---,0.00,VWS V14.01,2013-03-17 04:47:00,
2013-03-17 00:48:00,50.0,45.4,30.00,West,266,0.0,0.0,84,0.00,,---,0.00,VWS V14.01,2013-03-17 04:48:00,
2013-03-17 00:49:00,49.9,45.3,30.00,West,266,0.0,0.0,84,0.00,,---,0.00,VWS V14.01,2013-03-17 04:49:00,
2013-03-17 00:50:00,49.9,45.3,30.00,West,266,0.0,0.0,84,0.00,,---,0.00,VWS V14.01,2013-03-17 04:50:00,
2013-03-17 00:51:00,49.9,45.3,30.00,West,266,0.0,0.0,84,0.00,,---,0.00,VWS V14.01,2013-03-17 04:51:00,
2013-03-17 00:52:00,49.9,45.6,30.00,West,266,0.0,0.0,85,0.00,,---,0.00,VWS V14.01,2013-03-17 04:52:00,
2013-03-17 00:53:00,49.8,45.2,30.00,West,266,0.0,0.0,84,0.00,,---,0.00,VWS V14.01,2013-03-17 04:53:00,
2013-03-17 00:54:00,49.8,45.2,30.00,West,266,0.0,0.0,84,0.00,,---,0.00,VWS V14.01,2013-03-17 04:54:00,
2013-03-17 00:55:00,49.8,45.2,30.00,West,266,0.0,0.0,84,0.00,,---,0.00,VWS V14.01,2013-03-17 04:55:00,
2013-03-17 00:56:00,49.8,45.2,30.00,West,266,0.0,0.0,84,0.00,,---,0.00,VWS V14.01,2013-03-17 04:56:00,
2013-03-17 00:57:00,49.8,45.2,30.00,West,266,0.0,0.0,84,0.00,,---,0.00,VWS V14.01,2013-03-17 04:57:00,
2013-03-17 00:58:00,49.4,44.8,30.00,West,266,0.0,0.0,84,0.00,,---,0.00,VWS V14.01,2013-03-17 04:58:00,
2013-03-17 00:59:00,49.3,44.7,30.00,West,266,0.0,0.0,84,0.00,,---,0.00,VWS V14.01,2013-03-17 04:59:00,
2013-03-17 01:00:00,49.2,44.6,30.00,West,266,0.0,0.0,84,0.00,,---,0.00,VWS V14.01,2013-03-17 05:00:00,
2013-03-17 01:01:00,49.1,44.5,30.00,West,266,0.0,0.0,84,0.00,,---,0.00,VWS V14.01,2013-03-17 05:01:00,
2013-03-17 01:02:00,49.1,44.5,30.00,West,266,0.0,0.0,84,0.00,,---,0.00,VWS V14.01,2013-03-17 05:02:00,
2013-03-17 01:03:00,49.1,44.5,30.00,West,266,0.0,0.0,84,0.00,,---,0.00,VWS V14.01,2013-03-17 05:03:00,
2013-03-17 01:04:00,48.8,43.9,30.00,West,266,0.0,0.0,83,0.00,,---,0.00,VWS V14.01,2013-03-17 05:04:00,
2013-03-17 01:05:00,48.7,43.8,30.00,West,266,0.0,0.0,83,0.00,,---,0.00,VWS V14.01,2013-03-17 05:05:00,
2013-03-17 01:06:00,48.6,44.0,30.00,West,266,0.0,0.0,84,0.00,,---,0.00,VWS V14.01,2013-03-17 05:06:00,
2013-03-17 01:07:00,48.5,43.9,30.00,West,266,0.0,0.0,84,0.00,,---,0.00,VWS V14.01,2013-03-17 05:07:00,
2013-03-17 01:08:00,48.4,43.8,30.00,West,266,0.0,0.0,84,0.00,,---,0.00,VWS V14.01,2013-03-17 05:08:00,
2013-03-17 01:09:00,48.2,43.6,30.00,West,266,0.0,0.0,84,0.00,,---,0.00,VWS V14.01,2013-03-17 05:09:00,
2013-03-17 01:10:00,48.2,43.6,30.00,West,266,0.0,0.0,84,0.00,,---,0.00,VWS V14.01,2013-03-17 05:10:00,
2013-03-17 01:11:00,48.1,43.5,30.00,West,266,0.0,0.0,84,0.00,,---,0.00,VWS V14.01,2013-03-17 05:11:00,
2013-03-17 01:12:00,48.0,43.7,30.00,West,266,0.0,0.0,85,0.00,,---,0.00,VWS V14.01,2013-03-17 05:12:00,
2013-03-17 01:13:00,47.9,43.3,30.00,West,266,0.0,0.0,84,0.00,,---,0.00,VWS V14.01,2013-03-17 05:13:00,
2013-03-17 01:14:00,47.8,43.2,30.00,West,266,0.0,0.0,84,0.00,,---,0.00,VWS V14.01,2013-03-17 05:14:00,
2013-03-17 01:15:00,47.7,43.4,30.00,West,266,0.0,0.0,85,0.00,,---,0.00,VWS V14.01,2013-03-17 05:15:00,
2013-03-17 01:16:00,47.7,43.4,30.00,West,266,0.0,0.0,85,0.00,,---,0.00,VWS V14.01,2013-03-17 05:16:00,
2013-03-17 01:17:00,47.6,43.3,30.00,West,266,0.0,0.0,85,0.00,,---,0.00,VWS V14.01,2013-03-17 05:17:00,
2013-03-17 01:18:00,47.4,43.1,30.00,West,266,0.0,0.0,85,0.00,,---,0.00,VWS V14.01,2013-03-17 05:18:00,
2013-03-17 01:19:00,47.4,43.1,30.00,West,266,0.0,0.0,85,0.00,,---,0.00,VWS V14.01,2013-03-17 05:19:00,
2013-03-17 01:20:00,47.3,43.0,30.00,West,266,0.0,0.0,85,0.00,,---,0.00,VWS V14.01,2013-03-17 05:20:00,
2013-03-17 01:21:00,47.2,42.9,30.00,West,266,0.0,0.0,85,0.00,,---,0.00,VWS V14.01,2013-03-17 05:21:00,
2013-03-17 01:22:00,47.1,42.8,30.00,West,266,0.0,0.0,85,0.00,,---,0.00,VWS V14.01,2013-03-17 05:22:00,
2013-03-17 01:23:00,47.0,42.7,30.00,West,266,0.0,0.0,85,0.00,,---,0.00,VWS V14.01,2013-03-17 05:23:00,
2013-03-17 01:24:00,46.9,42.6,30.00,West,266,0.0,0.0,85,0.00,,---,0.00,VWS V14.01,2013-03-17 05:24:00,
2013-03-17 01:25:00,46.8,42.5,30.00,West,266,0.0,0.0,85,0.00,,---,0.00,VWS V14.01,2013-03-17 05:25:00,
2013-03-17 01:26:00,46.8,42.5,30.00,West,266,0.0,0.0,85,0.00,,---,0.00,VWS V14.01,2013-03-17 05:26:00,
2013-03-17 01:27:00,46.7,42.4,30.00,West,266,0.0,0.0,85,0.00,,---,0.00,VWS V14.01,2013-03-17 05:27:00,
2013-03-17 01:28:00,46.6,42.3,30.00,West,266,0.0,0.0,85,0.00,,---,0.00,VWS V14.01,2013-03-17 05:28:00,
2013-03-17 01:29:00,46.5,42.2,30.00,West,266,0.0,0.0,85,0.00,,---,0.00,VWS V14.01,2013-03-17 05:29:00,
2013-03-17 01:30:00,46.5,42.2,29.99,West,266,0.0,0.0,85,0.00,,---,0.00,VWS V14.01,2013-03-17 05:30:00,
2013-03-17 01:31:00,46.4,42.5,29.99,West,266,0.0,0.0,86,0.00,,---,0.00,VWS V14.01,2013-03-17 05:31:00,
2013-03-17 01:32:00,46.3,42.3,29.99,West,266,0.0,0.0,86,0.00,,---,0.00,VWS V14.01,2013-03-17 05:32:00,
2013-03-17 01:33:00,46.3,42.0,29.99,West,266,0.0,0.0,85,0.00,,---,0.00,VWS V14.01,2013-03-17 05:33:00,
2013-03-17 01:34:00,46.2,42.2,29.99,West,266,0.0,0.0,86,0.00,,---,0.00,VWS V14.01,2013-03-17 05:34:00,
2013-03-17 01:35:00,46.1,42.2,29.99,West,266,0.0,0.0,86,0.00,,---,0.00,VWS V14.01,2013-03-17 05:35:00,
2013-03-17 01:36:00,46.1,42.2,29.99,West,266,0.0,0.0,86,0.00,,---,0.00,VWS V14.01,2013-03-17 05:36:00,
2013-03-17 01:37:00,46.0,42.0,29.99,West,266,0.0,0.0,86,0.00,,---,0.00,VWS V14.01,2013-03-17 05:37:00,
2013-03-17 01:38:00,46.0,42.0,29.99,West,266,0.0,0.0,86,0.00,,---,0.00,VWS V14.01,2013-03-17 05:38:00,
2013-03-17 01:39:00,45.9,42.0,29.99,West,266,0.0,0.0,86,0.00,,---,0.00,VWS V14.01,2013-03-17 05:39:00,
2013-03-17 01:40:00,45.8,41.9,29.99,West,266,0.0,0.0,86,0.00,,---,0.00,VWS V14.01,2013-03-17 05:40:00,
2013-03-17 01:41:00,45.8,41.9,29.99,West,266,0.0,0.0,86,0.00,,---,0.00,VWS V14.01,2013-03-17 05:41:00,
2013-03-17 01:42:00,45.8,41.9,29.99,West,266,0.0,0.0,86,0.00,,---,0.00,VWS V14.01,2013-03-17 05:42:00,
2013-03-17 01:43:00,45.7,41.8,29.99,West,266,0.0,0.0,86,0.00,,---,0.00,VWS V14.01,2013-03-17 05:43:00,
2013-03-17 01:44:00,45.7,42.1,29.99,West,266,0.0,0.0,87,0.00,,---,0.00,VWS V14.01,2013-03-17 05:44:00,
2013-03-17 01:45:00,45.6,42.0,29.99,West,266,0.0,0.0,87,0.00,,---,0.00,VWS V14.01,2013-03-17 05:45:00,
2013-03-17 01:46:00,45.6,42.0,29.99,West,266,0.0,0.0,87,0.00,,---,0.00,VWS V14.01,2013-03-17 05:46:00,
2013-03-17 01:47:00,45.6,42.0,29.99,West,266,0.0,0.0,87,0.00,,---,0.00,VWS V14.01,2013-03-17 05:47:00,
2013-03-17 01:48:00,45.6,42.0,29.99,West,266,0.0,0.0,87,0.00,,---,0.00,VWS V14.01,2013-03-17 05:48:00,
2013-03-17 01:49:00,45.6,42.0,29.99,West,266,0.0,0.0,87,0.00,,---,0.00,VWS V14.01,2013-03-17 05:49:00,
2013-03-17 01:50:00,45.6,42.0,29.99,West,266,0.0,0.0,87,0.00,,---,0.00,VWS V14.01,2013-03-17 05:50:00,
2013-03-17 01:51:00,45.6,42.3,29.99,West,266,0.0,0.0,88,0.00,,---,0.00,VWS V14.01,2013-03-17 05:51:00,
2013-03-17 01:52:00,45.5,42.2,29.99,West,266,0.0,0.0,88,0.00,,---,0.00,VWS V14.01,2013-03-17 05:52:00,
2013-03-17 01:53:00,45.5,42.2,29.99,West,266,0.0,0.0,88,0.00,,---,0.00,VWS V14.01,2013-03-17 05:53:00,
2013-03-17 01:54:00,45.5,42.2,29.99,West,266,0.0,0.0,88,0.00,,---,0.00,VWS V14.01,2013-03-17 05:54:00,
2013-03-17 01:55:00,45.5,42.2,29.99,West,266,0.0,0.0,88,0.00,,---,0.00,VWS V14.01,2013-03-17 05:55:00,
2013-03-17 01:56:00,45.4,42.1,29.99,West,266,0.0,0.0,88,0.00,,---,0.00,VWS V14.01,2013-03-17 05:56:00,
2013-03-17 01:57:00,45.4,42.1,29.99,West,266,0.0,0.0,88,0.00,,---,0.00,VWS V14.01,2013-03-17 05:57:00,
2013-03-17 01:58:00,45.4,42.1,29.99,West,266,0.0,0.0,88,0.00,,---,0.00,VWS V14.01,2013-03-17 05:58:00,
2013-03-17 01:59:00,45.4,42.1,29.99,West,266,0.0,0.0,88,0.00,,---,0.00,VWS V14.01,2013-03-17 05:59:00,
2013-03-17 02:00:00,45.3,43.1,29.99,West,266,0.0,0.0,92,0.00,,---,0.00,VWS V14.01,2013-03-17 06:00:00,
2013-03-17 02:01:00,45.2,41.9,29.99,West,266,0.0,0.0,88,0.00,,---,0.00,VWS V14.01,2013-03-17 06:01:00,
2013-03-17 02:02:00,45.1,41.8,29.99,West,266,0.0,0.0,88,0.00,,---,0.00,VWS V14.01,2013-03-17 06:02:00,
2013-03-17 02:03:00,45.1,41.8,29.99,West,266,0.0,0.0,88,0.00,,---,0.00,VWS V14.01,2013-03-17 06:03:00,
2013-03-17 02:04:00,45.1,42.1,29.99,West,266,0.0,0.0,89,0.00,,---,0.00,VWS V14.01,2013-03-17 06:04:00,
2013-03-17 02:05:00,45.1,42.1,29.99,West,266,0.0,0.0,89,0.00,,---,0.00,VWS V14.01,2013-03-17 06:05:00,
2013-03-17 02:06:00,45.2,42.2,29.99,West,266,0.0,0.0,89,0.00,,---,0.00,VWS V14.01,2013-03-17 06:06:00,
2013-03-17 02:07:00,45.3,42.5,29.99,West,266,0.0,0.0,90,0.00,,---,0.00,VWS V14.01,2013-03-17 06:07:00,
2013-03-17 02:08:00,45.3,42.5,29.99,West,266,0.0,0.0,90,0.00,,---,0.00,VWS V14.01,2013-03-17 06:08:00,
2013-03-17 02:09:00,45.4,42.6,29.99,West,266,0.0,0.0,90,0.00,,---,0.00,VWS V14.01,2013-03-17 06:09:00,
2013-03-17 02:10:00,45.4,42.6,29.99,West,266,0.0,0.0,90,0.00,,---,0.00,VWS V14.01,2013-03-17 06:10:00,
2013-03-17 02:11:00,45.4,42.6,29.99,West,266,0.0,0.0,90,0.00,,---,0.00,VWS V14.01,2013-03-17 06:11:00,
2013-03-17 02:12:00,45.5,42.7,29.99,West,266,0.0,0.0,90,0.00,,---,0.00,VWS V14.01,2013-03-17 06:12:00,
2013-03-17 02:13:00,45.5,42.7,29.99,West,266,0.0,0.0,90,0.00,,---,0.00,VWS V14.01,2013-03-17 06:13:00,
2013-03-17 02:14:00,45.6,42.8,29.99,West,266,0.0,0.0,90,0.00,,---,0.00,VWS V14.01,2013-03-17 06:14:00,
2013-03-17 02:15:00,45.6,42.8,29.99,West,266,0.0,0.0,90,0.00,,---,0.00,VWS V14.01,2013-03-17 06:15:00,
2013-03-17 02:16:00,45.6,42.8,29.99,West,266,0.0,0.0,90,0.00,,---,0.00,VWS V14.01,2013-03-17 06:16:00,
2013-03-17 02:17:00,45.6,42.8,29.99,West,266,0.0,0.0,90,0.00,,---,0.00,VWS V14.01,2013-03-17 06:17:00,
2013-03-17 02:18:00,45.5,42.7,29.99,West,266,0.0,0.0,90,0.00,,---,0.00,VWS V14.01,2013-03-17 06:18:00,
2013-03-17 02:19:00,45.5,42.7,29.99,West,266,0.0,0.0,90,0.00,,---,0.00,VWS V14.01,2013-03-17 06:19:00,
2013-03-17 02:20:00,45.4,42.6,29.99,West,266,0.0,0.0,90,0.00,,---,0.00,VWS V14.01,2013-03-17 06:20:00,
2013-03-17 02:21:00,45.4,42.3,29.99,West,266,0.0,0.0,89,0.00,,---,0.00,VWS V14.01,2013-03-17 06:21:00,
2013-03-17 02:22:00,45.3,42.5,29.99,West,266,0.0,0.0,90,0.00,,---,0.00,VWS V14.01,2013-03-17 06:22:00,
2013-03-17 02:23:00,45.2,42.5,29.99,West,266,0.0,0.0,90,0.00,,---,0.00,VWS V14.01,2013-03-17 06:23:00,
2013-03-17 02:24:00,45.2,42.5,29.99,West,266,0.0,0.0,90,0.00,,---,0.00,VWS V14.01,2013-03-17 06:24:00,
2013-03-17 02:25:00,45.1,42.3,29.99,West,266,0.0,0.0,90,0.00,,---,0.00,VWS V14.01,2013-03-17 06:25:00,
2013-03-17 02:26:00,45.0,42.0,29.99,West,266,0.0,0.0,89,0.00,,---,0.00,VWS V14.01,2013-03-17 06:26:00,
2013-03-17 02:27:00,45.0,42.0,29.99,West,266,0.0,0.0,89,0.00,,---,0.00,VWS V14.01,2013-03-17 06:27:00,
2013-03-17 02:28:00,44.9,41.9,29.99,West,266,0.0,0.0,89,0.00,,---,0.00,VWS V14.01,2013-03-17 06:28:00,
2013-03-17 02:29:00,44.8,41.8,29.99,West,266,0.0,0.0,89,0.00,,---,0.00,VWS V14.01,2013-03-17 06:29:00,
2013-03-17 02:30:00,44.7,41.7,29.98,West,266,0.0,0.0,89,0.00,,---,0.00,VWS V14.01,2013-03-17 06:30:00,
2013-03-17 02:31:00,44.6,41.6,29.98,West,266,0.0,0.0,89,0.00,,---,0.00,VWS V14.01,2013-03-17 06:31:00,
2013-03-17 02:32:00,44.6,41.6,29.98,West,266,0.0,0.0,89,0.00,,---,0.00,VWS V14.01,2013-03-17 06:32:00,
2013-03-17 02:33:00,44.6,41.6,29.98,West,266,0.0,0.0,89,0.00,,---,0.00,VWS V14.01,2013-03-17 06:33:00,
2013-03-17 02:34:00,44.4,41.4,29.98,West,266,0.0,0.0,89,0.00,,---,0.00,VWS V14.01,2013-03-17 06:34:00,
2013-03-17 02:35:00,44.4,41.4,29.98,West,266,0.0,0.0,89,0.00,,---,0.00,VWS V14.01,2013-03-17 06:35:00,
2013-03-17 02:36:00,44.3,41.3,29.98,West,266,0.0,0.0,89,0.00,,---,0.00,VWS V14.01,2013-03-17 06:36:00,
2013-03-17 02:37:00,44.3,41.3,29.98,West,266,0.0,0.0,89,0.00,,---,0.00,VWS V14.01,2013-03-17 06:37:00,
2013-03-17 02:38:00,44.2,41.2,29.98,West,266,0.0,0.0,89,0.00,,---,0.00,VWS V14.01,2013-03-17 06:38:00,
2013-03-17 02:39:00,44.2,41.2,29.98,West,266,0.0,0.0,89,0.00,,---,0.00,VWS V14.01,2013-03-17 06:39:00,
2013-03-17 02:40:00,44.1,41.1,29.98,West,266,0.0,0.0,89,0.00,,---,0.00,VWS V14.01,2013-03-17 06:40:00,
2013-03-17 02:41:00,44.1,41.1,29.98,West,266,0.0,0.0,89,0.00,,---,0.00,VWS V14.01,2013-03-17 06:41:00,
2013-03-17 02:42:00,44.0,41.0,29.98,West,266,0.0,0.0,89,0.00,,---,0.00,VWS V14.01,2013-03-17 06:42:00,
2013-03-17 02:43:00,44.0,41.3,29.98,West,266,0.0,0.0,90,0.00,,---,0.00,VWS V14.01,2013-03-17 06:43:00,
2013-03-17 02:44:00,44.0,41.3,29.98,West,266,0.0,0.0,90,0.00,,---,0.00,VWS V14.01,2013-03-17 06:44:00,
2013-03-17 02:45:00,43.9,40.9,29.98,West,266,0.0,0.0,89,0.00,,---,0.00,VWS V14.01,2013-03-17 06:45:00,
2013-03-17 02:46:00,43.8,40.8,29.98,West,266,0.0,0.0,89,0.00,,---,0.00,VWS V14.01,2013-03-17 06:46:00,
2013-03-17 02:47:00,43.8,40.8,29.98,West,266,0.0,0.0,89,0.00,,---,0.00,VWS V14.01,2013-03-17 06:47:00,
2013-03-17 02:48:00,43.7,40.7,29.98,West,266,0.0,0.0,89,0.00,,---,0.00,VWS V14.01,2013-03-17 06:48:00,
2013-03-17 02:49:00,43.7,41.0,29.98,West,266,0.0,0.0,90,0.00,,---,0.00,VWS V14.01,2013-03-17 06:49:00,
2013-03-17 02:50:00,43.7,41.0,29.98,West,266,0.0,0.0,90,0.00,,---,0.00,VWS V14.01,2013-03-17 06:50:00,
2013-03-17 02:51:00,43.7,41.0,29.98,West,266,0.0,0.0,90,0.00,,---,0.00,VWS V14.01,2013-03-17 06:51:00,
2013-03-17 02:52:00,43.6,40.9,29.98,West,266,0.0,0.0,90,0.00,,---,0.00,VWS V14.01,2013-03-17 06:52:00,
2013-03-17 02:53:00,43.6,40.9,29.98,West,266,0.0,0.0,90,0.00,,---,0.00,VWS V14.01,2013-03-17 06:53:00,
2013-03-17 02:54:00,43.6,40.9,29.98,West,266,0.0,0.0,90,0.00,,---,0.00,VWS V14.01,2013-03-17 06:54:00,
2013-03-17 02:55:00,43.5,40.8,29.98,West,266,0.0,0.0,90,0.00,,---,0.00,VWS V14.01,2013-03-17 06:55:00,
2013-03-17 02:56:00,43.5,40.8,29.98,West,266,0.0,0.0,90,0.00,,---,0.00,VWS V14.01,2013-03-17 06:56:00,
2013-03-17 02:57:00,43.5,40.8,29.98,West,266,0.0,0.0,90,0.00,,---,0.00,VWS V14.01,2013-03-17 06:57:00,
2013-03-17 02:58:00,43.4,40.7,29.98,West,266,0.0,0.0,90,0.00,,---,0.00,VWS V14.01,2013-03-17 06:58:00,
2013-03-17 02:59:00,43.4,40.7,29.98,West,266,0.0,0.0,90,0.00,,---,0.00,VWS V14.01,2013-03-17 06:59:00,
2013-03-17 03:00:00,43.4,40.7,29.98,West,266,0.0,0.0,90,0.00,,---,0.00,VWS V14.01,2013-03-17 07:00:00,
2013-03-17 03:01:00,43.4,40.7,29.98,West,266,0.0,0.0,90,0.00,,---,0.00,VWS V14.01,2013-03-17 07:01:00,
2013-03-17 03:02:00,43.4,40.7,29.98,West,266,0.0,0.0,90,0.00,,---,0.00,VWS V14.01,2013-03-17 07:02:00,
2013-03-17 03:03:00,43.3,40.6,29.98,West,266,0.0,0.0,90,0.00,,---,0.00,VWS V14.01,2013-03-17 07:03:00,
2013-03-17 03:04:00,43.3,40.6,29.98,West,266,0.0,0.0,90,0.00,,---,0.00,VWS V14.01,2013-03-17 07:04:00,
2013-03-17 03:05:00,43.3,40.6,29.98,West,266,0.0,0.0,90,0.00,,---,0.00,VWS V14.01,2013-03-17 07:05:00,
2013-03-17 03:06:00,43.3,40.6,29.98,West,266,0.0,0.0,90,0.00,,---,0.00,VWS V14.01,2013-03-17 07:06:00,
2013-03-17 03:07:00,43.3,40.6,29.98,West,266,0.0,0.0,90,0.00,,---,0.00,VWS V14.01,2013-03-17 07:07:00,
2013-03-17 03:08:00,43.3,40.6,29.98,West,266,0.0,0.0,90,0.00,,---,0.00,VWS V14.01,2013-03-17 07:08:00,
2013-03-17 03:09:00,43.3,40.6,29.98,West,266,0.0,0.0,90,0.00,,---,0.00,VWS V14.01,2013-03-17 07:09:00,
2013-03-17 03:10:00,43.2,40.5,29.98,West,266,0.0,0.0,90,0.00,,---,0.00,VWS V14.01,2013-03-17 07:10:00,
2013-03-17 03:11:00,43.2,40.5,29.98,West,266,0.0,0.0,90,0.00,,---,0.00,VWS V14.01,2013-03-17 07:11:00,
2013-03-17 03:12:00,43.2,40.5,29.98,West,266,0.0,0.0,90,0.00,,---,0.00,VWS V14.01,2013-03-17 07:12:00,
2013-03-17 03:13:00,43.2,40.5,29.98,West,266,0.0,0.0,90,0.00,,---,0.00,VWS V14.01,2013-03-17 07:13:00,
2013-03-17 03:14:00,43.1,40.4,29.98,West,266,0.0,0.0,90,0.00,,---,0.00,VWS V14.01,2013-03-17 07:14:00,
2013-03-17 03:15:00,43.1,40.7,29.98,West,266,0.0,0.0,91,0.00,,---,0.00,VWS V14.01,2013-03-17 07:15:00,
2013-03-17 03:16:00,43.1,40.7,29.98,West,266,0.0,0.0,91,0.00,,---,0.00,VWS V14.01,2013-03-17 07:16:00,
2013-03-17 03:17:00,43.2,40.8,29.98,West,266,0.0,0.0,91,0.00,,---,0.00,VWS V14.01,2013-03-17 07:17:00,
2013-03-17 03:18:00,43.2,40.8,29.98,West,266,0.0,0.0,91,0.00,,---,0.00,VWS V14.01,2013-03-17 07:18:00,
2013-03-17 03:19:00,43.2,40.8,29.98,West,266,0.0,0.0,91,0.00,,---,0.00,VWS V14.01,2013-03-17 07:19:00,
2013-03-17 03:20:00,43.2,40.8,29.98,West,266,0.0,0.0,91,0.00,,---,0.00,VWS V14.01,2013-03-17 07:20:00,
2013-03-17 03:21:00,43.2,40.8,29.98,West,266,2.0,2.0,91,0.00,,---,0.00,VWS V14.01,2013-03-17 07:21:00,
2013-03-17 03:22:00,43.2,40.8,29.98,West,266,0.0,2.0,91,0.00,,---,0.00,VWS V14.01,2013-03-17 07:22:00,
2013-03-17 03:23:00,43.2,40.8,29.98,West,266,0.0,2.0,91,0.00,,---,0.00,VWS V14.01,2013-03-17 07:23:00,
2013-03-17 03:24:00,43.3,40.8,29.98,West,266,0.0,2.0,91,0.00,,---,0.00,VWS V14.01,2013-03-17 07:24:00,
2013-03-17 03:25:00,43.3,40.8,29.98,West,266,0.0,2.0,91,0.00,,---,0.00,VWS V14.01,2013-03-17 07:25:00,
2013-03-17 03:26:00,43.4,41.2,29.98,West,266,0.0,2.0,92,0.00,,---,0.00,VWS V14.01,2013-03-17 07:26:00,
2013-03-17 03:27:00,43.7,41.8,29.98,West,266,0.0,2.0,93,0.00,,---,0.00,VWS V14.01,2013-03-17 07:27:00,
2013-03-17 03:28:00,44.0,42.1,29.98,West,266,0.0,2.0,93,0.00,,---,0.00,VWS V14.01,2013-03-17 07:28:00,
2013-03-17 03:29:00,44.2,42.3,29.98,West,266,0.0,2.0,93,0.00,,---,0.00,VWS V14.01,2013-03-17 07:29:00,
2013-03-17 03:30:00,44.4,42.5,29.98,West,266,0.0,2.0,93,0.00,,---,0.00,VWS V14.01,2013-03-17 07:30:00,
2013-03-17 03:31:00,44.6,43.0,29.98,West,266,0.0,0.0,94,0.00,,---,0.00,VWS V14.01,2013-03-17 07:31:00,
2013-03-17 03:32:00,44.6,43.0,29.98,West,266,0.0,0.0,94,0.00,,---,0.00,VWS V14.01,2013-03-17 07:32:00,
2013-03-17 03:33:00,44.6,43.0,29.98,West,266,0.0,0.0,94,0.00,,---,0.00,VWS V14.01,2013-03-17 07:33:00,
2013-03-17 03:34:00,45.1,43.5,29.98,West,266,0.0,0.0,94,0.00,,---,0.00,VWS V14.01,2013-03-17 07:34:00,
2013-03-17 03:35:00,45.2,43.6,29.98,West,266,0.0,0.0,94,0.00,,---,0.00,VWS V14.01,2013-03-17 07:35:00,
2013-03-17 03:36:00,45.3,43.4,29.98,West,266,0.0,0.0,93,0.00,,---,0.00,VWS V14.01,2013-03-17 07:36:00,
2013-03-17 03:37:00,45.4,43.5,29.98,West,266,0.0,0.0,93,0.00,,---,0.00,VWS V14.01,2013-03-17 07:37:00,
2013-03-17 03:38:00,45.5,43.6,29.98,West,266,0.0,0.0,93,0.00,,---,0.00,VWS V14.01,2013-03-17 07:38:00,
2013-03-17 03:39:00,45.6,43.7,29.98,West,266,0.0,0.0,93,0.00,,---,0.00,VWS V14.01,2013-03-17 07:39:00,
2013-03-17 03:40:00,45.6,43.7,29.98,West,266,0.0,0.0,93,0.00,,---,0.00,VWS V14.01,2013-03-17 07:40:00,
2013-03-17 03:41:00,45.6,43.7,29.98,West,266,0.0,0.0,93,0.00,,---,0.00,VWS V14.01,2013-03-17 07:41:00,
2013-03-17 03:42:00,45.8,43.9,29.98,West,266,0.0,0.0,93,0.00,,---,0.00,VWS V14.01,2013-03-17 07:42:00,
2013-03-17 03:43:00,45.8,43.9,29.98,West,266,0.0,0.0,93,0.00,,---,0.00,VWS V14.01,2013-03-17 07:43:00,
2013-03-17 03:44:00,45.8,43.9,29.98,West,266,0.0,0.0,93,0.00,,---,0.00,VWS V14.01,2013-03-17 07:44:00,
2013-03-17 03:45:00,45.8,43.9,29.98,West,266,0.0,0.0,93,0.00,,---,0.00,VWS V14.01,2013-03-17 07:45:00,
2013-03-17 03:46:00,45.9,44.0,29.98,West,266,0.0,0.0,93,0.00,,---,0.00,VWS V14.01,2013-03-17 07:46:00,
2013-03-17 03:47:00,45.9,44.0,29.98,West,266,0.0,0.0,93,0.00,,---,0.00,VWS V14.01,2013-03-17 07:47:00,
2013-03-17 03:48:00,45.9,44.0,29.98,West,266,0.0,0.0,93,0.00,,---,0.00,VWS V14.01,2013-03-17 07:48:00,
2013-03-17 03:49:00,45.9,44.0,29.98,West,266,0.0,0.0,93,0.00,,---,0.00,VWS V14.01,2013-03-17 07:49:00,
2013-03-17 03:50:00,45.9,44.0,29.98,West,266,0.0,0.0,93,0.00,,---,0.00,VWS V14.01,2013-03-17 07:50:00,
2013-03-17 03:51:00,45.9,44.0,29.98,West,266,0.0,0.0,93,0.00,,---,0.00,VWS V14.01,2013-03-17 07:51:00,
2013-03-17 03:52:00,46.0,44.1,29.98,West,266,0.0,0.0,93,0.00,,---,0.00,VWS V14.01,2013-03-17 07:52:00,
2013-03-17 03:53:00,46.0,44.1,29.98,West,266,0.0,0.0,93,0.00,,---,0.00,VWS V14.01,2013-03-17 07:53:00,
2013-03-17 03:54:00,46.0,44.1,29.98,West,266,0.0,0.0,93,0.00,,---,0.00,VWS V14.01,2013-03-17 07:54:00,
2013-03-17 03:55:00,46.0,44.1,29.98,West,266,0.0,0.0,93,0.00,,---,0.00,VWS V14.01,2013-03-17 07:55:00,
2013-03-17 03:56:00,46.0,44.1,29.98,West,266,0.0,0.0,93,0.00,,---,0.00,VWS V14.01,2013-03-17 07:56:00,
2013-03-17 03:57:00,46.0,44.1,29.98,West,266,0.0,0.0,93,0.00,,---,0.00,VWS V14.01,2013-03-17 07:57:00,
2013-03-17 03:58:00,46.1,44.2,29.98,West,266,0.0,0.0,93,0.00,,---,0.00,VWS V14.01,2013-03-17 07:58:00,
2013-03-17 03:59:00,46.1,44.2,29.98,West,266,0.0,0.0,93,0.00,,---,0.00,VWS V14.01,2013-03-17 07:59:00,
2013-03-17 04:00:00,46.1,44.2,29.98,West,266,0.0,0.0,93,0.00,,---,0.00,VWS V14.01,2013-03-17 08:00:00,
2013-03-17 04:01:00,46.1,44.2,29.98,West,266,0.0,0.0,93,0.00,,---,0.00,VWS V14.01,2013-03-17 08:01:00,
2013-03-17 04:02:00,46.1,44.2,29.98,West,266,0.0,0.0,93,0.00,,---,0.00,VWS V14.01,2013-03-17 08:02:00,
2013-03-17 04:03:00,46.1,44.2,29.98,West,266,0.0,0.0,93,0.00,,---,0.00,VWS V14.01,2013-03-17 08:03:00,
2013-03-17 04:04:00,46.1,44.2,29.98,West,266,0.0,0.0,93,0.00,,---,0.00,VWS V14.01,2013-03-17 08:04:00,
2013-03-17 04:05:00,46.1,44.2,29.98,West,266,0.0,0.0,93,0.00,,---,0.00,VWS V14.01,2013-03-17 08:05:00,
2013-03-17 04:06:00,46.2,44.3,29.98,West,266,0.0,0.0,93,0.00,,---,0.00,VWS V14.01,2013-03-17 08:06:00,
2013-03-17 04:07:00,46.3,44.4,29.98,West,266,0.0,0.0,93,0.00,,---,0.00,VWS V14.01,2013-03-17 08:07:00,
2013-03-17 04:08:00,46.4,44.8,29.98,West,266,0.0,0.0,94,0.00,,---,0.00,VWS V14.01,2013-03-17 08:08:00,
2013-03-17 04:09:00,46.4,44.8,29.98,West,266,0.0,0.0,94,0.00,,---,0.00,VWS V14.01,2013-03-17 08:09:00,
2013-03-17 04:10:00,46.4,44.8,29.98,West,266,0.0,0.0,94,0.00,,---,0.00,VWS V14.01,2013-03-17 08:10:00,
2013-03-17 04:11:00,46.7,45.1,29.98,West,266,0.0,0.0,94,0.00,,---,0.00,VWS V14.01,2013-03-17 08:11:00,
2013-03-17 04:12:00,46.7,45.1,29.98,West,266,0.0,0.0,94,0.00,,---,0.00,VWS V14.01,2013-03-17 08:12:00,
2013-03-17 04:13:00,46.8,45.2,29.98,West,266,0.0,0.0,94,0.00,,---,0.00,VWS V14.01,2013-03-17 08:13:00,
2013-03-17 04:14:00,46.9,45.3,29.98,West,266,0.0,0.0,94,0.00,,---,0.00,VWS V14.01,2013-03-17 08:14:00,
2013-03-17 04:15:00,46.9,45.3,29.99,West,266,0.0,0.0,94,0.00,,---,0.00,VWS V14.01,2013-03-17 08:15:00,
2013-03-17 04:16:00,47.0,45.4,29.99,West,266,0.0,0.0,94,0.00,,---,0.00,VWS V14.01,2013-03-17 08:16:00,
2013-03-17 04:17:00,47.0,45.4,29.99,West,266,0.0,0.0,94,0.00,,---,0.00,VWS V14.01,2013-03-17 08:17:00,
2013-03-17 04:18:00,47.1,45.5,29.99,West,266,0.0,0.0,94,0.00,,---,0.00,VWS V14.01,2013-03-17 08:18:00,
2013-03-17 04:19:00,47.1,45.5,29.99,West,266,0.0,0.0,94,0.00,,---,0.00,VWS V14.01,2013-03-17 08:19:00,
2013-03-17 04:20:00,47.1,45.5,29.99,West,266,0.0,0.0,94,0.00,,---,0.00,VWS V14.01,2013-03-17 08:20:00,
2013-03-17 04:21:00,47.1,45.5,29.99,West,266,0.0,0.0,94,0.00,,---,0.00,VWS V14.01,2013-03-17 08:21:00,
2013-03-17 04:22:00,47.2,45.6,29.99,West,266,0.0,0.0,94,0.00,,---,0.00,VWS V14.01,2013-03-17 08:22:00,
2013-03-17 04:23:00,47.2,45.6,29.99,West,266,0.0,0.0,94,0.00,,---,0.00,VWS V14.01,2013-03-17 08:23:00,
2013-03-17 04:24:00,47.3,45.7,29.99,West,266,0.0,0.0,94,0.00,,---,0.00,VWS V14.01,2013-03-17 08:24:00,
2013-03-17 04:25:00,47.3,45.7,29.99,West,266,0.0,0.0,94,0.00,,---,0.00,VWS V14.01,2013-03-17 08:25:00,
2013-03-17 04:26:00,47.3,45.7,29.99,West,266,0.0,0.0,94,0.00,,---,0.00,VWS V14.01,2013-03-17 08:26:00,
2013-03-17 04:27:00,47.3,45.7,29.99,West,266,0.0,0.0,94,0.00,,---,0.00,VWS V14.01,2013-03-17 08:27:00,
2013-03-17 04:28:00,47.3,45.4,29.99,West,266,0.0,0.0,93,0.00,,---,0.00,VWS V14.01,2013-03-17 08:28:00,
2013-03-17 04:29:00,47.3,45.4,29.99,West,266,0.0,0.0,93,0.00,,---,0.00,VWS V14.01,2013-03-17 08:29:00,
2013-03-17 04:30:00,47.3,45.4,30.00,West,266,0.0,0.0,93,0.00,,---,0.00,VWS V14.01,2013-03-17 08:30:00,
2013-03-17 04:31:00,47.3,45.4,30.00,West,266,0.0,0.0,93,0.00,,---,0.00,VWS V14.01,2013-03-17 08:31:00,
2013-03-17 04:32:00,47.3,45.4,30.00,West,266,0.0,0.0,93,0.00,,---,0.00,VWS V14.01,2013-03-17 08:32:00,
2013-03-17 04:33:00,47.3,45.4,30.00,West,266,0.0,0.0,93,0.00,,---,0.00,VWS V14.01,2013-03-17 08:33:00,
2013-03-17 04:34:00,47.3,45.4,30.00,West,266,0.0,0.0,93,0.00,,---,0.00,VWS V14.01,2013-03-17 08:34:00,
2013-03-17 04:35:00,47.4,45.5,30.00,West,266,0.0,0.0,93,0.00,,---,0.00,VWS V14.01,2013-03-17 08:35:00,
2013-03-17 04:36:00,47.3,45.4,30.00,West,266,0.0,0.0,93,0.00,,---,0.00,VWS V14.01,2013-03-17 08:36:00,
2013-03-17 04:37:00,47.4,45.5,30.00,West,266,0.0,0.0,93,0.00,,---,0.00,VWS V14.01,2013-03-17 08:37:00,
2013-03-17 04:38:00,47.4,45.5,30.00,West,266,0.0,0.0,93,0.00,,---,0.00,VWS V14.01,2013-03-17 08:38:00,
2013-03-17 04:39:00,47.4,45.5,30.00,West,266,0.0,0.0,93,0.00,,---,0.00,VWS V14.01,2013-03-17 08:39:00,
2013-03-17 04:40:00,47.4,45.5,30.00,West,266,0.0,0.0,93,0.00,,---,0.00,VWS V14.01,2013-03-17 08:40:00,
2013-03-17 04:41:00,47.4,45.5,30.00,West,266,0.0,0.0,93,0.00,,---,0.00,VWS V14.01,2013-03-17 08:41:00,
2013-03-17 04:42:00,47.5,45.9,30.00,West,266,0.0,0.0,94,0.00,,---,0.00,VWS V14.01,2013-03-17 08:42:00,
2013-03-17 04:43:00,47.5,45.9,30.00,West,266,0.0,0.0,94,0.00,,---,0.00,VWS V14.01,2013-03-17 08:43:00,
2013-03-17 04:44:00,43.2,40.8,29.98,West,266,2.0,2.0,91,0.00,,---,0.00,VWS V14.01,2013-03-17 08:44:00,
2013-03-17 04:45:00,47.5,45.9,30.00,West,266,0.0,0.0,94,0.00,,---,0.00,VWS V14.01,2013-03-17 08:45:00,
2013-03-17 04:46:00,47.6,46.0,30.00,West,266,0.0,0.0,94,0.00,,---,0.00,VWS V14.01,2013-03-17 08:46:00,
2013-03-17 04:47:00,47.6,46.0,30.00,West,266,0.0,0.0,94,0.00,,---,0.00,VWS V14.01,2013-03-17 08:47:00,
2013-03-17 04:48:00,47.6,46.0,30.00,West,266,0.0,0.0,94,0.00,,---,0.00,VWS V14.01,2013-03-17 08:48:00,
2013-03-17 04:49:00,47.6,46.0,30.00,West,266,0.0,0.0,94,0.00,,---,0.00,VWS V14.01,2013-03-17 08:49:00,
2013-03-17 04:50:00,47.6,45.7,30.00,West,266,0.0,0.0,93,0.00,,---,0.00,VWS V14.01,2013-03-17 08:50:00,
2013-03-17 04:51:00,47.6,45.7,30.00,West,266,0.0,0.0,93,0.00,,---,0.00,VWS V14.01,2013-03-17 08:51:00,
2013-03-17 04:52:00,47.6,45.7,30.00,West,266,0.0,0.0,93,0.00,,---,0.00,VWS V14.01,2013-03-17 08:52:00,
2013-03-17 04:53:00,47.6,46.0,30.00,West,266,0.0,0.0,94,0.00,,---,0.00,VWS V14.01,2013-03-17 08:53:00,
2013-03-17 04:54:00,47.6,46.0,30.00,West,266,0.0,0.0,94,0.00,,---,0.00,VWS V14.01,2013-03-17 08:54:00,
2013-03-17 04:55:00,47.6,45.7,30.00,West,266,0.0,0.0,93,0.00,,---,0.00,VWS V14.01,2013-03-17 08:55:00,
2013-03-17 04:56:00,47.6,45.7,30.00,West,266,0.0,0.0,93,0.00,,---,0.00,VWS V14.01,2013-03-17 08:56:00,
2013-03-17 04:57:00,47.6,46.0,30.00,West,266,0.0,0.0,94,0.00,,---,0.00,VWS V14.01,2013-03-17 08:57:00,
2013-03-17 04:58:00,47.7,46.1,30.00,West,266,0.0,0.0,94,0.00,,---,0.00,VWS V14.01,2013-03-17 08:58:00,
2013-03-17 04:59:00,47.8,46.2,30.00,West,266,0.0,0.0,94,0.00,,---,0.00,VWS V14.01,2013-03-17 08:59:00,
2013-03-17 05:00:00,47.9,46.3,30.01,West,266,0.0,0.0,94,0.00,,---,0.00,VWS V14.01,2013-03-17 09:00:00,
2013-03-17 05:01:00,47.9,46.3,30.01,West,266,0.0,0.0,94,0.00,,---,0.00,VWS V14.01,2013-03-17 09:01:00,
2013-03-17 05:02:00,48.0,46.4,30.01,West,266,0.0,0.0,94,0.00,,---,0.00,VWS V14.01,2013-03-17 09:02:00,
2013-03-17 05:03:00,48.1,46.5,30.01,West,266,0.0,0.0,94,0.00,,---,0.00,VWS V14.01,2013-03-17 09:03:00,
2013-03-17 05:04:00,48.2,46.6,30.01,West,266,0.0,0.0,94,0.00,,---,0.00,VWS V14.01,2013-03-17 09:04:00,
2013-03-17 05:05:00,48.3,46.7,30.01,West,266,0.0,0.0,94,0.00,,---,0.00,VWS V14.01,2013-03-17 09:05:00,
2013-03-17 05:06:00,48.3,46.7,30.01,West,266,0.0,0.0,94,0.00,,---,0.00,VWS V14.01,2013-03-17 09:06:00,
2013-03-17 05:07:00,48.3,46.7,30.01,West,266,0.0,0.0,94,0.00,,---,0.00,VWS V14.01,2013-03-17 09:07:00,
2013-03-17 05:08:00,48.4,46.8,30.01,West,266,0.0,0.0,94,0.00,,---,0.00,VWS V14.01,2013-03-17 09:08:00,
2013-03-17 05:09:00,48.4,46.8,30.01,West,266,0.0,0.0,94,0.00,,---,0.00,VWS V14.01,2013-03-17 09:09:00,
2013-03-17 05:10:00,48.4,46.8,30.01,West,266,0.0,0.0,94,0.00,,---,0.00,VWS V14.01,2013-03-17 09:10:00,
2013-03-17 05:11:00,48.4,46.8,30.01,West,266,0.0,0.0,94,0.00,,---,0.00,VWS V14.01,2013-03-17 09:11:00,
2013-03-17 05:12:00,48.4,46.8,30.01,West,266,0.0,0.0,94,0.00,,---,0.00,VWS V14.01,2013-03-17 09:12:00,
2013-03-17 05:13:00,48.4,46.8,30.01,West,266,0.0,0.0,94,0.00,,---,0.00,VWS V14.01,2013-03-17 09:13:00,
2013-03-17 05:14:00,48.4,46.8,30.01,West,266,0.0,0.0,94,0.00,,---,0.00,VWS V14.01,2013-03-17 09:14:00,
2013-03-17 05:15:00,48.3,46.7,30.01,West,266,0.0,0.0,94,0.00,,---,0.00,VWS V14.01,2013-03-17 09:15:00,
2013-03-17 05:16:00,48.3,46.7,30.01,West,266,0.0,0.0,94,0.00,,---,0.00,VWS V14.01,2013-03-17 09:16:00,
2013-03-17 05:17:00,48.3,46.7,30.01,West,266,0.0,0.0,94,0.00,,---,0.00,VWS V14.01,2013-03-17 09:17:00,
2013-03-17 05:18:00,48.3,46.7,30.01,West,266,0.0,0.0,94,0.00,,---,0.00,VWS V14.01,2013-03-17 09:18:00,
2013-03-17 05:19:00,48.3,46.7,30.01,West,266,0.0,0.0,94,0.00,,---,0.00,VWS V14.01,2013-03-17 09:19:00,
2013-03-17 05:20:00,48.2,46.6,30.01,West,266,0.0,0.0,94,0.00,,---,0.00,VWS V14.01,2013-03-17 09:20:00,
2013-03-17 05:21:00,48.2,46.6,30.01,West,266,0.0,0.0,94,0.00,,---,0.00,VWS V14.01,2013-03-17 09:21:00,
2013-03-17 05:22:00,48.2,46.6,30.01,West,266,0.0,0.0,94,0.00,,---,0.00,VWS V14.01,2013-03-17 09:22:00,
2013-03-17 05:23:00,48.2,46.6,30.01,West,266,0.0,0.0,94,0.00,,---,0.00,VWS V14.01,2013-03-17 09:23:00,
2013-03-17 05:24:00,48.1,46.2,30.01,West,266,0.0,0.0,93,0.00,,---,0.00,VWS V14.01,2013-03-17 09:24:00,
2013-03-17 05:25:00,48.1,46.2,30.01,West,266,0.0,0.0,93,0.00,,---,0.00,VWS V14.01,2013-03-17 09:25:00,
2013-03-17 05:26:00,48.0,46.1,30.01,West,266,0.0,0.0,93,0.00,,---,0.00,VWS V14.01,2013-03-17 09:26:00,
2013-03-17 05:27:00,48.0,46.1,30.01,West,266,0.0,0.0,93,0.00,,---,0.00,VWS V14.01,2013-03-17 09:27:00,
2013-03-17 05:28:00,47.9,46.0,30.01,West,266,0.0,0.0,93,0.00,,---,0.00,VWS V14.01,2013-03-17 09:28:00,
2013-03-17 05:29:00,47.9,46.0,30.01,West,266,0.0,0.0,93,0.00,,---,0.00,VWS V14.01,2013-03-17 09:29:00,
2013-03-17 05:30:00,47.9,46.0,30.02,West,266,0.0,0.0,93,0.00,,---,0.00,VWS V14.01,2013-03-17 09:30:00,
2013-03-17 05:31:00,47.9,46.0,30.02,West,266,0.0,0.0,93,0.00,,---,0.00,VWS V14.01,2013-03-17 09:31:00,
2013-03-17 05:32:00,47.9,46.0,30.02,West,266,0.0,0.0,93,0.00,,---,0.00,VWS V14.01,2013-03-17 09:32:00,
2013-03-17 05:33:00,47.7,45.8,30.02,West,266,0.0,0.0,93,0.00,,---,0.00,VWS V14.01,2013-03-17 09:33:00,
2013-03-17 05:34:00,47.6,45.7,30.02,West,266,0.0,0.0,93,0.00,,---,0.00,VWS V14.01,2013-03-17 09:34:00,
2013-03-17 05:35:00,47.6,45.7,30.02,West,266,0.0,0.0,93,0.00,,---,0.00,VWS V14.01,2013-03-17 09:35:00,
2013-03-17 05:36:00,47.5,45.6,30.02,West,266,0.0,0.0,93,0.00,,---,0.00,VWS V14.01,2013-03-17 09:36:00,
2013-03-17 05:37:00,47.4,45.5,30.02,West,266,0.0,0.0,93,0.00,,---,0.00,VWS V14.01,2013-03-17 09:37:00,
2013-03-17 05:38:00,47.3,45.4,30.02,West,266,0.0,0.0,93,0.00,,---,0.00,VWS V14.01,2013-03-17 09:38:00,
2013-03-17 05:39:00,47.2,45.3,30.02,West,266,0.0,0.0,93,0.00,,---,0.00,VWS V14.01,2013-03-17 09:39:00,
2013-03-17 05:40:00,47.2,45.3,30.02,West,266,0.0,0.0,93,0.00,,---,0.00,VWS V14.01,2013-03-17 09:40:00,
2013-03-17 05:41:00,47.1,45.2,30.02,West,266,0.0,0.0,93,0.00,,---,0.00,VWS V14.01,2013-03-17 09:41:00,
2013-03-17 05:42:00,47.0,45.1,30.02,West,266,0.0,0.0,93,0.00,,---,0.00,VWS V14.01,2013-03-17 09:42:00,
2013-03-17 05:43:00,47.0,45.1,30.02,West,266,0.0,0.0,93,0.00,,---,0.00,VWS V14.01,2013-03-17 09:43:00,
2013-03-17 05:44:00,46.9,45.0,30.02,West,266,0.0,0.0,93,0.00,,---,0.00,VWS V14.01,2013-03-17 09:44:00,
2013-03-17 05:45:00,46.9,45.0,30.01,West,266,0.0,0.0,93,0.00,,---,0.00,VWS V14.01,2013-03-17 09:45:00,
2013-03-17 05:46:00,46.7,44.8,30.01,West,266,0.0,0.0,93,0.00,,---,0.00,VWS V14.01,2013-03-17 09:46:00,
2013-03-17 05:47:00,46.7,44.8,30.01,West,266,0.0,0.0,93,0.00,,---,0.00,VWS V14.01,2013-03-17 09:47:00,
2013-03-17 05:48:00,46.5,44.6,30.01,West,266,0.0,0.0,93,0.00,,---,0.00,VWS V14.01,2013-03-17 09:48:00,
2013-03-17 05:49:00,46.5,44.6,30.01,West,266,0.0,0.0,93,0.00,,---,0.00,VWS V14.01,2013-03-17 09:49:00,
2013-03-17 05:50:00,46.4,44.5,30.01,West,266,0.0,0.0,93,0.00,,---,0.00,VWS V14.01,2013-03-17 09:50:00,
2013-03-17 05:51:00,46.3,44.4,30.01,West,266,0.0,0.0,93,0.00,,---,0.00,VWS V14.01,2013-03-17 09:51:00,
2013-03-17 05:52:00,46.3,44.4,30.01,West,266,0.0,0.0,93,0.00,,---,0.00,VWS V14.01,2013-03-17 09:52:00,
2013-03-17 05:53:00,46.1,44.2,30.01,West,266,0.0,0.0,93,0.00,,---,0.00,VWS V14.01,2013-03-17 09:53:00,
2013-03-17 05:54:00,46.1,44.2,30.01,West,266,0.0,0.0,93,0.00,,---,0.00,VWS V14.01,2013-03-17 09:54:00,
2013-03-17 05:55:00,46.0,44.1,30.01,West,266,0.0,0.0,93,0.00,,---,0.00,VWS V14.01,2013-03-17 09:55:00,
2013-03-17 05:56:00,46.0,44.1,30.01,West,266,0.0,0.0,93,0.00,,---,0.00,VWS V14.01,2013-03-17 09:56:00,
2013-03-17 05:57:00,45.9,44.0,30.01,West,266,0.0,0.0,93,0.00,,---,0.00,VWS V14.01,2013-03-17 09:57:00,
2013-03-17 05:58:00,45.9,44.0,30.01,West,266,0.0,0.0,93,0.00,,---,0.00,VWS V14.01,2013-03-17 09:58:00,
2013-03-17 05:59:00,45.8,43.9,30.01,West,266,0.0,0.0,93,0.00,,---,0.00,VWS V14.01,2013-03-17 09:59:00,
2013-03-17 06:00:00,45.8,43.9,30.02,West,266,0.0,0.0,93,0.00,,---,0.00,VWS V14.01,2013-03-17 10:00:00,
2013-03-17 06:01:00,45.8,43.9,30.02,West,266,0.0,0.0,93,0.00,,---,0.00,VWS V14.01,2013-03-17 10:01:00,
2013-03-17 06:02:00,45.7,43.8,30.02,West,266,0.0,0.0,93,0.00,,---,0.00,VWS V14.01,2013-03-17 10:02:00,
2013-03-17 06:03:00,45.6,43.7,30.02,West,266,0.0,0.0,93,0.00,,---,0.00,VWS V14.01,2013-03-17 10:03:00,
2013-03-17 06:04:00,45.6,43.7,30.02,West,266,0.0,0.0,93,0.00,,---,0.00,VWS V14.01,2013-03-17 10:04:00,
2013-03-17 06:05:00,45.6,43.7,30.02,West,266,0.0,0.0,93,0.00,,---,0.00,VWS V14.01,2013-03-17 10:05:00,
2013-03-17 06:06:00,45.6,43.7,30.02,West,266,0.0,0.0,93,0.00,,---,0.00,VWS V14.01,2013-03-17 10:06:00,
2013-03-17 06:07:00,45.5,43.6,30.02,West,266,0.0,0.0,93,0.00,,---,0.00,VWS V14.01,2013-03-17 10:07:00,
2013-03-17 06:08:00,45.5,43.6,30.02,West,266,0.0,0.0,93,0.00,,---,0.00,VWS V14.01,2013-03-17 10:08:00,
2013-03-17 06:09:00,45.5,43.6,30.02,West,266,0.0,0.0,93,0.00,,---,0.00,VWS V14.01,2013-03-17 10:09:00,
2013-03-17 06:10:00,45.5,43.6,30.02,West,266,0.0,0.0,93,0.00,,---,0.00,VWS V14.01,2013-03-17 10:10:00,
2013-03-17 06:11:00,45.4,43.5,30.02,West,266,0.0,0.0,93,0.00,,---,0.00,VWS V14.01,2013-03-17 10:11:00,
2013-03-17 06:12:00,45.4,43.5,30.02,West,266,0.0,0.0,93,0.00,,---,0.00,VWS V14.01,2013-03-17 10:12:00,
2013-03-17 06:13:00,45.4,43.5,30.02,West,266,0.0,0.0,93,0.00,,---,0.00,VWS V14.01,2013-03-17 10:13:00,
2013-03-17 06:14:00,45.4,43.5,30.02,West,266,0.0,0.0,93,0.00,,---,0.00,VWS V14.01,2013-03-17 10:14:00,
2013-03-17 06:15:00,45.4,43.5,30.03,West,266,0.0,0.0,93,0.00,,---,0.00,VWS V14.01,2013-03-17 10:15:00,
2013-03-17 06:16:00,45.4,43.5,30.03,West,266,0.0,0.0,93,0.00,,---,0.00,VWS V14.01,2013-03-17 10:16:00,
2013-03-17 06:17:00,45.3,43.4,30.03,West,266,0.0,0.0,93,0.00,,---,0.00,VWS V14.01,2013-03-17 10:17:00,
2013-03-17 06:18:00,45.3,43.4,30.03,West,266,0.0,0.0,93,0.00,,---,0.00,VWS V14.01,2013-03-17 10:18:00,
2013-03-17 06:19:00,45.2,43.3,30.03,West,266,0.0,0.0,93,0.00,,---,0.00,VWS V14.01,2013-03-17 10:19:00,
2013-03-17 06:20:00,45.2,43.3,30.03,West,266,0.0,0.0,93,0.00,,---,0.00,VWS V14.01,2013-03-17 10:20:00,
2013-03-17 06:21:00,45.1,43.2,30.03,West,266,0.0,0.0,93,0.00,,---,0.00,VWS V14.01,2013-03-17 10:21:00,
2013-03-17 06:22:00,45.1,43.2,30.03,West,266,0.0,0.0,93,0.00,,---,0.00,VWS V14.01,2013-03-17 10:22:00,
2013-03-17 06:23:00,45.0,43.1,30.03,West,266,0.0,0.0,93,0.00,,---,0.00,VWS V14.01,2013-03-17 10:23:00,
2013-03-17 06:24:00,45.0,43.1,30.03,West,266,0.0,0.0,93,0.00,,---,0.00,VWS V14.01,2013-03-17 10:24:00,
2013-03-17 06:25:00,44.9,43.0,30.03,West,266,0.0,0.0,93,0.00,,---,0.00,VWS V14.01,2013-03-17 10:25:00,
2013-03-17 06:26:00,44.9,43.0,30.03,West,266,0.0,0.0,93,0.00,,---,0.00,VWS V14.01,2013-03-17 10:26:00,
2013-03-17 06:27:00,44.8,42.9,30.03,West,266,0.0,0.0,93,0.00,,---,0.00,VWS V14.01,2013-03-17 10:27:00,
2013-03-17 06:28:00,44.8,42.9,30.03,West,266,0.0,0.0,93,0.00,,---,0.00,VWS V14.01,2013-03-17 10:28:00,
2013-03-17 06:29:00,44.7,42.8,30.03,West,266,0.0,0.0,93,0.00,,---,0.00,VWS V14.01,2013-03-17 10:29:00,
2013-03-17 06:30:00,44.6,42.7,30.03,West,266,0.0,0.0,93,0.00,,---,0.00,VWS V14.01,2013-03-17 10:30:00,
2013-03-17 06:31:00,44.6,42.7,30.03,West,266,0.0,0.0,93,0.00,,---,0.00,VWS V14.01,2013-03-17 10:31:00,
2013-03-17 06:32:00,44.6,42.7,30.03,West,266,0.0,0.0,93,0.00,,---,0.00,VWS V14.01,2013-03-17 10:32:00,
2013-03-17 06:33:00,44.6,43.0,30.03,West,266,0.0,0.0,94,0.00,,---,0.00,VWS V14.01,2013-03-17 10:33:00,
2013-03-17 06:34:00,44.6,43.0,30.03,West,266,0.0,0.0,94,0.00,,---,0.00,VWS V14.01,2013-03-17 10:34:00,
2013-03-17 06:35:00,44.7,43.1,30.03,West,266,0.0,0.0,94,0.00,,---,0.00,VWS V14.01,2013-03-17 10:35:00,
2013-03-17 06:36:00,44.7,43.1,30.03,West,266,0.0,0.0,94,0.00,,---,0.00,VWS V14.01,2013-03-17 10:36:00,
2013-03-17 06:37:00,44.7,43.1,30.03,West,266,0.0,0.0,94,0.00,,---,0.00,VWS V14.01,2013-03-17 10:37:00,
2013-03-17 06:38:00,44.7,43.1,30.03,West,266,0.0,0.0,94,0.00,,---,0.00,VWS V14.01,2013-03-17 10:38:00,
2013-03-17 06:39:00,44.8,43.2,30.03,West,266,0.0,0.0,94,0.00,,---,0.00,VWS V14.01,2013-03-17 10:39:00,
2013-03-17 06:40:00,44.9,43.3,30.03,West,266,0.0,0.0,94,0.00,,---,0.00,VWS V14.01,2013-03-17 10:40:00,
2013-03-17 06:41:00,44.9,43.3,30.03,West,266,0.0,0.0,94,0.00,,---,0.00,VWS V14.01,2013-03-17 10:41:00,
2013-03-17 06:42:00,44.9,43.3,30.03,West,266,0.0,0.0,94,0.00,,---,0.00,VWS V14.01,2013-03-17 10:42:00,
2013-03-17 06:43:00,45.0,43.4,30.03,West,266,0.0,0.0,94,0.00,,---,0.00,VWS V14.01,2013-03-17 10:43:00,
2013-03-17 06:44:00,45.0,43.4,30.03,West,266,0.0,0.0,94,0.00,,---,0.00,VWS V14.01,2013-03-17 10:44:00,
2013-03-17 06:45:00,45.1,43.5,30.03,West,266,0.0,0.0,94,0.00,,---,0.00,VWS V14.01,2013-03-17 10:45:00,
2013-03-17 06:46:00,45.1,43.5,30.03,West,266,0.0,0.0,94,0.00,,---,0.00,VWS V14.01,2013-03-17 10:46:00,
2013-03-17 06:47:00,45.2,43.6,30.03,West,266,0.0,0.0,94,0.00,,---,0.00,VWS V14.01,2013-03-17 10:47:00,
2013-03-17 06:48:00,45.2,43.6,30.03,West,266,0.0,0.0,94,0.00,,---,0.00,VWS V14.01,2013-03-17 10:48:00,
2013-03-17 06:49:00,45.3,43.7,30.03,West,266,0.0,0.0,94,0.00,,---,0.00,VWS V14.01,2013-03-17 10:49:00,
2013-03-17 06:50:00,45.4,43.8,30.03,West,266,0.0,0.0,94,0.00,,---,0.00,VWS V14.01,2013-03-17 10:50:00,
2013-03-17 06:51:00,45.4,43.8,30.03,West,266,0.0,0.0,94,0.00,,---,0.00,VWS V14.01,2013-03-17 10:51:00,
2013-03-17 06:52:00,45.4,43.8,30.03,West,266,0.0,0.0,94,0.00,,---,0.00,VWS V14.01,2013-03-17 10:52:00,
2013-03-17 06:53:00,45.5,44.2,30.03,West,266,0.0,0.0,95,0.00,,---,0.00,VWS V14.01,2013-03-17 10:53:00,
2013-03-17 06:54:00,45.6,44.2,30.03,West,266,0.0,0.0,95,0.00,,---,0.00,VWS V14.01,2013-03-17 10:54:00,
2013-03-17 06:55:00,45.7,44.3,30.03,West,267,0.0,0.0,95,0.00,,---,0.00,VWS V14.01,2013-03-17 10:55:00,
2013-03-17 06:56:00,45.8,44.5,30.03,West,266,0.0,0.0,95,0.00,,---,0.00,VWS V14.01,2013-03-17 10:56:00,
2013-03-17 06:57:00,46.0,44.7,30.03,West,266,0.0,0.0,95,0.00,,---,0.00,VWS V14.01,2013-03-17 10:57:00,
2013-03-17 06:58:00,46.1,44.8,30.03,West,266,0.0,0.0,95,0.00,,---,0.00,VWS V14.01,2013-03-17 10:58:00,
2013-03-17 06:59:00,47.0,45.7,30.03,West,259,0.0,0.0,95,0.00,,---,0.00,VWS V14.01,2013-03-17 10:59:00,
2013-03-17 07:00:00,47.1,45.7,30.04,West,259,0.0,0.0,95,0.00,,---,0.00,VWS V14.01,2013-03-17 11:00:00,
2013-03-17 07:01:00,47.1,47.1,30.04,West,259,0.0,0.0,100,0.00,,---,0.00,VWS V14.01,2013-03-17 11:01:00,
2013-03-17 07:02:00,47.1,47.1,30.04,West,259,0.0,0.0,100,0.00,,---,0.00,VWS V14.01,2013-03-17 11:02:00,
2013-03-17 07:03:00,47.3,47.3,30.04,West,259,0.0,0.0,100,0.00,,---,0.00,VWS V14.01,2013-03-17 11:03:00,
2013-03-17 07:04:00,47.3,47.3,30.04,West,259,0.0,0.0,100,0.00,,---,0.00,VWS V14.01,2013-03-17 11:04:00,
2013-03-17 07:05:00,47.4,47.4,30.04,West,259,0.0,0.0,100,0.00,,---,0.00,VWS V14.01,2013-03-17 11:05:00,
2013-03-17 07:06:00,47.6,47.6,30.04,West,259,0.0,0.0,100,0.00,,---,0.00,VWS V14.01,2013-03-17 11:06:00,
2013-03-17 07:07:00,47.7,47.7,30.04,West,259,0.0,0.0,100,0.00,,---,0.00,VWS V14.01,2013-03-17 11:07:00,
2013-03-17 07:08:00,47.9,47.9,30.04,West,259,0.0,0.0,100,0.00,,---,0.00,VWS V14.01,2013-03-17 11:08:00,
2013-03-17 07:09:00,48.0,48.0,30.04,West,259,0.0,0.0,100,0.00,,---,0.00,VWS V14.01,2013-03-17 11:09:00,
2013-03-17 07:10:00,48.3,48.3,30.04,West,259,0.0,0.0,100,0.00,,---,0.00,VWS V14.01,2013-03-17 11:10:00,
2013-03-17 07:11:00,48.5,48.5,30.04,West,259,0.0,0.0,100,0.00,,---,0.00,VWS V14.01,2013-03-17 11:11:00,
2013-03-17 07:12:00,48.6,48.6,30.04,West,259,0.0,0.0,100,0.00,,---,0.00,VWS V14.01,2013-03-17 11:12:00,
2013-03-17 07:13:00,48.6,48.6,30.04,West,259,0.0,0.0,100,0.00,,---,0.00,VWS V14.01,2013-03-17 11:13:00,
2013-03-17 07:14:00,49.1,49.1,30.04,West,259,0.0,0.0,100,0.00,,---,0.00,VWS V14.01,2013-03-17 11:14:00,
2013-03-17 07:15:00,49.6,49.6,30.05,West,259,0.0,0.0,100,0.00,,---,0.00,VWS V14.01,2013-03-17 11:15:00,
2013-03-17 07:16:00,50.2,50.2,30.05,West,259,0.0,0.0,100,0.00,,---,0.00,VWS V14.01,2013-03-17 11:16:00,
2013-03-17 07:17:00,50.5,50.5,30.05,West,259,0.0,0.0,100,0.00,,---,0.00,VWS V14.01,2013-03-17 11:17:00,
2013-03-17 07:18:00,50.8,50.8,30.05,West,259,0.0,0.0,100,0.00,,---,0.00,VWS V14.01,2013-03-17 11:18:00,
2013-03-17 07:19:00,51.0,51.0,30.05,West,259,0.0,0.0,100,0.00,,---,0.00,VWS V14.01,2013-03-17 11:19:00,
2013-03-17 07:20:00,51.0,51.0,30.05,West,259,0.0,0.0,100,0.00,,---,0.00,VWS V14.01,2013-03-17 11:20:00,
2013-03-17 07:21:00,51.1,51.1,30.05,West,281,0.0,0.0,100,0.00,,---,0.00,VWS V14.01,2013-03-17 11:21:00,
2013-03-17 07:22:00,51.3,51.3,30.05,West,281,0.0,0.0,100,0.00,,---,0.00,VWS V14.01,2013-03-17 11:22:00,
2013-03-17 07:23:00,51.4,51.4,30.05,West,281,0.0,0.0,100,0.00,,---,0.00,VWS V14.01,2013-03-17 11:23:00,
2013-03-17 07:24:00,51.7,51.7,30.05,West,281,0.0,0.0,100,0.00,,---,0.00,VWS V14.01,2013-03-17 11:24:00,
2013-03-17 07:25:00,51.9,51.9,30.05,West,281,0.0,0.0,100,0.00,,---,0.00,VWS V14.01,2013-03-17 11:25:00,
2013-03-17 07:26:00,52.0,52.0,30.05,West,281,0.0,0.0,100,0.00,,---,0.00,VWS V14.01,2013-03-17 11:26:00,
2013-03-17 07:27:00,52.0,52.0,30.05,West,281,0.0,0.0,100,0.00,,---,0.00,VWS V14.01,2013-03-17 11:27:00,
2013-03-17 07:28:00,52.0,52.0,30.05,West,281,0.0,0.0,100,0.00,,---,0.00,VWS V14.01,2013-03-17 11:28:00,
2013-03-17 07:29:00,52.0,52.0,30.05,West,281,0.0,0.0,100,0.00,,---,0.00,VWS V14.01,2013-03-17 11:29:00,
2013-03-17 07:30:00,52.2,52.2,30.05,West,281,0.0,0.0,100,0.00,,---,0.00,VWS V14.01,2013-03-17 11:30:00,
2013-03-17 07:31:00,52.3,52.3,30.05,West,281,0.0,0.0,100,0.00,,---,0.00,VWS V14.01,2013-03-17 11:31:00,
2013-03-17 07:32:00,52.5,52.5,30.05,West,281,0.0,0.0,100,0.00,,---,0.00,VWS V14.01,2013-03-17 11:32:00,
2013-03-17 07:33:00,52.8,52.8,30.05,West,281,0.0,0.0,100,0.00,,---,0.00,VWS V14.01,2013-03-17 11:33:00,
2013-03-17 07:34:00,52.8,52.8,30.05,West,281,0.0,0.0,100,0.00,,---,0.00,VWS V14.01,2013-03-17 11:34:00,
2013-03-17 07:35:00,53.1,53.1,30.05,West,281,0.0,0.0,100,0.00,,---,0.00,VWS V14.01,2013-03-17 11:35:00,
2013-03-17 07:36:00,53.2,53.2,30.05,West,281,0.0,0.0,100,0.00,,---,0.00,VWS V14.01,2013-03-17 11:36:00,
2013-03-17 07:37:00,53.3,53.3,30.05,West,281,0.0,0.0,100,0.00,,---,0.00,VWS V14.01,2013-03-17 11:37:00,
2013-03-17 07:38:00,53.6,53.6,30.05,West,281,0.0,0.0,100,0.00,,---,0.00,VWS V14.01,2013-03-17 11:38:00,
2013-03-17 07:39:00,53.8,53.8,30.05,West,281,0.0,0.0,100,0.00,,---,0.00,VWS V14.01,2013-03-17 11:39:00,
2013-03-17 07:40:00,53.9,53.9,30.05,West,281,0.0,0.0,100,0.00,,---,0.00,VWS V14.01,2013-03-17 11:40:00,
2013-03-17 07:41:00,54.1,54.1,30.05,West,281,0.0,0.0,100,0.00,,---,0.00,VWS V14.01,2013-03-17 11:41:00,
2013-03-17 07:42:00,54.1,54.1,30.05,West,281,0.0,0.0,100,0.00,,---,0.00,VWS V14.01,2013-03-17 11:42:00,
2013-03-17 07:43:00,54.4,54.4,30.05,West,281,0.0,0.0,100,0.00,,---,0.00,VWS V14.01,2013-03-17 11:43:00,
2013-03-17 07:44:00,54.4,54.4,30.05,West,281,0.0,0.0,100,0.00,,---,0.00,VWS V14.01,2013-03-17 11:44:00,
2013-03-17 07:45:00,54.5,54.5,30.05,West,281,0.0,0.0,100,0.00,,---,0.00,VWS V14.01,2013-03-17 11:45:00,
2013-03-17 07:46:00,54.8,54.8,30.05,West,281,0.0,0.0,100,0.00,,---,0.00,VWS V14.01,2013-03-17 11:46:00,
2013-03-17 07:47:00,55.0,55.0,30.05,West,281,0.0,0.0,100,0.00,,---,0.00,VWS V14.01,2013-03-17 11:47:00,
2013-03-17 07:48:00,55.1,55.1,30.05,West,281,0.0,0.0,100,0.00,,---,0.00,VWS V14.01,2013-03-17 11:48:00,
2013-03-17 07:49:00,55.3,55.3,30.05,West,281,0.0,0.0,100,0.00,,---,0.00,VWS V14.01,2013-03-17 11:49:00,
2013-03-17 07:50:00,55.4,55.4,30.05,West,281,0.0,0.0,100,0.00,,---,0.00,VWS V14.01,2013-03-17 11:50:00,
2013-03-17 07:51:00,55.6,55.6,30.05,West,281,0.0,0.0,100,0.00,,---,0.00,VWS V14.01,2013-03-17 11:51:00,
2013-03-17 07:52:00,55.7,55.7,30.05,West,281,0.0,0.0,100,0.00,,---,0.00,VWS V14.01,2013-03-17 11:52:00,
2013-03-17 07:53:00,55.7,55.7,30.05,West,281,0.0,0.0,100,0.00,,---,0.00,VWS V14.01,2013-03-17 11:53:00,
2013-03-17 07:54:00,56.0,56.0,30.05,West,281,0.0,0.0,100,0.00,,---,0.00,VWS V14.01,2013-03-17 11:54:00,
2013-03-17 07:55:00,56.0,56.0,30.05,West,279,0.0,0.0,100,0.00,,---,0.00,VWS V14.01,2013-03-17 11:55:00,
2013-03-17 07:56:00,56.0,56.0,30.05,West,277,0.0,0.0,100,0.00,,---,0.00,VWS V14.01,2013-03-17 11:56:00,
2013-03-17 07:57:00,56.2,56.2,30.05,West,277,0.0,0.0,100,0.00,,---,0.00,VWS V14.01,2013-03-17 11:57:00,
2013-03-17 07:58:00,56.5,56.5,30.05,SW,225,0.0,0.0,100,0.00,,---,0.00,VWS V14.01,2013-03-17 11:58:00,
2013-03-17 07:59:00,56.6,56.6,30.05,SSW,209,0.0,0.0,100,0.00,,---,0.00,VWS V14.01,2013-03-17 11:59:00,
2013-03-17 08:00:00,56.6,56.6,30.05,SSW,207,0.0,0.0,100,0.00,,---,0.00,VWS V14.01,2013-03-17 12:00:00,
2013-03-17 08:01:00,56.7,56.7,30.05,SSW,207,0.0,0.0,100,0.00,,---,0.00,VWS V14.01,2013-03-17 12:01:00,
2013-03-17 08:02:00,57.0,57.0,30.05,SSW,207,0.0,0.0,100,0.00,,---,0.00,VWS V14.01,2013-03-17 12:02:00,
2013-03-17 08:03:00,57.2,57.2,30.05,SSW,207,0.0,0.0,100,0.00,,---,0.00,VWS V14.01,2013-03-17 12:03:00,
2013-03-17 08:04:00,57.3,57.3,30.05,SSW,207,0.0,0.0,100,0.00,,---,0.00,VWS V14.01,2013-03-17 12:04:00,
2013-03-17 08:05:00,57.5,57.5,30.05,SSW,207,0.0,0.0,100,0.00,,---,0.00,VWS V14.01,2013-03-17 12:05:00,
2013-03-17 08:06:00,57.6,57.6,30.05,SSW,207,0.0,0.0,100,0.00,,---,0.00,VWS V14.01,2013-03-17 12:06:00,
2013-03-17 08:07:00,57.6,57.6,30.05,SSW,207,0.0,0.0,100,0.00,,---,0.00,VWS V14.01,2013-03-17 12:07:00,
2013-03-17 08:08:00,57.8,57.8,30.05,SSW,207,0.0,0.0,100,0.00,,---,0.00,VWS V14.01,2013-03-17 12:08:00,
2013-03-17 08:09:00,58.1,58.1,30.05,SSW,207,0.0,0.0,100,0.00,,---,0.00,VWS V14.01,2013-03-17 12:09:00,
2013-03-17 08:10:00,58.3,58.3,30.05,SSW,207,0.0,0.0,100,0.00,,---,0.00,VWS V14.01,2013-03-17 12:10:00,
2013-03-17 08:11:00,58.4,58.4,30.05,SSW,207,0.0,0.0,100,0.00,,---,0.00,VWS V14.01,2013-03-17 12:11:00,
2013-03-17 08:12:00,58.6,58.6,30.05,SSW,207,0.0,0.0,100,0.00,,---,0.00,VWS V14.01,2013-03-17 12:12:00,
2013-03-17 08:13:00,58.7,58.7,30.05,SSW,207,0.0,0.0,100,0.00,,---,0.00,VWS V14.01,2013-03-17 12:13:00,
2013-03-17 08:14:00,58.9,58.9,30.05,SSW,206,0.0,0.0,100,0.00,,---,0.00,VWS V14.01,2013-03-17 12:14:00,
2013-03-17 08:15:00,59.0,59.0,30.05,SSW,206,0.0,0.0,100,0.00,,---,0.00,VWS V14.01,2013-03-17 12:15:00,
2013-03-17 08:16:00,59.2,59.2,30.05,SSW,207,0.0,0.0,100,0.00,,---,0.00,VWS V14.01,2013-03-17 12:16:00,
2013-03-17 08:17:00,59.3,59.3,30.05,SSW,207,0.0,0.0,100,0.00,,---,0.00,VWS V14.01,2013-03-17 12:17:00,
2013-03-17 08:18:00,59.5,59.5,30.05,SSW,207,0.0,0.0,100,0.00,,---,0.00,VWS V14.01,2013-03-17 12:18:00,
2013-03-17 08:19:00,59.8,59.8,30.05,SSW,206,0.0,0.0,100,0.00,,---,0.00,VWS V14.01,2013-03-17 12:19:00,
2013-03-17 08:20:00,60.1,60.1,30.05,SSW,206,0.0,0.0,100,0.00,,---,0.00,VWS V14.01,2013-03-17 12:20:00,
2013-03-17 08:21:00,60.4,60.4,30.05,SSW,206,0.0,0.0,100,0.00,,---,0.00,VWS V14.01,2013-03-17 12:21:00,
2013-03-17 08:22:00,60.5,60.5,30.05,SSW,206,0.0,0.0,100,0.00,,---,0.00,VWS V14.01,2013-03-17 12:22:00,
2013-03-17 08:23:00,60.9,60.9,30.05,SSW,206,0.0,0.0,100,0.00,,---,0.00,VWS V14.01,2013-03-17 12:23:00,
2013-03-17 08:24:00,61.2,60.6,30.05,SSW,206,0.0,0.0,98,0.00,,---,0.00,VWS V14.01,2013-03-17 12:24:00,
2013-03-17 08:25:00,61.3,60.4,30.05,SSW,206,0.0,0.0,97,0.00,,---,0.00,VWS V14.01,2013-03-17 12:25:00,
2013-03-17 08:26:00,61.6,60.5,30.05,SSW,206,0.0,0.0,96,0.00,,---,0.00,VWS V14.01,2013-03-17 12:26:00,
2013-03-17 08:27:00,62.0,60.6,30.05,SSW,206,0.0,0.0,95,0.00,,---,0.00,VWS V14.01,2013-03-17 12:27:00,
2013-03-17 08:28:00,62.1,60.4,30.05,SSW,206,0.0,0.0,94,0.00,,---,0.00,VWS V14.01,2013-03-17 12:28:00,
2013-03-17 08:29:00,62.4,60.3,30.05,SSW,203,0.0,0.0,93,0.00,,---,0.00,VWS V14.01,2013-03-17 12:29:00,
2013-03-17 08:30:00,62.6,59.6,30.05,SSW,203,0.0,0.0,90,0.00,,---,0.00,VWS V14.01,2013-03-17 12:30:00,
2013-03-17 08:31:00,62.9,59.9,30.05,SSW,203,0.0,0.0,90,0.00,,---,0.00,VWS V14.01,2013-03-17 12:31:00,
2013-03-17 08:32:00,62.9,59.3,30.05,SSW,203,0.0,0.0,88,0.00,,---,0.00,VWS V14.01,2013-03-17 12:32:00,
2013-03-17 08:33:00,63.1,59.2,30.05,SSW,203,0.0,0.0,87,0.00,,---,0.00,VWS V14.01,2013-03-17 12:33:00,
2013-03-17 08:34:00,63.1,58.8,30.05,SSW,203,0.0,0.0,86,0.00,,---,0.00,VWS V14.01,2013-03-17 12:34:00,
2013-03-17 08:35:00,63.2,58.6,30.05,SSW,201,0.0,0.0,85,0.00,,---,0.00,VWS V14.01,2013-03-17 12:35:00,
2013-03-17 08:36:00,63.4,57.5,30.05,SSW,201,0.0,0.0,81,0.00,,---,0.00,VWS V14.01,2013-03-17 12:36:00,
2013-03-17 08:37:00,63.5,57.6,30.05,SSW,201,0.0,0.0,81,0.00,,---,0.00,VWS V14.01,2013-03-17 12:37:00,
2013-03-17 08:38:00,63.9,58.0,30.05,SSW,200,0.0,0.0,81,0.00,,---,0.00,VWS V14.01,2013-03-17 12:38:00,
2013-03-17 08:39:00,64.2,57.9,30.05,SSW,197,0.0,0.0,80,0.00,,---,0.00,VWS V14.01,2013-03-17 12:39:00,
2013-03-17 08:40:00,64.3,57.3,30.05,South,178,0.0,0.0,78,0.00,,---,0.00,VWS V14.01,2013-03-17 12:40:00,
2013-03-17 08:41:00,64.7,57.7,30.05,South,170,0.0,0.0,78,0.00,,---,0.00,VWS V14.01,2013-03-17 12:41:00,
2013-03-17 08:42:00,64.8,56.7,30.05,SSE,164,0.0,0.0,75,0.00,,---,0.00,VWS V14.01,2013-03-17 12:42:00,
2013-03-17 08:43:00,65.0,56.2,30.05,SSE,165,0.0,0.0,73,0.00,,---,0.00,VWS V14.01,2013-03-17 12:43:00,
2013-03-17 08:44:00,65.2,55.6,30.05,SE,141,0.0,0.0,71,0.00,,---,0.00,VWS V14.01,2013-03-17 12:44:00,
2013-03-17 08:45:00,65.3,55.7,30.05,SE,141,0.0,0.0,71,0.00,,---,0.00,VWS V14.01,2013-03-17 12:45:00,
2013-03-17 08:46:00,65.5,55.1,30.05,SE,146,0.0,0.0,69,0.00,,---,0.00,VWS V14.01,2013-03-17 12:46:00,
2013-03-17 08:47:00,65.6,54.4,30.05,SSE,147,0.0,0.0,67,0.00,,---,0.00,VWS V14.01,2013-03-17 12:47:00,
2013-03-17 08:48:00,65.6,54.0,30.05,SSE,147,0.0,0.0,66,0.00,,---,0.00,VWS V14.01,2013-03-17 12:48:00,
2013-03-17 08:49:00,65.8,53.7,30.05,SSE,148,0.0,0.0,65,0.00,,---,0.00,VWS V14.01,2013-03-17 12:49:00,
2013-03-17 08:50:00,65.8,53.7,30.05,SSE,150,0.0,0.0,65,0.00,,---,0.00,VWS V14.01,2013-03-17 12:50:00,
2013-03-17 08:51:00,66.0,53.5,30.05,SSE,160,0.0,0.0,64,0.00,,---,0.00,VWS V14.01,2013-03-17 12:51:00,
2013-03-17 08:52:00,66.1,53.6,30.05,SSE,163,0.0,0.0,64,0.00,,---,0.00,VWS V14.01,2013-03-17 12:52:00,
2013-03-17 08:53:00,66.3,53.3,30.05,SSE,163,0.0,0.0,63,0.00,,---,0.00,VWS V14.01,2013-03-17 12:53:00,
2013-03-17 08:54:00,66.4,53.4,30.05,South,171,0.0,0.0,63,0.00,,---,0.00,VWS V14.01,2013-03-17 12:54:00,
2013-03-17 08:55:00,66.8,53.8,30.05,South,170,0.0,0.0,63,0.00,,---,0.00,VWS V14.01,2013-03-17 12:55:00,
2013-03-17 08:56:00,66.9,52.6,30.05,SSE,168,0.0,0.0,60,0.00,,---,0.00,VWS V14.01,2013-03-17 12:56:00,
2013-03-17 08:57:00,67.1,52.8,30.05,South,175,0.0,0.0,60,0.00,,---,0.00,VWS V14.01,2013-03-17 12:57:00,
2013-03-17 08:58:00,67.1,51.8,30.05,South,173,0.0,0.0,58,0.00,,---,0.00,VWS V14.01,2013-03-17 12:58:00,
2013-03-17 08:59:00,67.1,51.8,30.05,SSE,165,0.0,0.0,58,0.00,,---,0.00,VWS V14.01,2013-03-17 12:59:00,
2013-03-17 09:00:00,67.3,51.1,30.05,SE,140,0.0,0.0,56,0.00,,---,0.00,VWS V14.01,2013-03-17 13:00:00,
2013-03-17 09:01:00,67.6,51.4,30.05,South,178,0.0,0.0,56,0.00,,---,0.00,VWS V14.01,2013-03-17 13:01:00,
2013-03-17 09:02:00,67.8,51.5,30.05,SSE,161,0.0,0.0,56,0.00,,---,0.00,VWS V14.01,2013-03-17 13:02:00,
2013-03-17 09:03:00,67.9,50.7,30.05,SE,144,0.0,0.0,54,0.00,,---,0.00,VWS V14.01,2013-03-17 13:03:00,
2013-03-17 09:04:00,67.9,50.2,30.05,SSE,153,0.0,0.0,53,0.00,,---,0.00,VWS V14.01,2013-03-17 13:04:00,
2013-03-17 09:05:00,68.1,50.3,30.05,SSE,154,0.0,0.0,53,0.00,,---,0.00,VWS V14.01,2013-03-17 13:05:00,
2013-03-17 09:06:00,68.1,50.3,30.05,SSE,153,0.0,0.0,53,0.00,,---,0.00,VWS V14.01,2013-03-17 13:06:00,
2013-03-17 09:07:00,68.1,49.8,30.05,SE,126,0.0,0.0,52,0.00,,---,0.00,VWS V14.01,2013-03-17 13:07:00,
2013-03-17 09:08:00,68.3,51.0,30.05,South,183,0.0,0.0,54,0.00,,---,0.00,VWS V14.01,2013-03-17 13:08:00,
2013-03-17 09:09:00,68.3,50.0,30.05,SE,140,0.0,0.0,52,0.00,,---,0.00,VWS V14.01,2013-03-17 13:09:00,
2013-03-17 09:10:00,68.3,50.0,30.05,SE,140,0.0,0.0,52,0.00,,---,0.00,VWS V14.01,2013-03-17 13:10:00,
2013-03-17 09:11:00,68.4,50.1,30.05,SE,141,0.0,0.0,52,0.00,,---,0.00,VWS V14.01,2013-03-17 13:11:00,
2013-03-17 09:12:00,68.4,50.1,30.05,SE,144,0.0,0.0,52,0.00,,---,0.00,VWS V14.01,2013-03-17 13:12:00,
2013-03-17 09:13:00,68.4,50.1,30.05,South,182,0.0,0.0,52,0.00,,---,0.00,VWS V14.01,2013-03-17 13:13:00,
2013-03-17 09:14:00,68.6,50.8,30.05,South,180,0.0,0.0,53,0.00,,---,0.00,VWS V14.01,2013-03-17 13:14:00,
2013-03-17 09:15:00,68.9,50.6,30.05,SE,146,0.0,0.0,52,0.00,,---,0.00,VWS V14.01,2013-03-17 13:15:00,
2013-03-17 09:16:00,68.9,50.6,30.05,SE,130,0.0,0.0,52,0.00,,---,0.00,VWS V14.01,2013-03-17 13:16:00,
2013-03-17 09:17:00,69.1,50.8,30.05,SE,136,0.0,0.0,52,0.00,,---,0.00,VWS V14.01,2013-03-17 13:17:00,
2013-03-17 09:18:00,69.1,50.2,30.05,SE,134,0.0,0.0,51,0.00,,---,0.00,VWS V14.01,2013-03-17 13:18:00,
2013-03-17 09:19:00,69.1,50.2,30.05,SE,134,0.0,0.0,51,0.00,,---,0.00,VWS V14.01,2013-03-17 13:19:00,
2013-03-17 09:20:00,68.9,50.0,30.05,SE,134,0.0,0.0,51,0.00,,---,0.00,VWS V14.01,2013-03-17 13:20:00,
2013-03-17 09:21:00,69.1,50.8,30.05,SE,134,0.0,0.0,52,0.00,,---,0.00,VWS V14.01,2013-03-17 13:21:00,
2013-03-17 09:22:00,69.3,50.9,30.05,SSE,152,0.0,0.0,52,0.00,,---,0.00,VWS V14.01,2013-03-17 13:22:00,
2013-03-17 09:23:00,69.6,50.2,30.05,SSW,192,0.0,0.0,50,0.00,,---,0.00,VWS V14.01,2013-03-17 13:23:00,
2013-03-17 09:24:00,69.8,48.7,30.05,SSW,205,0.0,0.0,47,0.00,,---,0.00,VWS V14.01,2013-03-17 13:24:00,
2013-03-17 09:25:00,69.9,49.3,30.05,SSW,202,0.0,0.0,48,0.00,,---,0.00,VWS V14.01,2013-03-17 13:25:00,
2013-03-17 09:26:00,69.9,48.8,30.05,SSW,192,0.0,0.0,47,0.00,,---,0.00,VWS V14.01,2013-03-17 13:26:00,
2013-03-17 09:27:00,69.9,48.8,30.05,SW,215,0.0,0.0,47,0.00,,---,0.00,VWS V14.01,2013-03-17 13:27:00,
2013-03-17 09:28:00,69.9,48.2,30.05,SSW,205,0.0,0.0,46,0.00,,---,0.00,VWS V14.01,2013-03-17 13:28:00,
2013-03-17 09:29:00,70.1,49.5,30.05,South,188,0.0,0.0,48,0.00,,---,0.00,VWS V14.01,2013-03-17 13:29:00,
2013-03-17 09:30:00,70.3,48.6,30.05,South,184,0.0,0.0,46,0.00,,---,0.00,VWS V14.01,2013-03-17 13:30:00,
2013-03-17 09:31:00,70.4,48.7,30.05,SSE,167,0.0,0.0,46,0.00,,---,0.00,VWS V14.01,2013-03-17 13:31:00,
2013-03-17 09:32:00,70.6,48.8,30.05,South,182,0.0,0.0,46,0.00,,---,0.00,VWS V14.01,2013-03-17 13:32:00,
2013-03-17 09:33:00,70.6,48.2,30.05,South,169,0.0,0.0,45,0.00,,---,0.00,VWS V14.01,2013-03-17 13:33:00,
2013-03-17 09:34:00,70.4,48.7,30.05,SSW,200,0.0,0.0,46,0.00,,---,0.00,VWS V14.01,2013-03-17 13:34:00,
2013-03-17 09:35:00,70.3,48.0,30.05,South,187,0.0,0.0,45,0.00,,---,0.00,VWS V14.01,2013-03-17 13:35:00,
2013-03-17 09:36:00,70.1,48.4,30.05,South,189,0.0,0.0,46,0.00,,---,0.00,VWS V14.01,2013-03-17 13:36:00,
2013-03-17 09:37:00,70.1,48.4,30.05,South,177,0.0,0.0,46,0.00,,---,0.00,VWS V14.01,2013-03-17 13:37:00,
2013-03-17 09:38:00,70.1,47.8,30.05,South,171,0.0,0.0,45,0.00,,---,0.00,VWS V14.01,2013-03-17 13:38:00,
2013-03-17 09:39:00,70.1,47.8,30.05,South,184,0.0,0.0,45,0.00,,---,0.00,VWS V14.01,2013-03-17 13:39:00,
2013-03-17 09:40:00,69.9,48.2,30.05,SSW,195,0.0,0.0,46,0.00,,---,0.00,VWS V14.01,2013-03-17 13:40:00,
2013-03-17 09:41:00,69.8,48.1,30.05,SSE,150,0.0,0.0,46,0.00,,---,0.00,VWS V14.01,2013-03-17 13:41:00,
2013-03-17 09:42:00,69.9,48.8,30.05,SSE,151,0.0,0.0,47,0.00,,---,0.00,VWS V14.01,2013-03-17 13:42:00,
2013-03-17 09:43:00,69.9,48.2,30.05,SSE,149,0.0,0.0,46,0.00,,---,0.00,VWS V14.01,2013-03-17 13:43:00,
2013-03-17 09:44:00,70.3,49.1,30.05,SE,140,0.0,0.0,47,0.00,,---,0.00,VWS V14.01,2013-03-17 13:44:00,
2013-03-17 09:45:00,70.4,49.2,30.05,SSE,153,0.0,0.0,47,0.00,,---,0.00,VWS V14.01,2013-03-17 13:45:00,
2013-03-17 09:46:00,70.4,49.2,30.05,SSE,153,0.0,0.0,47,0.00,,---,0.00,VWS V14.01,2013-03-17 13:46:00,
2013-03-17 09:47:00,70.6,48.8,30.05,SE,143,0.0,0.0,46,0.00,,---,0.00,VWS V14.01,2013-03-17 13:47:00,
2013-03-17 09:48:00,70.6,48.8,30.05,SSE,150,0.0,0.0,46,0.00,,---,0.00,VWS V14.01,2013-03-17 13:48:00,
2013-03-17 09:49:00,70.4,48.7,30.05,South,188,0.0,0.0,46,0.00,,---,0.00,VWS V14.01,2013-03-17 13:49:00,
2013-03-17 09:50:00,70.3,49.7,30.05,SSW,196,0.0,0.0,48,0.00,,---,0.00,VWS V14.01,2013-03-17 13:50:00,
2013-03-17 09:51:00,70.3,49.7,30.05,South,171,0.0,0.0,48,0.00,,---,0.00,VWS V14.01,2013-03-17 13:51:00,
2013-03-17 09:52:00,70.3,49.7,30.05,SSW,196,0.0,0.0,48,0.00,,---,0.00,VWS V14.01,2013-03-17 13:52:00,
2013-03-17 09:53:00,70.3,50.8,30.05,South,182,0.0,0.0,50,0.00,,---,0.00,VWS V14.01,2013-03-17 13:53:00,
2013-03-17 09:54:00,70.4,50.3,30.05,SSE,153,0.0,0.0,49,0.00,,---,0.00,VWS V14.01,2013-03-17 13:54:00,
2013-03-17 09:55:00,70.4,50.3,30.05,South,172,0.0,0.0,49,0.00,,---,0.00,VWS V14.01,2013-03-17 13:55:00,
2013-03-17 09:56:00,70.4,49.8,30.05,South,178,0.0,0.0,48,0.00,,---,0.00,VWS V14.01,2013-03-17 13:56:00,
2013-03-17 09:57:00,62.9,59.0,30.05,SSW,203,0.0,0.0,87,0.00,,---,0.00,VWS V14.01,2013-03-17 13:57:00,
2013-03-17 09:58:00,70.6,50.0,30.05,SE,130,0.0,0.0,48,0.00,,---,0.00,VWS V14.01,2013-03-17 13:58:00,
2013-03-17 09:59:00,70.6,50.5,30.05,SE,132,0.0,0.0,49,0.00,,---,0.00,VWS V14.01,2013-03-17 13:59:00,
2013-03-17 10:00:00,70.6,50.5,30.05,South,177,0.0,0.0,49,0.00,,---,0.00,VWS V14.01,2013-03-17 14:00:00,
2013-03-17 10:01:00,70.4,50.3,30.05,SSW,198,0.0,0.0,49,0.00,,---,0.00,VWS V14.01,2013-03-17 14:01:00,
2013-03-17 10:02:00,70.8,51.3,30.05,SE,143,0.0,0.0,50,0.00,,---,0.00,VWS V14.01,2013-03-17 14:02:00,
2013-03-17 10:03:00,70.9,50.8,30.05,SE,144,0.0,0.0,49,0.00,,---,0.00,VWS V14.01,2013-03-17 14:03:00,
2013-03-17 10:04:00,70.9,50.2,30.05,SE,144,0.0,0.0,48,0.00,,---,0.00,VWS V14.01,2013-03-17 14:04:00,
2013-03-17 10:05:00,70.9,50.8,30.05,SW,216,0.0,0.0,49,0.00,,---,0.00,VWS V14.01,2013-03-17 14:05:00,
2013-03-17 10:06:00,71.1,51.0,30.05,South,173,0.0,0.0,49,0.00,,---,0.00,VWS V14.01,2013-03-17 14:06:00,
2013-03-17 10:07:00,71.1,51.0,30.05,South,175,0.0,0.0,49,0.00,,---,0.00,VWS V14.01,2013-03-17 14:07:00,
2013-03-17 10:08:00,71.3,51.2,30.05,South,184,0.0,0.0,49,0.00,,---,0.00,VWS V14.01,2013-03-17 14:08:00,
2013-03-17 10:09:00,71.5,51.4,30.05,SSE,167,0.0,0.0,49,0.00,,---,0.00,VWS V14.01,2013-03-17 14:09:00,
2013-03-17 10:10:00,71.3,52.3,30.05,South,178,0.0,0.0,51,0.00,,---,0.00,VWS V14.01,2013-03-17 14:10:00,
2013-03-17 10:11:00,71.3,51.7,30.05,SE,146,0.0,0.0,50,0.00,,---,0.00,VWS V14.01,2013-03-17 14:11:00,
2013-03-17 10:12:00,71.3,51.7,30.05,South,171,5.0,5.0,50,0.00,,---,0.00,VWS V14.01,2013-03-17 14:12:00,
2013-03-17 10:13:00,72.8,53.1,30.05,SSE,168,3.0,6.0,50,0.00,,---,0.00,VWS V14.01,2013-03-17 14:13:00,
2013-03-17 10:14:00,72.7,53.0,30.05,South,174,6.0,6.0,50,0.00,,---,0.00,VWS V14.01,2013-03-17 14:14:00,
2013-03-17 10:15:00,72.8,53.1,30.04,South,173,0.0,6.0,50,0.00,,---,0.00,VWS V14.01,2013-03-17 14:15:00,
2013-03-17 10:16:00,72.8,53.6,30.04,South,187,11.0,11.0,51,0.00,,---,0.00,VWS V14.01,2013-03-17 14:16:00,
2013-03-17 10:17:00,73.0,53.8,30.04,SW,219,9.0,13.0,51,0.00,,---,0.00,VWS V14.01,2013-03-17 14:17:00,
2013-03-17 10:18:00,73.0,53.8,30.04,SSW,205,8.0,13.0,51,0.00,,---,0.00,VWS V14.01,2013-03-17 14:18:00,
2013-03-17 10:19:00,73.1,53.4,30.04,SSW,207,5.0,13.0,50,0.00,,---,0.00,VWS V14.01,2013-03-17 14:19:00,
2013-03-17 10:20:00,73.1,53.4,30.04,SW,214,9.0,13.0,50,0.00,,---,0.00,VWS V14.01,2013-03-17 14:20:00,
2013-03-17 10:21:00,73.2,54.0,30.04,SW,217,6.0,13.0,51,0.00,,---,0.00,VWS V14.01,2013-03-17 14:21:00,
2013-03-17 10:22:00,73.4,54.2,30.04,South,178,10.0,13.0,51,0.00,,---,0.00,VWS V14.01,2013-03-17 14:22:00,
2013-03-17 10:23:00,73.5,53.7,30.04,South,173,7.0,13.0,50,0.00,,---,0.00,VWS V14.01,2013-03-17 14:23:00,
2013-03-17 10:24:00,73.6,53.8,30.04,SW,221,12.0,13.0,50,0.00,,---,0.00,VWS V14.01,2013-03-17 14:24:00,
2013-03-17 10:25:00,73.7,53.9,30.04,SW,221,10.0,13.0,50,0.00,,---,0.00,VWS V14.01,2013-03-17 14:25:00,
2013-03-17 10:26:00,73.8,53.5,30.04,SSW,209,6.0,13.0,49,0.00,,---,0.00,VWS V14.01,2013-03-17 14:26:00,
2013-03-17 10:27:00,73.8,53.5,30.04,SSW,213,8.0,13.0,49,0.00,,---,0.00,VWS V14.01,2013-03-17 14:27:00,
2013-03-17 10:28:00,73.8,53.5,30.04,SSW,210,3.0,13.0,49,0.00,,---,0.00,VWS V14.01,2013-03-17 14:28:00,
2013-03-17 10:29:00,73.7,53.4,30.04,SSW,200,6.0,13.0,49,0.00,,---,0.00,VWS V14.01,2013-03-17 14:29:00,
2013-03-17 10:30:00,73.7,53.4,30.04,South,184,10.0,13.0,49,0.00,,---,0.00,VWS V14.01,2013-03-17 14:30:00,
2013-03-17 10:31:00,73.7,53.4,30.04,South,183,4.0,10.0,49,0.00,,---,0.00,VWS V14.01,2013-03-17 14:31:00,
2013-03-17 10:32:00,73.6,53.3,30.04,SSW,211,10.0,13.0,49,0.00,,---,0.00,VWS V14.01,2013-03-17 14:32:00,
2013-03-17 10:33:00,73.6,53.3,30.04,SSW,198,11.0,13.0,49,0.00,,---,0.00,VWS V14.01,2013-03-17 14:33:00,
2013-03-17 10:34:00,73.6,53.3,30.04,South,180,8.0,13.0,49,0.00,,---,0.00,VWS V14.01,2013-03-17 14:34:00,
2013-03-17 10:35:00,73.5,53.7,30.04,SSW,203,16.0,16.0,50,0.00,,---,0.00,VWS V14.01,2013-03-17 14:35:00,
2013-03-17 10:36:00,73.4,53.7,30.04,South,182,9.0,16.0,50,0.00,,---,0.00,VWS V14.01,2013-03-17 14:36:00,
2013-03-17 10:37:00,73.3,53.0,30.04,SW,224,10.0,16.0,49,0.00,,---,0.00,VWS V14.01,2013-03-17 14:37:00,
2013-03-17 10:38:00,73.3,53.0,30.04,WSW,240,6.0,16.0,49,0.00,,---,0.00,VWS V14.01,2013-03-17 14:38:00,
2013-03-17 10:39:00,73.2,52.9,30.04,WSW,241,5.0,16.0,49,0.00,,---,0.00,VWS V14.01,2013-03-17 14:39:00,
2013-03-17 10:40:00,73.1,52.8,30.04,SW,215,6.0,16.0,49,0.00,,---,0.00,VWS V14.01,2013-03-17 14:40:00,
2013-03-17 10:41:00,73.0,53.3,30.04,SSW,203,10.0,16.0,50,0.00,,---,0.00,VWS V14.01,2013-03-17 14:41:00,
2013-03-17 10:42:00,73.0,53.3,30.04,SW,217,7.0,16.0,50,0.00,,---,0.00,VWS V14.01,2013-03-17 14:42:00,
2013-03-17 10:43:00,72.9,53.2,30.04,SW,222,14.0,16.0,50,0.00,,---,0.00,VWS V14.01,2013-03-17 14:43:00,
2013-03-17 10:44:00,72.8,53.1,30.04,SSW,202,12.0,16.0,50,0.00,,---,0.00,VWS V14.01,2013-03-17 14:44:00,
2013-03-17 10:45:00,72.7,53.0,30.04,SW,224,9.0,16.0,50,0.00,,---,0.00,VWS V14.01,2013-03-17 14:45:00,
2013-03-17 10:46:00,72.6,52.9,30.04,SSW,205,10.0,16.0,50,0.00,,---,0.00,VWS V14.01,2013-03-17 14:46:00,
2013-03-17 10:47:00,72.5,53.9,30.04,South,186,6.0,16.0,52,0.00,,---,0.00,VWS V14.01,2013-03-17 14:47:00,
2013-03-17 10:48:00,72.5,53.9,30.04,South,177,9.0,16.0,52,0.00,,---,0.00,VWS V14.01,2013-03-17 14:48:00,
2013-03-17 10:49:00,72.6,54.0,30.04,South,191,6.0,16.0,52,0.00,,---,0.00,VWS V14.01,2013-03-17 14:49:00,
2013-03-17 10:50:00,72.7,54.1,30.04,South,179,5.0,16.0,52,0.00,,---,0.00,VWS V14.01,2013-03-17 14:50:00,
2013-03-17 10:51:00,72.9,54.3,30.04,SSW,207,7.0,16.0,52,0.00,,---,0.00,VWS V14.01,2013-03-17 14:51:00,
2013-03-17 10:52:00,73.1,54.5,30.04,SW,229,7.0,16.0,52,0.00,,---,0.00,VWS V14.01,2013-03-17 14:52:00,
2013-03-17 10:53:00,73.3,54.6,30.04,SW,218,13.0,16.0,52,0.00,,---,0.00,VWS V14.01,2013-03-17 14:53:00,
2013-03-17 10:54:00,73.5,54.3,30.04,South,175,7.0,16.0,51,0.00,,---,0.00,VWS V14.01,2013-03-17 14:54:00,
2013-03-17 10:55:00,73.7,53.4,30.04,SSW,192,6.0,16.0,49,0.00,,---,0.00,VWS V14.01,2013-03-17 14:55:00,
2013-03-17 10:56:00,73.7,53.4,30.04,SW,221,13.0,16.0,49,0.00,,---,0.00,VWS V14.01,2013-03-17 14:56:00,
2013-03-17 10:57:00,73.7,53.4,30.04,SW,228,9.0,16.0,49,0.00,,---,0.00,VWS V14.01,2013-03-17 14:57:00,
2013-03-17 10:58:00,73.6,53.3,30.04,SW,217,6.0,16.0,49,0.00,,---,0.00,VWS V14.01,2013-03-17 14:58:00,
2013-03-17 10:59:00,73.6,53.8,30.04,SW,224,11.0,16.0,50,0.00,,---,0.00,VWS V14.01,2013-03-17 14:59:00,
2013-03-17 11:00:00,73.6,53.3,30.03,South,183,11.0,16.0,49,0.00,,---,0.00,VWS V14.01,2013-03-17 15:00:00,
2013-03-17 11:01:00,73.7,53.4,30.03,SSW,211,13.0,17.0,49,0.00,,---,0.00,VWS V14.01,2013-03-17 15:01:00,
2013-03-17 11:02:00,73.8,53.5,30.03,SW,219,10.0,17.0,49,0.00,,---,0.00,VWS V14.01,2013-03-17 15:02:00,
2013-03-17 11:03:00,73.7,53.4,30.03,SSW,209,9.0,17.0,49,0.00,,---,0.00,VWS V14.01,2013-03-17 15:03:00,
2013-03-17 11:04:00,73.7,53.9,30.03,SW,233,11.0,17.0,50,0.00,,---,0.00,VWS V14.01,2013-03-17 15:04:00,
2013-03-17 11:05:00,73.8,54.0,30.03,WSW,252,10.0,17.0,50,0.00,,---,0.00,VWS V14.01,2013-03-17 15:05:00,
2013-03-17 11:06:00,73.9,54.1,30.03,SSW,196,7.0,17.0,50,0.00,,---,0.00,VWS V14.01,2013-03-17 15:06:00,
2013-03-17 11:07:00,74.0,52.5,30.03,SW,234,7.0,17.0,47,0.00,,---,0.00,VWS V14.01,2013-03-17 15:07:00,
2013-03-17 11:08:00,74.1,52.6,30.03,SW,219,13.0,17.0,47,0.00,,---,0.00,VWS V14.01,2013-03-17 15:08:00,
2013-03-17 11:09:00,74.2,52.7,30.03,SW,223,5.0,17.0,47,0.00,,---,0.00,VWS V14.01,2013-03-17 15:09:00,
2013-03-17 11:10:00,74.2,53.3,30.03,South,180,7.0,17.0,48,0.00,,---,0.00,VWS V14.01,2013-03-17 15:10:00,
2013-03-17 11:11:00,74.3,53.4,30.03,South,174,19.0,19.0,48,0.00,,---,0.00,VWS V14.01,2013-03-17 15:11:00,
2013-03-17 11:12:00,74.4,53.5,30.03,SW,223,11.0,19.0,48,0.00,,---,0.00,VWS V14.01,2013-03-17 15:12:00,
2013-03-17 11:13:00,74.3,53.4,30.03,SSE,164,10.0,19.0,48,0.00,,---,0.00,VWS V14.01,2013-03-17 15:13:00,
2013-03-17 11:14:00,74.3,53.4,30.03,SSE,161,11.0,19.0,48,0.00,,---,0.00,VWS V14.01,2013-03-17 15:14:00,
2013-03-17 11:15:00,74.3,53.4,30.03,South,175,11.0,19.0,48,0.00,,---,0.00,VWS V14.01,2013-03-17 15:15:00,
2013-03-17 11:16:00,74.3,53.4,30.03,South,184,10.0,19.0,48,0.00,,---,0.00,VWS V14.01,2013-03-17 15:16:00,
2013-03-17 11:17:00,74.4,54.0,30.03,South,177,13.0,19.0,49,0.00,,---,0.00,VWS V14.01,2013-03-17 15:17:00,
2013-03-17 11:18:00,74.4,54.0,30.03,South,182,15.0,19.0,49,0.00,,---,0.00,VWS V14.01,2013-03-17 15:18:00,
2013-03-17 11:19:00,74.4,54.0,30.03,SW,214,11.0,19.0,49,0.00,,---,0.00,VWS V14.01,2013-03-17 15:19:00,
2013-03-17 11:20:00,74.2,53.8,30.03,SW,221,10.0,19.0,49,0.00,,---,0.00,VWS V14.01,2013-03-17 15:20:00,
2013-03-17 11:21:00,74.0,53.7,30.03,South,182,12.0,19.0,49,0.00,,---,0.00,VWS V14.01,2013-03-17 15:21:00,
2013-03-17 11:22:00,73.9,53.6,30.03,South,172,13.0,19.0,49,0.00,,---,0.00,VWS V14.01,2013-03-17 15:22:00,
2013-03-17 11:23:00,74.0,54.2,30.03,South,170,11.0,19.0,50,0.00,,---,0.00,VWS V14.01,2013-03-17 15:23:00,
2013-03-17 11:24:00,74.1,54.3,30.03,SSW,193,7.0,19.0,50,0.00,,---,0.00,VWS V14.01,2013-03-17 15:24:00,
2013-03-17 11:25:00,74.2,54.4,30.03,SW,229,15.0,19.0,50,0.00,,---,0.00,VWS V14.01,2013-03-17 15:25:00,
2013-03-17 11:26:00,74.6,53.6,30.03,SW,225,14.0,19.0,48,0.00,,---,0.00,VWS V14.01,2013-03-17 15:26:00,
2013-03-17 11:27:00,74.8,53.8,30.03,SSW,200,13.0,19.0,48,0.00,,---,0.00,VWS V14.01,2013-03-17 15:27:00,
2013-03-17 11:28:00,74.8,53.2,30.03,South,184,11.0,19.0,47,0.00,,---,0.00,VWS V14.01,2013-03-17 15:28:00,
2013-03-17 11:29:00,74.7,53.2,30.03,South,182,7.0,19.0,47,0.00,,---,0.00,VWS V14.01,2013-03-17 15:29:00,
2013-03-17 11:30:00,74.7,53.2,30.03,South,183,6.0,19.0,47,0.00,,---,0.00,VWS V14.01,2013-03-17 15:30:00,
2013-03-17 11:31:00,74.7,53.7,30.03,SW,217,6.0,7.0,48,0.00,,---,0.00,VWS V14.01,2013-03-17 15:31:00,
2013-03-17 11:32:00,74.7,53.2,30.03,SW,232,13.0,15.0,47,0.00,,---,0.00,VWS V14.01,2013-03-17 15:32:00,
2013-03-17 11:33:00,75.1,53.5,30.03,SW,219,8.0,15.0,47,0.00,,---,0.00,VWS V14.01,2013-03-17 15:33:00,
2013-03-17 11:34:00,75.1,53.5,30.03,WSW,238,9.0,15.0,47,0.00,,---,0.00,VWS V14.01,2013-03-17 15:34:00,
2013-03-17 11:35:00,75.3,53.1,30.03,WSW,241,6.0,15.0,46,0.00,,---,0.00,VWS V14.01,2013-03-17 15:35:00,
2013-03-17 11:36:00,75.5,53.9,30.03,South,178,4.0,15.0,47,0.00,,---,0.00,VWS V14.01,2013-03-17 15:36:00,
2013-03-17 11:37:00,75.5,53.9,30.03,SW,223,11.0,15.0,47,0.00,,---,0.00,VWS V14.01,2013-03-17 15:37:00,
2013-03-17 11:38:00,75.8,54.2,30.03,WSW,243,11.0,15.0,47,0.00,,---,0.00,VWS V14.01,2013-03-17 15:38:00,
2013-03-17 11:39:00,75.9,53.7,30.03,SW,224,9.0,16.0,46,0.00,,---,0.00,VWS V14.01,2013-03-17 15:39:00,
2013-03-17 11:40:00,75.9,53.7,30.03,WSW,254,5.0,16.0,46,0.00,,---,0.00,VWS V14.01,2013-03-17 15:40:00,
2013-03-17 11:41:00,76.1,54.4,30.03,SW,214,11.0,16.0,47,0.00,,---,0.00,VWS V14.01,2013-03-17 15:41:00,
2013-03-17 11:42:00,76.3,54.6,30.03,SSW,199,9.0,17.0,47,0.00,,---,0.00,VWS V14.01,2013-03-17 15:42:00,
2013-03-17 11:43:00,76.3,54.6,30.03,SSW,203,12.0,17.0,47,0.00,,---,0.00,VWS V14.01,2013-03-17 15:43:00,
2013-03-17 11:44:00,76.2,54.5,30.03,South,174,12.0,17.0,47,0.00,,---,0.00,VWS V14.01,2013-03-17 15:44:00,
2013-03-17 11:45:00,76.2,54.5,30.02,South,180,13.0,17.0,47,0.00,,---,0.00,VWS V14.01,2013-03-17 15:45:00,
2013-03-17 11:46:00,76.1,54.4,30.02,South,184,9.0,17.0,47,0.00,,---,0.00,VWS V14.01,2013-03-17 15:46:00,
2013-03-17 11:47:00,76.0,54.3,30.02,SSW,206,7.0,17.0,47,0.00,,---,0.00,VWS V14.01,2013-03-17 15:47:00,
2013-03-17 11:48:00,75.8,54.7,30.02,SSW,202,11.0,17.0,48,0.00,,---,0.00,VWS V14.01,2013-03-17 15:48:00,
2013-03-17 11:49:00,75.8,54.7,30.02,SSW,199,12.0,17.0,48,0.00,,---,0.00,VWS V14.01,2013-03-17 15:49:00,
2013-03-17 11:50:00,75.7,54.1,30.02,SSW,205,6.0,17.0,47,0.00,,---,0.00,VWS V14.01,2013-03-17 15:50:00,
2013-03-17 11:51:00,75.7,54.6,30.02,SSW,210,14.0,17.0,48,0.00,,---,0.00,VWS V14.01,2013-03-17 15:51:00,
2013-03-17 11:52:00,75.8,54.7,30.02,SW,223,14.0,17.0,48,0.00,,---,0.00,VWS V14.01,2013-03-17 15:52:00,
2013-03-17 11:53:00,75.8,54.7,30.02,SSW,196,10.0,17.0,48,0.00,,---,0.00,VWS V14.01,2013-03-17 15:53:00,
2013-03-17 11:54:00,75.9,54.8,30.02,SW,222,16.0,17.0,48,0.00,,---,0.00,VWS V14.01,2013-03-17 15:54:00,
2013-03-17 11:55:00,76.0,54.9,30.02,SW,224,11.0,17.0,48,0.00,,---,0.00,VWS V14.01,2013-03-17 15:55:00,
2013-03-17 11:56:00,76.0,54.9,30.02,SW,233,9.0,17.0,48,0.00,,---,0.00,VWS V14.01,2013-03-17 15:56:00,
2013-03-17 11:57:00,76.0,53.8,30.02,WSW,249,11.0,17.0,46,0.00,,---,0.00,VWS V14.01,2013-03-17 15:57:00,
2013-03-17 11:58:00,76.1,53.8,30.02,WSW,248,12.0,17.0,46,0.00,,---,0.00,VWS V14.01,2013-03-17 15:58:00,
2013-03-17 11:59:00,76.1,53.8,30.02,SW,229,15.0,17.0,46,0.00,,---,0.00,VWS V14.01,2013-03-17 15:59:00,
2013-03-17 12:00:00,76.2,54.5,30.00,SW,220,7.0,17.0,47,0.00,,---,0.00,VWS V14.01,2013-03-17 16:00:00,
2013-03-17 12:01:00,76.2,55.1,30.00,SW,236,7.0,10.0,48,0.00,,---,0.00,VWS V14.01,2013-03-17 16:01:00,
2013-03-17 12:02:00,76.2,55.1,30.00,SW,223,17.0,17.0,48,0.00,,---,0.00,VWS V14.01,2013-03-17 16:02:00,
2013-03-17 12:03:00,76.2,54.5,30.00,SW,217,12.0,17.0,47,0.00,,---,0.00,VWS V14.01,2013-03-17 16:03:00,
2013-03-17 12:04:00,76.3,54.0,30.00,SW,234,12.0,17.0,46,0.00,,---,0.00,VWS V14.01,2013-03-17 16:04:00,
2013-03-17 12:05:00,76.3,54.0,30.00,SW,234,7.0,17.0,46,0.00,,---,0.00,VWS V14.01,2013-03-17 16:05:00,
2013-03-17 12:06:00,76.4,54.1,30.00,SSW,200,6.0,17.0,46,0.00,,---,0.00,VWS V14.01,2013-03-17 16:06:00,
2013-03-17 12:07:00,76.5,54.2,30.00,SSW,192,10.0,17.0,46,0.00,,---,0.00,VWS V14.01,2013-03-17 16:07:00,
2013-03-17 12:08:00,76.4,54.1,30.00,South,171,5.0,17.0,46,0.00,,---,0.00,VWS V14.01,2013-03-17 16:08:00,
2013-03-17 12:09:00,76.4,54.1,30.00,SSW,200,7.0,17.0,46,0.00,,---,0.00,VWS V14.01,2013-03-17 16:09:00,
2013-03-17 12:10:00,76.4,54.1,30.00,South,176,11.0,17.0,46,0.00,,---,0.00,VWS V14.01,2013-03-17 16:10:00,
2013-03-17 12:11:00,76.4,54.1,30.00,South,175,11.0,17.0,46,0.00,,---,0.00,VWS V14.01,2013-03-17 16:11:00,
2013-03-17 12:12:00,76.4,54.1,30.00,SW,217,8.0,17.0,46,0.00,,---,0.00,VWS V14.01,2013-03-17 16:12:00,
2013-03-17 12:13:00,76.4,54.7,30.00,SSW,204,14.0,17.0,47,0.00,,---,0.00,VWS V14.01,2013-03-17 16:13:00,
2013-03-17 12:14:00,76.5,54.8,30.00,SSW,202,12.0,17.0,47,0.00,,---,0.00,VWS V14.01,2013-03-17 16:14:00,
2013-03-17 12:15:00,76.3,53.4,30.00,WSW,239,11.0,17.0,45,0.00,,---,0.00,VWS V14.01,2013-03-17 16:15:00,
2013-03-17 12:16:00,76.2,53.3,30.00,WSW,238,6.0,17.0,45,0.00,,---,0.00,VWS V14.01,2013-03-17 16:16:00,
2013-03-17 12:17:00,76.2,53.3,30.00,SW,225,10.0,17.0,45,0.00,,---,0.00,VWS V14.01,2013-03-17 16:17:00,
2013-03-17 12:18:00,76.4,53.5,30.00,SW,226,18.0,20.0,45,0.00,,---,0.00,VWS V14.01,2013-03-17 16:18:00,
2013-03-17 12:19:00,76.4,54.1,30.00,SW,225,14.0,20.0,46,0.00,,---,0.00,VWS V14.01,2013-03-17 16:19:00,
2013-03-17 12:20:00,76.4,54.1,30.00,SW,234,14.0,20.0,46,0.00,,---,0.00,VWS V14.01,2013-03-17 16:20:00,
2013-03-17 12:21:00,75.3,53.1,30.00,SSW,205,0.0,20.0,46,0.00,,---,0.00,VWS V14.01,2013-03-17 16:21:00,
2013-03-17 12:22:00,75.1,52.9,30.00,SW,234,0.0,20.0,46,0.00,,---,0.00,VWS V14.01,2013-03-17 16:22:00,
2013-03-17 12:23:00,75.3,48.7,30.00,SW,226,0.0,20.0,39,0.00,,---,0.00,VWS V14.01,2013-03-17 16:23:00,
2013-03-17 12:24:00,75.4,49.4,30.00,SW,231,0.0,20.0,40,0.00,,---,0.00,VWS V14.01,2013-03-17 16:24:00,
2013-03-17 12:25:00,75.4,50.1,30.00,SSW,208,0.0,20.0,41,0.00,,---,0.00,VWS V14.01,2013-03-17 16:25:00,
2013-03-17 12:26:00,75.6,50.9,30.00,SSW,211,0.0,20.0,42,0.00,,---,0.00,VWS V14.01,2013-03-17 16:26:00,
2013-03-17 12:27:00,75.4,51.4,30.00,SSW,209,0.0,20.0,43,0.00,,---,0.00,VWS V14.01,2013-03-17 16:27:00,
2013-03-17 12:28:00,75.6,52.2,30.00,SSW,195,0.0,20.0,44,0.00,,---,0.00,VWS V14.01,2013-03-17 16:28:00,
2013-03-17 12:29:00,75.4,50.7,30.00,SSW,205,0.0,20.0,42,0.00,,---,0.00,VWS V14.01,2013-03-17 16:29:00,
2013-03-17 12:30:00,75.3,50.7,30.00,SSW,211,0.0,20.0,42,0.00,,---,0.00,VWS V14.01,2013-03-17 16:30:00,
2013-03-17 12:31:00,74.9,51.5,30.00,SW,220,0.0,0.0,44,0.00,,---,0.00,VWS V14.01,2013-03-17 16:31:00,
2013-03-17 12:32:00,74.6,51.9,30.00,SW,227,0.0,0.0,45,0.00,,---,0.00,VWS V14.01,2013-03-17 16:32:00,
2013-03-17 12:33:00,74.6,52.5,30.00,SSW,213,0.0,0.0,46,0.00,,---,0.00,VWS V14.01,2013-03-17 16:33:00,
2013-03-17 12:34:00,74.4,51.7,30.00,SW,216,0.0,0.0,45,0.00,,---,0.00,VWS V14.01,2013-03-17 16:34:00,
2013-03-17 12:35:00,74.4,51.7,30.00,SSW,213,0.0,0.0,45,0.00,,---,0.00,VWS V14.01,2013-03-17 16:35:00,
2013-03-17 12:36:00,74.6,53.1,30.00,SW,215,0.0,0.0,47,0.00,,---,0.00,VWS V14.01,2013-03-17 16:36:00,
2013-03-17 12:37:00,74.9,53.3,30.00,SSW,210,0.0,0.0,47,0.00,,---,0.00,VWS V14.01,2013-03-17 16:37:00,
2013-03-17 12:38:00,75.3,53.1,30.00,SW,223,0.0,0.0,46,0.00,,---,0.00,VWS V14.01,2013-03-17 16:38:00,
2013-03-17 12:39:00,75.3,51.9,30.00,SW,220,0.0,0.0,44,0.00,,---,0.00,VWS V14.01,2013-03-17 16:39:00,
2013-03-17 12:40:00,75.3,51.3,30.00,SW,236,0.0,0.0,43,0.00,,---,0.00,VWS V14.01,2013-03-17 16:40:00,
2013-03-17 12:41:00,75.3,51.3,30.00,SW,217,0.0,0.0,43,0.00,,---,0.00,VWS V14.01,2013-03-17 16:41:00,
2013-03-17 12:42:00,75.3,51.9,30.00,SSE,155,0.0,0.0,44,0.00,,---,0.00,VWS V14.01,2013-03-17 16:42:00,
2013-03-17 12:43:00,75.3,51.3,30.00,SE,142,0.0,0.0,43,0.00,,---,0.00,VWS V14.01,2013-03-17 16:43:00,
2013-03-17 12:44:00,75.1,51.1,30.00,SSE,168,0.0,0.0,43,0.00,,---,0.00,VWS V14.01,2013-03-17 16:44:00,
2013-03-17 12:45:00,74.7,50.7,29.98,South,182,0.0,0.0,43,0.00,,---,0.00,VWS V14.01,2013-03-17 16:45:00,
2013-03-17 12:46:00,74.4,50.5,29.98,SSW,192,0.0,0.0,43,0.00,,---,0.00,VWS V14.01,2013-03-17 16:46:00,
2013-03-17 12:47:00,74.2,50.9,29.98,SSW,207,0.0,0.0,44,0.00,,---,0.00,VWS V14.01,2013-03-17 16:47:00,
2013-03-17 12:48:00,74.2,50.9,29.98,SW,217,0.0,0.0,44,0.00,,---,0.00,VWS V14.01,2013-03-17 16:48:00,
2013-03-17 12:49:00,74.2,50.9,29.98,SSW,196,0.0,0.0,44,0.00,,---,0.00,VWS V14.01,2013-03-17 16:49:00,
2013-03-17 12:50:00,74.0,50.7,29.98,South,186,0.0,0.0,44,0.00,,---,0.00,VWS V14.01,2013-03-17 16:50:00,
2013-03-17 12:51:00,74.0,50.7,29.98,South,190,0.0,0.0,44,0.00,,---,0.00,VWS V14.01,2013-03-17 16:51:00,
2013-03-17 12:52:00,74.0,51.3,29.98,SSW,202,0.0,0.0,45,0.00,,---,0.00,VWS V14.01,2013-03-17 16:52:00,
2013-03-17 12:53:00,74.2,51.5,29.98,SSW,209,0.0,0.0,45,0.00,,---,0.00,VWS V14.01,2013-03-17 16:53:00,
2013-03-17 12:54:00,74.6,51.3,29.98,South,191,0.0,0.0,44,0.00,,---,0.00,VWS V14.01,2013-03-17 16:54:00,
2013-03-17 12:55:00,74.7,51.4,29.98,South,178,0.0,0.0,44,0.00,,---,0.00,VWS V14.01,2013-03-17 16:55:00,
2013-03-17 12:56:00,74.9,51.5,29.98,South,189,0.0,0.0,44,0.00,,---,0.00,VWS V14.01,2013-03-17 16:56:00,
2013-03-17 12:57:00,74.9,51.5,29.98,SSW,198,0.0,0.0,44,0.00,,---,0.00,VWS V14.01,2013-03-17 16:57:00,
2013-03-17 12:58:00,74.7,51.4,29.98,SSW,198,0.0,0.0,44,0.00,,---,0.00,VWS V14.01,2013-03-17 16:58:00,
2013-03-17 12:59:00,74.6,51.3,29.98,SSW,213,0.0,0.0,44,0.00,,---,0.00,VWS V14.01,2013-03-17 16:59:00,
2013-03-17 13:00:00,74.7,51.4,29.97,South,175,0.0,0.0,44,0.00,,---,0.00,VWS V14.01,2013-03-17 17:00:00,
2013-03-17 13:01:00,74.9,51.5,29.97,South,189,0.0,0.0,44,0.00,,---,0.00,VWS V14.01,2013-03-17 17:01:00,
2013-03-17 13:02:00,74.9,50.3,29.97,SSW,197,0.0,0.0,42,0.00,,---,0.00,VWS V14.01,2013-03-17 17:02:00,
2013-03-17 13:03:00,74.7,50.7,29.97,SSW,198,0.0,0.0,43,0.00,,---,0.00,VWS V14.01,2013-03-17 17:03:00,
2013-03-17 13:04:00,74.7,50.7,29.97,South,190,0.0,0.0,43,0.00,,---,0.00,VWS V14.01,2013-03-17 17:04:00,
2013-03-17 13:05:00,74.7,50.7,29.97,South,184,0.0,0.0,43,0.00,,---,0.00,VWS V14.01,2013-03-17 17:05:00,
2013-03-17 13:06:00,74.9,51.5,29.97,South,185,0.0,0.0,44,0.00,,---,0.00,VWS V14.01,2013-03-17 17:06:00,
2013-03-17 13:07:00,75.1,51.1,29.97,South,184,0.0,0.0,43,0.00,,---,0.00,VWS V14.01,2013-03-17 17:07:00,
2013-03-17 13:08:00,75.3,51.3,29.97,South,175,0.0,0.0,43,0.00,,---,0.00,VWS V14.01,2013-03-17 17:08:00,
2013-03-17 13:09:00,75.3,51.3,29.97,SSW,192,0.0,0.0,43,0.00,,---,0.00,VWS V14.01,2013-03-17 17:09:00,
2013-03-17 13:10:00,75.3,51.3,29.97,SSW,194,0.0,0.0,43,0.00,,---,0.00,VWS V14.01,2013-03-17 17:10:00,
2013-03-17 13:11:00,75.3,51.3,29.97,SSE,167,0.0,0.0,43,0.00,,---,0.00,VWS V14.01,2013-03-17 17:11:00,
2013-03-17 13:12:00,75.3,51.3,29.97,SE,144,0.0,0.0,43,0.00,,---,0.00,VWS V14.01,2013-03-17 17:12:00,
2013-03-17 13:13:00,75.1,51.1,29.97,SSW,203,0.0,0.0,43,0.00,,---,0.00,VWS V14.01,2013-03-17 17:13:00,
2013-03-17 13:14:00,75.1,51.1,29.97,SSW,205,0.0,0.0,43,0.00,,---,0.00,VWS V14.01,2013-03-17 17:14:00,
2013-03-17 13:15:00,75.3,51.3,29.97,SSW,201,0.0,0.0,43,0.00,,---,0.00,VWS V14.01,2013-03-17 17:15:00,
2013-03-17 13:16:00,75.3,51.3,29.97,SW,223,0.0,0.0,43,0.00,,---,0.00,VWS V14.01,2013-03-17 17:16:00,
2013-03-17 13:17:00,75.4,51.4,29.97,West,261,0.0,0.0,43,0.00,,---,0.00,VWS V14.01,2013-03-17 17:17:00,
2013-03-17 13:18:00,75.3,51.3,29.97,West,261,0.0,0.0,43,0.00,,---,0.00,VWS V14.01,2013-03-17 17:18:00,
2013-03-17 13:19:00,75.4,51.4,29.97,SW,236,0.0,0.0,43,0.00,,---,0.00,VWS V14.01,2013-03-17 17:19:00,
2013-03-17 13:20:00,75.6,51.5,29.97,SW,232,0.0,0.0,43,0.00,,---,0.00,VWS V14.01,2013-03-17 17:20:00,
2013-03-17 13:21:00,75.8,51.7,29.97,SSW,207,0.0,0.0,43,0.00,,---,0.00,VWS V14.01,2013-03-17 17:21:00,
2013-03-17 13:22:00,75.8,51.7,29.97,SSW,202,0.0,0.0,43,0.00,,---,0.00,VWS V14.01,2013-03-17 17:22:00,
2013-03-17 13:23:00,75.6,51.5,29.97,South,191,0.0,0.0,43,0.00,,---,0.00,VWS V14.01,2013-03-17 17:23:00,
2013-03-17 13:24:00,75.6,51.5,29.97,South,169,0.0,0.0,43,0.00,,---,0.00,VWS V14.01,2013-03-17 17:24:00,
2013-03-17 13:25:00,75.6,52.2,29.97,South,169,0.0,0.0,44,0.00,,---,0.00,VWS V14.01,2013-03-17 17:25:00,
2013-03-17 13:26:00,75.8,51.7,29.97,South,173,0.0,0.0,43,0.00,,---,0.00,VWS V14.01,2013-03-17 17:26:00,
2013-03-17 13:27:00,76.2,54.5,30.00,SW,217,12.0,17.0,47,0.00,,---,0.00,VWS V14.01,2013-03-17 17:27:00,
2013-03-17 13:28:00,75.6,51.5,29.97,South,173,0.0,0.0,43,0.00,,---,0.00,VWS V14.01,2013-03-17 17:28:00,
2013-03-17 13:29:00,76.6,54.3,29.97,South,182,7.0,7.0,46,0.00,,---,0.00,VWS V14.01,2013-03-17 17:29:00,
2013-03-17 13:30:00,76.6,54.3,29.97,South,185,11.0,12.0,46,0.00,,---,0.00,VWS V14.01,2013-03-17 17:30:00,
2013-03-17 13:31:00,76.6,54.3,29.97,South,180,7.0,20.0,46,0.00,,---,0.00,VWS V14.01,2013-03-17 17:31:00,
2013-03-17 13:32:00,76.6,54.3,29.97,SSE,166,15.0,20.0,46,0.00,,---,0.00,VWS V14.01,2013-03-17 17:32:00,
2013-03-17 13:33:00,76.6,54.3,29.97,South,188,15.0,20.0,46,0.00,,---,0.00,VWS V14.01,2013-03-17 17:33:00,
2013-03-17 13:34:00,76.7,54.4,29.97,SSW,202,10.0,20.0,46,0.00,,---,0.00,VWS V14.01,2013-03-17 17:34:00,
2013-03-17 13:35:00,76.7,54.4,29.97,South,187,9.0,20.0,46,0.00,,---,0.00,VWS V14.01,2013-03-17 17:35:00,
2013-03-17 13:36:00,76.8,53.9,29.97,SW,221,10.0,20.0,45,0.00,,---,0.00,VWS V14.01,2013-03-17 17:36:00,
2013-03-17 13:37:00,76.8,54.5,29.97,SW,223,7.0,20.0,46,0.00,,---,0.00,VWS V14.01,2013-03-17 17:37:00,
2013-03-17 13:38:00,76.8,53.9,29.97,SSW,204,12.0,20.0,45,0.00,,---,0.00,VWS V14.01,2013-03-17 17:38:00,
2013-03-17 13:39:00,76.9,54.0,29.97,South,186,10.0,20.0,45,0.00,,---,0.00,VWS V14.01,2013-03-17 17:39:00,
2013-03-17 13:40:00,76.8,53.9,29.97,SSW,193,13.0,20.0,45,0.00,,---,0.00,VWS V14.01,2013-03-17 17:40:00,
2013-03-17 13:41:00,76.7,53.8,29.97,South,190,6.0,20.0,45,0.00,,---,0.00,VWS V14.01,2013-03-17 17:41:00,
2013-03-17 13:42:00,76.5,53.6,29.97,SSE,165,10.0,20.0,45,0.00,,---,0.00,VWS V14.01,2013-03-17 17:42:00,
2013-03-17 13:43:00,76.4,53.5,29.97,SSW,204,14.0,20.0,45,0.00,,---,0.00,VWS V14.01,2013-03-17 17:43:00,
2013-03-17 13:44:00,76.4,54.1,29.97,South,169,6.0,20.0,46,0.00,,---,0.00,VWS V14.01,2013-03-17 17:44:00,
2013-03-17 13:45:00,76.4,53.5,29.95,SSW,198,7.0,20.0,45,0.00,,---,0.00,VWS V14.01,2013-03-17 17:45:00,
2013-03-17 13:46:00,76.4,53.5,29.95,SSW,210,9.0,20.0,45,0.00,,---,0.00,VWS V14.01,2013-03-17 17:46:00,
2013-03-17 13:47:00,76.2,53.3,29.95,South,182,9.0,20.0,45,0.00,,---,0.00,VWS V14.01,2013-03-17 17:47:00,
2013-03-17 13:48:00,76.1,53.8,29.95,SSW,196,10.0,20.0,46,0.00,,---,0.00,VWS V14.01,2013-03-17 17:48:00,
2013-03-17 13:49:00,76.0,53.2,29.95,SSW,202,11.0,20.0,45,0.00,,---,0.00,VWS V14.01,2013-03-17 17:49:00,
2013-03-17 13:50:00,76.0,53.8,29.95,SSW,202,11.0,20.0,46,0.00,,---,0.00,VWS V14.01,2013-03-17 17:50:00,
2013-03-17 13:51:00,76.0,53.8,29.95,SSW,202,10.0,20.0,46,0.00,,---,0.00,VWS V14.01,2013-03-17 17:51:00,
2013-03-17 13:52:00,76.0,53.8,29.95,SSW,202,10.0,20.0,46,0.00,,---,0.00,VWS V14.01,2013-03-17 17:52:00,
2013-03-17 13:53:00,75.8,53.6,29.95,South,188,12.0,20.0,46,0.00,,---,0.00,VWS V14.01,2013-03-17 17:53:00,
2013-03-17 13:54:00,75.8,53.0,29.95,South,180,11.0,20.0,45,0.00,,---,0.00,VWS V14.01,2013-03-17 17:54:00,
2013-03-17 13:55:00,75.8,53.6,29.95,South,184,3.0,20.0,46,0.00,,---,0.00,VWS V14.01,2013-03-17 17:55:00,
2013-03-17 13:56:00,75.9,53.1,29.95,SSW,200,13.0,20.0,45,0.00,,---,0.00,VWS V14.01,2013-03-17 17:56:00,
2013-03-17 13:57:00,75.8,53.0,29.95,South,185,6.0,20.0,45,0.00,,---,0.00,VWS V14.01,2013-03-17 17:57:00,
2013-03-17 13:58:00,75.8,53.0,29.95,South,171,6.0,20.0,45,0.00,,---,0.00,VWS V14.01,2013-03-17 17:58:00,
2013-03-17 13:59:00,75.8,53.0,29.95,South,178,10.0,20.0,45,0.00,,---,0.00,VWS V14.01,2013-03-17 17:59:00,
2013-03-17 14:00:00,75.8,53.0,29.95,SSW,198,10.0,20.0,45,0.00,,---,0.00,VWS V14.01,2013-03-17 18:00:00,
2013-03-17 14:01:00,75.8,52.4,29.95,SSE,159,8.0,11.0,44,0.00,,---,0.00,VWS V14.01,2013-03-17 18:01:00,
2013-03-17 14:02:00,75.7,52.9,29.95,South,190,6.0,11.0,45,0.00,,---,0.00,VWS V14.01,2013-03-17 18:02:00,
2013-03-17 14:03:00,75.7,52.9,29.95,SSW,200,6.0,11.0,45,0.00,,---,0.00,VWS V14.01,2013-03-17 18:03:00,
2013-03-17 14:04:00,75.8,53.0,29.95,South,188,9.0,11.0,45,0.00,,---,0.00,VWS V14.01,2013-03-17 18:04:00,
2013-03-17 14:05:00,75.8,53.0,29.95,South,175,13.0,13.0,45,0.00,,---,0.00,VWS V14.01,2013-03-17 18:05:00,
2013-03-17 14:06:00,75.8,53.0,29.95,SSW,207,5.0,13.0,45,0.00,,---,0.00,VWS V14.01,2013-03-17 18:06:00,
2013-03-17 14:07:00,75.7,52.9,29.95,South,169,10.0,13.0,45,0.00,,---,0.00,VWS V14.01,2013-03-17 18:07:00,
2013-03-17 14:08:00,75.7,52.9,29.95,SSW,195,10.0,13.0,45,0.00,,---,0.00,VWS V14.01,2013-03-17 18:08:00,
2013-03-17 14:09:00,75.6,53.4,29.95,SSW,201,9.0,13.0,46,0.00,,---,0.00,VWS V14.01,2013-03-17 18:09:00,
2013-03-17 14:10:00,75.6,53.4,29.95,SSW,194,6.0,13.0,46,0.00,,---,0.00,VWS V14.01,2013-03-17 18:10:00,
2013-03-17 14:11:00,75.6,53.4,29.95,SSW,197,10.0,13.0,46,0.00,,---,0.00,VWS V14.01,2013-03-17 18:11:00,
2013-03-17 14:12:00,75.6,52.8,29.95,SSE,165,7.0,13.0,45,0.00,,---,0.00,VWS V14.01,2013-03-17 18:12:00,
2013-03-17 14:13:00,75.7,52.9,29.95,SSW,203,13.0,14.0,45,0.00,,---,0.00,VWS V14.01,2013-03-17 18:13:00,
2013-03-17 14:14:00,75.7,52.9,29.95,SSW,203,5.0,14.0,45,0.00,,---,0.00,VWS V14.01,2013-03-17 18:14:00,
2013-03-17 14:15:00,75.7,53.5,29.95,WSW,237,8.0,14.0,46,0.00,,---,0.00,VWS V14.01,2013-03-17 18:15:00,
2013-03-17 14:16:00,75.8,53.6,29.95,SSW,196,7.0,14.0,46,0.00,,---,0.00,VWS V14.01,2013-03-17 18:16:00,
2013-03-17 14:17:00,75.8,53.6,29.95,SSW,200,9.0,14.0,46,0.00,,---,0.00,VWS V14.01,2013-03-17 18:17:00,
2013-03-17 14:18:00,75.8,53.6,29.95,SSW,197,4.0,14.0,46,0.00,,---,0.00,VWS V14.01,2013-03-17 18:18:00,
2013-03-17 14:19:00,75.8,53.0,29.95,South,190,11.0,14.0,45,0.00,,---,0.00,VWS V14.01,2013-03-17 18:19:00,
2013-03-17 14:20:00,75.8,53.0,29.95,SSW,194,6.0,14.0,45,0.00,,---,0.00,VWS V14.01,2013-03-17 18:20:00,
2013-03-17 14:21:00,75.8,53.0,29.95,South,191,5.0,14.0,45,0.00,,---,0.00,VWS V14.01,2013-03-17 18:21:00,
2013-03-17 14:22:00,75.8,53.6,29.95,SSE,161,11.0,14.0,46,0.00,,---,0.00,VWS V14.01,2013-03-17 18:22:00,
2013-03-17 14:23:00,75.8,53.6,29.95,SSW,204,6.0,14.0,46,0.00,,---,0.00,VWS V14.01,2013-03-17 18:23:00,
2013-03-17 14:24:00,75.8,53.6,29.95,SW,235,13.0,14.0,46,0.00,,---,0.00,VWS V14.01,2013-03-17 18:24:00,
2013-03-17 14:25:00,75.8,53.6,29.95,SW,235,7.0,14.0,46,0.00,,---,0.00,VWS V14.01,2013-03-17 18:25:00,
2013-03-17 14:26:00,74.9,50.3,29.97,SSW,197,0.0,0.0,42,0.00,,---,0.00,VWS V14.01,2013-03-17 18:26:00,
2013-03-17 14:27:00,75.8,53.6,29.95,SSW,200,5.0,14.0,46,0.00,,---,0.00,VWS V14.01,2013-03-17 18:27:00,
2013-03-17 14:28:00,75.8,53.6,29.95,SW,215,11.0,14.0,46,0.00,,---,0.00,VWS V14.01,2013-03-17 18:28:00,
2013-03-17 14:29:00,75.8,53.6,29.95,WSW,246,5.0,14.0,46,0.00,,---,0.00,VWS V14.01,2013-03-17 18:29:00,
2013-03-17 14:30:00,75.8,53.6,29.95,SW,231,10.0,14.0,46,0.00,,---,0.00,VWS V14.01,2013-03-17 18:30:00,
2013-03-17 14:31:00,75.8,53.6,29.95,SW,229,9.0,10.0,46,0.00,,---,0.00,VWS V14.01,2013-03-17 18:31:00,
2013-03-17 14:32:00,75.7,53.5,29.95,SW,224,5.0,10.0,46,0.00,,---,0.00,VWS V14.01,2013-03-17 18:32:00,
2013-03-17 14:33:00,75.6,53.4,29.95,SW,217,5.0,10.0,46,0.00,,---,0.00,VWS V14.01,2013-03-17 18:33:00,
2013-03-17 14:34:00,75.6,53.4,29.95,SSW,202,3.0,10.0,46,0.00,,---,0.00,VWS V14.01,2013-03-17 18:34:00,
2013-03-17 14:35:00,75.6,53.4,29.95,WSW,238,1.0,10.0,46,0.00,,---,0.00,VWS V14.01,2013-03-17 18:35:00,
2013-03-17 14:36:00,75.6,53.4,29.95,SSW,205,8.0,10.0,46,0.00,,---,0.00,VWS V14.01,2013-03-17 18:36:00,
2013-03-17 14:37:00,75.6,54.0,29.95,SW,216,6.0,10.0,47,0.00,,---,0.00,VWS V14.01,2013-03-17 18:37:00,
2013-03-17 14:38:00,75.6,54.0,29.95,South,180,11.0,11.0,47,0.00,,---,0.00,VWS V14.01,2013-03-17 18:38:00,
2013-03-17 14:39:00,75.7,54.1,29.95,SW,223,6.0,11.0,47,0.00,,---,0.00,VWS V14.01,2013-03-17 18:39:00,
2013-03-17 14:40:00,75.8,54.2,29.95,SW,216,12.0,12.0,47,0.00,,---,0.00,VWS V14.01,2013-03-17 18:40:00,
2013-03-17 14:41:00,75.8,53.6,29.95,SW,223,10.0,12.0,46,0.00,,---,0.00,VWS V14.01,2013-03-17 18:41:00,
2013-03-17 14:42:00,75.8,54.2,29.95,South,190,5.0,12.0,47,0.00,,---,0.00,VWS V14.01,2013-03-17 18:42:00,
2013-03-17 14:43:00,75.8,54.2,29.95,SSW,205,12.0,12.0,47,0.00,,---,0.00,VWS V14.01,2013-03-17 18:43:00,
2013-03-17 14:44:00,75.8,53.6,29.95,SSW,193,6.0,12.0,46,0.00,,---,0.00,VWS V14.01,2013-03-17 18:44:00,
2013-03-17 14:45:00,75.8,54.2,29.95,South,187,8.0,12.0,47,0.00,,---,0.00,VWS V14.01,2013-03-17 18:45:00,
2013-03-17 14:46:00,75.7,53.5,29.95,South,181,6.0,12.0,46,0.00,,---,0.00,VWS V14.01,2013-03-17 18:46:00,
2013-03-17 14:47:00,75.7,54.1,29.95,SSW,200,6.0,12.0,47,0.00,,---,0.00,VWS V14.01,2013-03-17 18:47:00,
2013-03-17 14:48:00,75.7,54.1,29.95,South,186,9.0,12.0,47,0.00,,---,0.00,VWS V14.01,2013-03-17 18:48:00,
2013-03-17 14:49:00,75.7,54.1,29.95,South,187,6.0,12.0,47,0.00,,---,0.00,VWS V14.01,2013-03-17 18:49:00,
2013-03-17 14:50:00,75.7,54.1,29.95,SW,221,11.0,12.0,47,0.00,,---,0.00,VWS V14.01,2013-03-17 18:50:00,
2013-03-17 14:51:00,75.7,54.1,29.95,SSW,211,6.0,12.0,47,0.00,,---,0.00,VWS V14.01,2013-03-17 18:51:00,
2013-03-17 14:52:00,75.7,54.1,29.95,SW,221,10.0,12.0,47,0.00,,---,0.00,VWS V14.01,2013-03-17 18:52:00,
2013-03-17 14:53:00,75.7,54.1,29.95,SW,220,5.0,12.0,47,0.00,,---,0.00,VWS V14.01,2013-03-17 18:53:00,
2013-03-17 14:54:00,75.6,54.0,29.95,SW,214,6.0,12.0,47,0.00,,---,0.00,VWS V14.01,2013-03-17 18:54:00,
2013-03-17 14:55:00,75.6,54.0,29.95,SW,217,6.0,12.0,47,0.00,,---,0.00,VWS V14.01,2013-03-17 18:55:00,
2013-03-17 14:56:00,75.6,54.5,29.95,SSW,209,6.0,12.0,48,0.00,,---,0.00,VWS V14.01,2013-03-17 18:56:00,
2013-03-17 14:57:00,75.5,54.5,29.95,WSW,239,7.0,12.0,48,0.00,,---,0.00,VWS V14.01,2013-03-17 18:57:00,
2013-03-17 14:58:00,75.5,54.5,29.95,SW,219,7.0,12.0,48,0.00,,---,0.00,VWS V14.01,2013-03-17 18:58:00,
2013-03-17 14:59:00,75.5,53.9,29.95,SW,220,6.0,12.0,47,0.00,,---,0.00,VWS V14.01,2013-03-17 18:59:00,
2013-03-17 15:00:00,75.5,53.9,29.95,SW,223,5.0,12.0,47,0.00,,---,0.00,VWS V14.01,2013-03-17 19:00:00,
2013-03-17 15:01:00,75.5,54.5,29.95,SW,227,3.0,4.0,48,0.00,,---,0.00,VWS V14.01,2013-03-17 19:01:00,
2013-03-17 15:02:00,75.6,54.0,29.95,SW,230,3.0,4.0,47,0.00,,---,0.00,VWS V14.01,2013-03-17 19:02:00,
2013-03-17 15:03:00,75.6,54.5,29.95,SW,236,5.0,6.0,48,0.00,,---,0.00,VWS V14.01,2013-03-17 19:03:00,
2013-03-17 15:04:00,75.6,54.0,29.95,WSW,244,9.0,10.0,47,0.00,,---,0.00,VWS V14.01,2013-03-17 19:04:00,
2013-03-17 15:05:00,75.6,54.0,29.95,SW,225,10.0,11.0,47,0.00,,---,0.00,VWS V14.01,2013-03-17 19:05:00,
2013-03-17 15:06:00,75.6,54.0,29.95,West,261,6.0,11.0,47,0.00,,---,0.00,VWS V14.01,2013-03-17 19:06:00,
2013-03-17 15:07:00,75.5,53.9,29.95,WSW,250,3.0,11.0,47,0.00,,---,0.00,VWS V14.01,2013-03-17 19:07:00,
2013-03-17 15:08:00,75.5,53.9,29.95,WSW,250,2.0,11.0,47,0.00,,---,0.00,VWS V14.01,2013-03-17 19:08:00,
2013-03-17 15:09:00,75.5,53.9,29.95,WSW,250,4.0,11.0,47,0.00,,---,0.00,VWS V14.01,2013-03-17 19:09:00,
2013-03-17 15:10:00,75.5,53.9,29.95,WSW,250,0.0,11.0,47,0.00,,---,0.00,VWS V14.01,2013-03-17 19:10:00,
2013-03-17 15:11:00,75.5,53.9,29.95,WSW,250,4.0,11.0,47,0.00,,---,0.00,VWS V14.01,2013-03-17 19:11:00,
2013-03-17 15:12:00,75.5,53.9,29.95,WSW,250,4.0,11.0,47,0.00,,---,0.00,VWS V14.01,2013-03-17 19:12:00,
2013-03-17 15:13:00,75.5,53.9,29.95,WSW,250,3.0,11.0,47,0.00,,---,0.00,VWS V14.01,2013-03-17 19:13:00,
2013-03-17 15:14:00,75.5,53.9,29.95,WSW,246,6.0,11.0,47,0.00,,---,0.00,VWS V14.01,2013-03-17 19:14:00,
2013-03-17 15:15:00,75.5,53.9,29.94,WSW,246,5.0,11.0,47,0.00,,---,0.00,VWS V14.01,2013-03-17 19:15:00,
2013-03-17 15:16:00,75.5,53.9,29.94,SW,223,4.0,11.0,47,0.00,,---,0.00,VWS V14.01,2013-03-17 19:16:00,
2013-03-17 15:17:00,75.5,53.9,29.94,SW,223,0.0,11.0,47,0.00,,---,0.00,VWS V14.01,2013-03-17 19:17:00,
2013-03-17 15:18:00,75.4,53.8,29.94,SW,229,4.0,11.0,47,0.00,,---,0.00,VWS V14.01,2013-03-17 19:18:00,
2013-03-17 15:19:00,75.4,53.8,29.94,SW,229,3.0,11.0,47,0.00,,---,0.00,VWS V14.01,2013-03-17 19:19:00,
2013-03-17 15:20:00,75.4,54.4,29.94,SW,229,6.0,11.0,48,0.00,,---,0.00,VWS V14.01,2013-03-17 19:20:00,
2013-03-17 15:21:00,75.4,54.4,29.94,SW,229,6.0,11.0,48,0.00,,---,0.00,VWS V14.01,2013-03-17 19:21:00,
2013-03-17 15:22:00,75.4,54.4,29.94,SW,227,4.0,11.0,48,0.00,,---,0.00,VWS V14.01,2013-03-17 19:22:00,
2013-03-17 15:23:00,75.5,54.5,29.94,SW,225,7.0,11.0,48,0.00,,---,0.00,VWS V14.01,2013-03-17 19:23:00,
2013-03-17 15:24:00,75.4,53.8,29.94,SW,223,6.0,11.0,47,0.00,,---,0.00,VWS V14.01,2013-03-17 19:24:00,
2013-03-17 15:25:00,75.3,54.3,29.94,SW,223,4.0,11.0,48,0.00,,---,0.00,VWS V14.01,2013-03-17 19:25:00,
2013-03-17 15:26:00,75.3,54.3,29.94,SW,219,9.0,11.0,48,0.00,,---,0.00,VWS V14.01,2013-03-17 19:26:00,
2013-03-17 15:27:00,75.3,54.3,29.94,SW,232,5.0,11.0,48,0.00,,---,0.00,VWS V14.01,2013-03-17 19:27:00,
2013-03-17 15:28:00,75.3,54.3,29.94,WSW,240,6.0,11.0,48,0.00,,---,0.00,VWS V14.01,2013-03-17 19:28:00,
2013-03-17 15:29:00,75.3,54.3,29.94,SW,229,6.0,11.0,48,0.00,,---,0.00,VWS V14.01,2013-03-17 19:29:00,
2013-03-17 15:30:00,75.2,54.2,29.93,SW,228,4.0,11.0,48,0.00,,---,0.00,VWS V14.01,2013-03-17 19:30:00,
2013-03-17 15:31:00,75.2,54.2,29.93,SW,219,5.0,6.0,48,0.00,,---,0.00,VWS V14.01,2013-03-17 19:31:00,
2013-03-17 15:32:00,75.2,54.2,29.93,SW,229,6.0,9.0,48,0.00,,---,0.00,VWS V14.01,2013-03-17 19:32:00,
2013-03-17 15:33:00,75.2,54.2,29.93,SW,224,9.0,12.0,48,0.00,,---,0.00,VWS V14.01,2013-03-17 19:33:00,
2013-03-17 15:34:00,75.1,54.1,29.93,SW,220,4.0,12.0,48,0.00,,---,0.00,VWS V14.01,2013-03-17 19:34:00,
2013-03-17 15:35:00,75.1,54.1,29.93,SW,217,6.0,12.0,48,0.00,,---,0.00,VWS V14.01,2013-03-17 19:35:00,
2013-03-17 15:36:00,75.1,54.1,29.93,SW,217,6.0,12.0,48,0.00,,---,0.00,VWS V14.01,2013-03-17 19:36:00,
2013-03-17 15:37:00,75.1,54.1,29.93,SW,215,2.0,12.0,48,0.00,,---,0.00,VWS V14.01,2013-03-17 19:37:00,
2013-03-17 15:38:00,75.1,54.1,29.93,SW,215,4.0,12.0,48,0.00,,---,0.00,VWS V14.01,2013-03-17 19:38:00,
2013-03-17 15:39:00,75.1,54.1,29.93,SW,215,5.0,12.0,48,0.00,,---,0.00,VWS V14.01,2013-03-17 19:39:00,
2013-03-17 15:40:00,75.1,54.1,29.93,SW,216,7.0,12.0,48,0.00,,---,0.00,VWS V14.01,2013-03-17 19:40:00,
2013-03-17 15:41:00,75.1,54.1,29.93,SSW,213,4.0,12.0,48,0.00,,---,0.00,VWS V14.01,2013-03-17 19:41:00,
2013-03-17 15:42:00,75.1,54.1,29.93,SSW,213,5.0,12.0,48,0.00,,---,0.00,VWS V14.01,2013-03-17 19:42:00,
2013-03-17 15:43:00,75.1,54.1,29.93,SSW,212,6.0,12.0,48,0.00,,---,0.00,VWS V14.01,2013-03-17 19:43:00,
2013-03-17 15:44:00,75.1,54.1,29.93,SSW,202,5.0,12.0,48,0.00,,---,0.00,VWS V14.01,2013-03-17 19:44:00,
2013-03-17 15:45:00,75.1,54.1,29.92,SSW,204,2.0,12.0,48,0.00,,---,0.00,VWS V14.01,2013-03-17 19:45:00,
2013-03-17 15:46:00,75.1,54.1,29.92,SSW,203,3.0,12.0,48,0.00,,---,0.00,VWS V14.01,2013-03-17 19:46:00,
2013-03-17 15:47:00,75.1,54.1,29.92,SSW,202,2.0,12.0,48,0.00,,---,0.00,VWS V14.01,2013-03-17 19:47:00,
2013-03-17 15:48:00,75.0,54.0,29.92,SSW,203,2.0,12.0,48,0.00,,---,0.00,VWS V14.01,2013-03-17 19:48:00,
2013-03-17 15:49:00,75.0,54.0,29.92,SSW,204,4.0,12.0,48,0.00,,---,0.00,VWS V14.01,2013-03-17 19:49:00,
2013-03-17 15:50:00,75.0,54.6,29.92,SSW,209,3.0,12.0,49,0.00,,---,0.00,VWS V14.01,2013-03-17 19:50:00,
2013-03-17 15:51:00,75.0,54.6,29.92,SSW,209,2.0,12.0,49,0.00,,---,0.00,VWS V14.01,2013-03-17 19:51:00,
2013-03-17 15:52:00,75.0,54.6,29.92,SSW,209,4.0,12.0,49,0.00,,---,0.00,VWS V14.01,2013-03-17 19:52:00,
2013-03-17 15:53:00,75.0,54.6,29.92,SW,227,5.0,12.0,49,0.00,,---,0.00,VWS V14.01,2013-03-17 19:53:00,
2013-03-17 16:00:00,75.0,54.6,29.92,SSW,213,0.0,0.0,49,0.00,,---,0.00,VWS V14.01,2013-03-17 20:00:00,
2013-03-17 16:01:00,75.0,54.6,29.92,SSW,213,2.0,3.0,49,0.00,,---,0.00,VWS V14.01,2013-03-17 20:01:00,
2013-03-17 16:02:00,75.0,54.6,29.92,SSW,213,3.0,5.0,49,0.00,,---,0.00,VWS V14.01,2013-03-17 20:02:00,
2013-03-17 16:03:00,74.9,53.9,29.92,SSW,213,2.0,5.0,48,0.00,,---,0.00,VWS V14.01,2013-03-17 20:03:00,
2013-03-17 16:04:00,74.9,54.5,29.92,SSW,213,2.0,5.0,49,0.00,,---,0.00,VWS V14.01,2013-03-17 20:04:00,
2013-03-17 16:05:00,74.9,54.5,29.92,SSW,213,0.0,5.0,49,0.00,,---,0.00,VWS V14.01,2013-03-17 20:05:00,
2013-03-17 16:06:00,74.9,54.5,29.92,SSW,213,0.0,5.0,49,0.00,,---,0.00,VWS V14.01,2013-03-17 20:06:00,
2013-03-17 16:07:00,74.9,54.5,29.92,SSW,213,1.0,5.0,49,0.00,,---,0.00,VWS V14.01,2013-03-17 20:07:00,
2013-03-17 16:08:00,74.9,54.5,29.92,SSW,213,0.0,5.0,49,0.00,,---,0.00,VWS V14.01,2013-03-17 20:08:00,
2013-03-17 16:09:00,74.9,54.5,29.92,SSW,213,4.0,5.0,49,0.00,,---,0.00,VWS V14.01,2013-03-17 20:09:00,
2013-03-17 16:10:00,74.9,54.5,29.92,SSW,213,0.0,5.0,49,0.00,,---,0.00,VWS V14.01,2013-03-17 20:10:00,
2013-03-17 16:11:00,74.9,54.5,29.92,SSW,213,1.0,5.0,49,0.00,,---,0.00,VWS V14.01,2013-03-17 20:11:00,
2013-03-17 16:12:00,74.9,54.5,29.92,SSW,213,0.0,5.0,49,0.00,,---,0.00,VWS V14.01,2013-03-17 20:12:00,
2013-03-17 16:13:00,74.9,54.5,29.92,SSW,213,2.0,5.0,49,0.00,,---,0.00,VWS V14.01,2013-03-17 20:13:00,
2013-03-17 16:14:00,74.9,54.5,29.92,SSW,213,2.0,5.0,49,0.00,,---,0.00,VWS V14.01,2013-03-17 20:14:00,
2013-03-17 16:15:00,75.0,54.6,29.92,SSW,212,7.0,9.0,49,0.00,,---,0.00,VWS V14.01,2013-03-17 20:15:00,
2013-03-17 16:16:00,75.0,54.6,29.92,SSW,212,0.0,9.0,49,0.00,,---,0.00,VWS V14.01,2013-03-17 20:16:00,
2013-03-17 16:17:00,75.0,54.6,29.92,SSW,211,3.0,9.0,49,0.00,,---,0.00,VWS V14.01,2013-03-17 20:17:00,
2013-03-17 16:18:00,75.0,54.6,29.92,SSW,211,4.0,9.0,49,0.00,,---,0.00,VWS V14.01,2013-03-17 20:18:00,
2013-03-17 16:19:00,75.1,54.7,29.92,SSW,205,4.0,9.0,49,0.00,,---,0.00,VWS V14.01,2013-03-17 20:19:00,
2013-03-17 16:20:00,75.1,54.7,29.92,SSW,201,9.0,9.0,49,0.00,,---,0.00,VWS V14.01,2013-03-17 20:20:00,
2013-03-17 16:21:00,75.1,54.7,29.92,SSW,192,4.0,9.0,49,0.00,,---,0.00,VWS V14.01,2013-03-17 20:21:00,
2013-03-17 16:22:00,75.1,54.7,29.92,SSW,192,4.0,9.0,49,0.00,,---,0.00,VWS V14.01,2013-03-17 20:22:00,
2013-03-17 16:23:00,75.2,54.8,29.92,SSW,192,3.0,9.0,49,0.00,,---,0.00,VWS V14.01,2013-03-17 20:23:00,
2013-03-17 16:24:00,75.2,54.8,29.92,SSW,192,2.0,9.0,49,0.00,,---,0.00,VWS V14.01,2013-03-17 20:24:00,
2013-03-17 16:25:00,75.2,54.8,29.92,SSW,192,4.0,9.0,49,0.00,,---,0.00,VWS V14.01,2013-03-17 20:25:00,
2013-03-17 16:26:00,75.2,54.8,29.92,SSW,192,2.0,9.0,49,0.00,,---,0.00,VWS V14.01,2013-03-17 20:26:00,
2013-03-17 16:27:00,75.2,54.8,29.92,SSW,192,2.0,9.0,49,0.00,,---,0.00,VWS V14.01,2013-03-17 20:27:00,
2013-03-17 16:28:00,75.2,54.8,29.92,SSW,192,3.0,9.0,49,0.00,,---,0.00,VWS V14.01,2013-03-17 20:28:00,
2013-03-17 16:29:00,75.3,54.8,29.92,SSW,192,2.0,9.0,49,0.00,,---,0.00,VWS V14.01,2013-03-17 20:29:00,
2013-03-17 16:30:00,75.3,54.8,29.92,SSW,192,4.0,9.0,49,0.00,,---,0.00,VWS V14.01,2013-03-17 20:30:00,
2013-03-17 16:31:00,75.3,54.8,29.92,SSW,193,3.0,6.0,49,0.00,,---,0.00,VWS V14.01,2013-03-17 20:31:00,
2013-03-17 16:32:00,75.3,54.8,29.92,SSW,193,3.0,6.0,49,0.00,,---,0.00,VWS V14.01,2013-03-17 20:32:00,
2013-03-17 16:33:00,75.3,54.8,29.92,SSW,193,2.0,6.0,49,0.00,,---,0.00,VWS V14.01,2013-03-17 20:33:00,
2013-03-17 16:34:00,75.3,54.8,29.92,SSW,193,1.0,6.0,49,0.00,,---,0.00,VWS V14.01,2013-03-17 20:34:00,
2013-03-17 16:35:00,75.2,54.8,29.92,SSW,196,1.0,6.0,49,0.00,,---,0.00,VWS V14.01,2013-03-17 20:35:00,
2013-03-17 16:36:00,75.2,54.8,29.92,SSW,199,4.0,6.0,49,0.00,,---,0.00,VWS V14.01,2013-03-17 20:36:00,
2013-03-17 16:37:00,75.2,54.8,29.92,SSW,207,1.0,6.0,49,0.00,,---,0.00,VWS V14.01,2013-03-17 20:37:00,
2013-03-17 16:38:00,75.2,54.8,29.92,SSW,211,2.0,6.0,49,0.00,,---,0.00,VWS V14.01,2013-03-17 20:38:00,
2013-03-17 16:39:00,75.2,54.8,29.92,SSW,211,0.0,6.0,49,0.00,,---,0.00,VWS V14.01,2013-03-17 20:39:00,
2013-03-17 16:40:00,75.1,54.7,29.92,SSW,211,4.0,6.0,49,0.00,,---,0.00,VWS V14.01,2013-03-17 20:40:00,
2013-03-17 16:41:00,75.1,54.7,29.92,SSW,211,0.0,6.0,49,0.00,,---,0.00,VWS V14.01,2013-03-17 20:41:00,
2013-03-17 16:42:00,75.1,55.2,29.92,SW,217,7.0,7.0,50,0.00,,---,0.00,VWS V14.01,2013-03-17 20:42:00,
2013-03-17 16:43:00,75.1,55.2,29.92,SW,217,5.0,7.0,50,0.00,,---,0.00,VWS V14.01,2013-03-17 20:43:00,
2013-03-17 16:44:00,75.1,55.2,29.92,SW,217,1.0,7.0,50,0.00,,---,0.00,VWS V14.01,2013-03-17 20:44:00,
2013-03-17 16:45:00,75.0,55.1,29.92,SW,216,0.0,7.0,50,0.00,,---,0.00,VWS V14.01,2013-03-17 20:45:00,
2013-03-17 16:46:00,75.0,55.1,29.92,SW,216,1.0,7.0,50,0.00,,---,0.00,VWS V14.01,2013-03-17 20:46:00,
2013-03-17 16:47:00,75.0,55.1,29.92,SW,216,0.0,7.0,50,0.00,,---,0.00,VWS V14.01,2013-03-17 20:47:00,
2013-03-17 16:48:00,75.0,55.1,29.92,SW,216,0.0,7.0,50,0.00,,---,0.00,VWS V14.01,2013-03-17 20:48:00,
2013-03-17 16:49:00,75.0,55.1,29.92,SW,216,0.0,7.0,50,0.00,,---,0.00,VWS V14.01,2013-03-17 20:49:00,
2013-03-17 16:50:00,74.9,55.0,29.92,SW,216,1.0,7.0,50,0.00,,---,0.00,VWS V14.01,2013-03-17 20:50:00,
2013-03-17 16:51:00,74.9,55.0,29.92,SW,216,0.0,7.0,50,0.00,,---,0.00,VWS V14.01,2013-03-17 20:51:00,
2013-03-17 16:52:00,74.9,55.0,29.92,SW,216,0.0,7.0,50,0.00,,---,0.00,VWS V14.01,2013-03-17 20:52:00,
2013-03-17 16:53:00,74.9,55.6,29.92,SW,216,0.0,7.0,51,0.00,,---,0.00,VWS V14.01,2013-03-17 20:53:00,
2013-03-17 16:54:00,74.9,55.0,29.92,SW,216,0.0,7.0,50,0.00,,---,0.00,VWS V14.01,2013-03-17 20:54:00,
2013-03-17 16:55:00,74.9,55.6,29.92,SW,216,2.0,7.0,51,0.00,,---,0.00,VWS V14.01,2013-03-17 20:55:00,
2013-03-17 16:56:00,74.8,55.5,29.92,SW,216,0.0,7.0,51,0.00,,---,0.00,VWS V14.01,2013-03-17 20:56:00,
2013-03-17 16:57:00,74.8,55.5,29.92,SW,216,3.0,7.0,51,0.00,,---,0.00,VWS V14.01,2013-03-17 20:57:00,
2013-03-17 16:58:00,74.8,54.9,29.92,SW,216,1.0,7.0,50,0.00,,---,0.00,VWS V14.01,2013-03-17 20:58:00,
2013-03-17 16:59:00,74.7,54.8,29.92,SW,216,3.0,7.0,50,0.00,,---,0.00,VWS V14.01,2013-03-17 20:59:00,
2013-03-17 17:00:00,74.7,55.4,29.93,SW,216,2.0,7.0,51,0.00,,---,0.00,VWS V14.01,2013-03-17 21:00:00,
2013-03-17 17:01:00,74.7,55.4,29.93,SW,216,4.0,4.0,51,0.00,,---,0.00,VWS V14.01,2013-03-17 21:01:00,
2013-03-17 17:02:00,74.6,55.3,29.93,SW,216,0.0,4.0,51,0.00,,---,0.00,VWS V14.01,2013-03-17 21:02:00,
2013-03-17 17:03:00,74.6,55.3,29.93,SW,216,4.0,5.0,51,0.00,,---,0.00,VWS V14.01,2013-03-17 21:03:00,
2013-03-17 17:04:00,74.5,55.2,29.93,SW,214,5.0,5.0,51,0.00,,---,0.00,VWS V14.01,2013-03-17 21:04:00,
2013-03-17 17:05:00,74.5,55.2,29.93,SSW,213,0.0,5.0,51,0.00,,---,0.00,VWS V14.01,2013-03-17 21:05:00,
2013-03-17 17:06:00,74.4,55.1,29.93,SSW,213,1.0,5.0,51,0.00,,---,0.00,VWS V14.01,2013-03-17 21:06:00,
2013-03-17 17:07:00,74.4,55.7,29.93,SSW,213,2.0,5.0,52,0.00,,---,0.00,VWS V14.01,2013-03-17 21:07:00,
2013-03-17 17:08:00,74.4,55.7,29.93,SSW,213,2.0,5.0,52,0.00,,---,0.00,VWS V14.01,2013-03-17 21:08:00,
2013-03-17 17:09:00,74.4,55.7,29.93,SSW,213,2.0,5.0,52,0.00,,---,0.00,VWS V14.01,2013-03-17 21:09:00,
2013-03-17 17:10:00,74.3,55.6,29.93,SSW,213,0.0,5.0,52,0.00,,---,0.00,VWS V14.01,2013-03-17 21:10:00,
2013-03-17 17:11:00,74.3,55.6,29.93,SSW,213,1.0,5.0,52,0.00,,---,0.00,VWS V14.01,2013-03-17 21:11:00,
2013-03-17 17:12:00,74.3,55.6,29.93,SSW,213,0.0,5.0,52,0.00,,---,0.00,VWS V14.01,2013-03-17 21:12:00,
2013-03-17 17:13:00,74.2,55.5,29.93,SSW,213,0.0,5.0,52,0.00,,---,0.00,VWS V14.01,2013-03-17 21:13:00,
2013-03-17 17:14:00,74.2,55.5,29.93,SSW,213,0.0,5.0,52,0.00,,---,0.00,VWS V14.01,2013-03-17 21:14:00,
2013-03-17 17:15:00,74.2,55.5,29.93,SSW,213,0.0,5.0,52,0.00,,---,0.00,VWS V14.01,2013-03-17 21:15:00,
2013-03-17 17:16:00,74.1,55.4,29.93,SSW,213,3.0,5.0,52,0.00,,---,0.00,VWS V14.01,2013-03-17 21:16:00,
2013-03-17 17:17:00,74.1,55.4,29.93,SSW,213,3.0,5.0,52,0.00,,---,0.00,VWS V14.01,2013-03-17 21:17:00,
2013-03-17 17:18:00,74.0,55.3,29.93,SSW,213,0.0,5.0,52,0.00,,---,0.00,VWS V14.01,2013-03-17 21:18:00,
2013-03-17 17:19:00,74.0,55.3,29.93,SSW,213,0.0,5.0,52,0.00,,---,0.00,VWS V14.01,2013-03-17 21:19:00,
2013-03-17 17:20:00,74.0,55.8,29.93,SSW,213,0.0,5.0,53,0.00,,---,0.00,VWS V14.01,2013-03-17 21:20:00,
2013-03-17 17:21:00,74.0,55.8,29.93,SSW,213,0.0,5.0,53,0.00,,---,0.00,VWS V14.01,2013-03-17 21:21:00,
2013-03-17 17:22:00,73.9,55.7,29.93,SSW,213,1.0,5.0,53,0.00,,---,0.00,VWS V14.01,2013-03-17 21:22:00,
2013-03-17 17:23:00,73.9,55.7,29.93,SSW,213,0.0,5.0,53,0.00,,---,0.00,VWS V14.01,2013-03-17 21:23:00,
2013-03-17 17:24:00,73.9,55.7,29.93,SSW,213,0.0,5.0,53,0.00,,---,0.00,VWS V14.01,2013-03-17 21:24:00,
2013-03-17 17:25:00,73.8,55.6,29.93,SSW,213,0.0,5.0,53,0.00,,---,0.00,VWS V14.01,2013-03-17 21:25:00,
2013-03-17 17:26:00,73.8,55.6,29.93,SSE,167,0.0,5.0,53,0.00,,---,0.00,VWS V14.01,2013-03-17 21:26:00,
2013-03-17 17:27:00,73.8,56.1,29.93,SSE,167,0.0,5.0,54,0.00,,---,0.00,VWS V14.01,2013-03-17 21:27:00,
2013-03-17 17:28:00,73.7,56.0,29.93,SSE,167,0.0,5.0,54,0.00,,---,0.00,VWS V14.01,2013-03-17 21:28:00,
2013-03-17 17:29:00,73.7,56.0,29.93,SSE,167,0.0,5.0,54,0.00,,---,0.00,VWS V14.01,2013-03-17 21:29:00,
2013-03-17 17:30:00,73.7,56.0,29.93,SSE,167,0.0,5.0,54,0.00,,---,0.00,VWS V14.01,2013-03-17 21:30:00,
2013-03-17 17:31:00,73.7,56.0,29.93,SSE,167,0.0,0.0,54,0.00,,---,0.00,VWS V14.01,2013-03-17 21:31:00,
2013-03-17 17:32:00,73.6,56.0,29.93,SSE,167,0.0,0.0,54,0.00,,---,0.00,VWS V14.01,2013-03-17 21:32:00,
2013-03-17 17:33:00,73.6,56.5,29.93,SSE,167,0.0,0.0,55,0.00,,---,0.00,VWS V14.01,2013-03-17 21:33:00,
2013-03-17 17:34:00,73.6,56.5,29.93,SSE,167,0.0,2.0,55,0.00,,---,0.00,VWS V14.01,2013-03-17 21:34:00,
2013-03-17 17:35:00,73.5,56.4,29.93,South,179,2.0,3.0,55,0.00,,---,0.00,VWS V14.01,2013-03-17 21:35:00,
2013-03-17 17:36:00,73.5,56.4,29.93,South,179,0.0,3.0,55,0.00,,---,0.00,VWS V14.01,2013-03-17 21:36:00,
2013-03-17 17:37:00,73.5,56.4,29.93,South,179,0.0,3.0,55,0.00,,---,0.00,VWS V14.01,2013-03-17 21:37:00,
2013-03-17 17:38:00,73.5,56.4,29.93,South,179,1.0,3.0,55,0.00,,---,0.00,VWS V14.01,2013-03-17 21:38:00,
2013-03-17 17:39:00,73.4,56.3,29.93,South,179,0.0,3.0,55,0.00,,---,0.00,VWS V14.01,2013-03-17 21:39:00,
2013-03-17 17:40:00,73.4,56.3,29.93,South,179,0.0,3.0,55,0.00,,---,0.00,VWS V14.01,2013-03-17 21:40:00,
2013-03-17 17:41:00,73.4,56.3,29.93,South,179,0.0,3.0,55,0.00,,---,0.00,VWS V14.01,2013-03-17 21:41:00,
2013-03-17 17:42:00,73.3,56.2,29.93,South,179,0.0,3.0,55,0.00,,---,0.00,VWS V14.01,2013-03-17 21:42:00,
2013-03-17 17:43:00,73.3,56.2,29.93,South,179,0.0,3.0,55,0.00,,---,0.00,VWS V14.01,2013-03-17 21:43:00,
2013-03-17 17:44:00,73.3,56.2,29.93,South,179,0.0,3.0,55,0.00,,---,0.00,VWS V14.01,2013-03-17 21:44:00,
2013-03-17 17:45:00,73.3,56.7,29.93,South,179,0.0,3.0,56,0.00,,---,0.00,VWS V14.01,2013-03-17 21:45:00,
2013-03-17 17:46:00,73.2,56.6,29.93,South,179,0.0,3.0,56,0.00,,---,0.00,VWS V14.01,2013-03-17 21:46:00,
2013-03-17 17:47:00,73.2,56.6,29.93,South,179,0.0,3.0,56,0.00,,---,0.00,VWS V14.01,2013-03-17 21:47:00,
2013-03-17 17:48:00,73.2,56.6,29.93,South,179,0.0,3.0,56,0.00,,---,0.00,VWS V14.01,2013-03-17 21:48:00,
2013-03-17 17:49:00,73.2,56.6,29.93,South,179,0.0,3.0,56,0.00,,---,0.00,VWS V14.01,2013-03-17 21:49:00,
2013-03-17 17:50:00,73.1,56.5,29.93,South,179,0.0,3.0,56,0.00,,---,0.00,VWS V14.01,2013-03-17 21:50:00,
2013-03-17 17:51:00,73.1,56.5,29.93,South,179,0.0,3.0,56,0.00,,---,0.00,VWS V14.01,2013-03-17 21:51:00,
2013-03-17 17:52:00,73.1,56.5,29.93,South,179,0.0,3.0,56,0.00,,---,0.00,VWS V14.01,2013-03-17 21:52:00,
2013-03-17 17:53:00,73.1,56.5,29.93,South,179,0.0,3.0,56,0.00,,---,0.00,VWS V14.01,2013-03-17 21:53:00,
2013-03-17 17:54:00,73.1,56.5,29.93,South,179,0.0,3.0,56,0.00,,---,0.00,VWS V14.01,2013-03-17 21:54:00,
2013-03-17 17:55:00,73.1,56.5,29.93,South,179,0.0,3.0,56,0.00,,---,0.00,VWS V14.01,2013-03-17 21:55:00,
2013-03-17 17:56:00,73.0,56.4,29.93,South,179,0.0,3.0,56,0.00,,---,0.00,VWS V14.01,2013-03-17 21:56:00,
2013-03-17 17:57:00,73.0,56.4,29.93,South,179,0.0,3.0,56,0.00,,---,0.00,VWS V14.01,2013-03-17 21:57:00,
2013-03-17 17:58:00,73.0,56.4,29.93,South,179,0.0,3.0,56,0.00,,---,0.00,VWS V14.01,2013-03-17 21:58:00,
2013-03-17 17:59:00,72.9,56.8,29.93,South,179,0.0,3.0,57,0.00,,---,0.00,VWS V14.01,2013-03-17 21:59:00,
2013-03-17 18:00:00,72.9,56.8,29.93,South,179,0.0,3.0,57,0.00,,---,0.00,VWS V14.01,2013-03-17 22:00:00,
2013-03-17 18:01:00,72.9,56.8,29.93,South,179,0.0,0.0,57,0.00,,---,0.00,VWS V14.01,2013-03-17 22:01:00,
2013-03-17 18:02:00,72.9,56.8,29.93,South,179,0.0,0.0,57,0.00,,---,0.00,VWS V14.01,2013-03-17 22:02:00,
2013-03-17 18:03:00,72.8,56.7,29.93,South,179,0.0,0.0,57,0.00,,---,0.00,VWS V14.01,2013-03-17 22:03:00,
2013-03-17 18:04:00,72.8,56.7,29.93,South,179,0.0,0.0,57,0.00,,---,0.00,VWS V14.01,2013-03-17 22:04:00,
2013-03-17 18:05:00,72.7,56.6,29.93,South,179,0.0,0.0,57,0.00,,---,0.00,VWS V14.01,2013-03-17 22:05:00,
2013-03-17 18:06:00,72.7,56.6,29.93,South,179,0.0,0.0,57,0.00,,---,0.00,VWS V14.01,2013-03-17 22:06:00,
2013-03-17 18:07:00,72.6,56.5,29.93,South,179,0.0,0.0,57,0.00,,---,0.00,VWS V14.01,2013-03-17 22:07:00,
2013-03-17 18:08:00,72.6,56.5,29.93,South,179,0.0,0.0,57,0.00,,---,0.00,VWS V14.01,2013-03-17 22:08:00,
2013-03-17 18:09:00,72.6,56.5,29.93,South,179,0.0,0.0,57,0.00,,---,0.00,VWS V14.01,2013-03-17 22:09:00,
2013-03-17 18:10:00,75.0,55.1,29.92,SW,216,1.0,7.0,50,0.00,,---,0.00,VWS V14.01,2013-03-17 22:10:00,
2013-03-17 18:11:00,72.5,56.9,29.93,South,179,0.0,0.0,58,0.00,,---,0.00,VWS V14.01,2013-03-17 22:11:00,
2013-03-17 18:12:00,72.4,56.8,29.93,South,179,0.0,0.0,58,0.00,,---,0.00,VWS V14.01,2013-03-17 22:12:00,
2013-03-17 18:13:00,72.4,56.8,29.93,South,179,0.0,0.0,58,0.00,,---,0.00,VWS V14.01,2013-03-17 22:13:00,
2013-03-17 18:14:00,72.4,56.8,29.93,South,179,0.0,0.0,58,0.00,,---,0.00,VWS V14.01,2013-03-17 22:14:00,
2013-03-17 18:15:00,72.4,56.8,29.92,South,179,0.0,0.0,58,0.00,,---,0.00,VWS V14.01,2013-03-17 22:15:00,
2013-03-17 18:16:00,72.3,56.7,29.92,South,179,0.0,0.0,58,0.00,,---,0.00,VWS V14.01,2013-03-17 22:16:00,
2013-03-17 18:17:00,72.2,56.6,29.92,South,179,0.0,0.0,58,0.00,,---,0.00,VWS V14.01,2013-03-17 22:17:00,
2013-03-17 18:18:00,72.2,56.6,29.92,South,179,0.0,0.0,58,0.00,,---,0.00,VWS V14.01,2013-03-17 22:18:00,
2013-03-17 18:19:00,72.2,57.1,29.92,South,179,0.0,0.0,59,0.00,,---,0.00,VWS V14.01,2013-03-17 22:19:00,
2013-03-17 18:20:00,72.1,57.0,29.92,South,179,0.0,0.0,59,0.00,,---,0.00,VWS V14.01,2013-03-17 22:20:00,
2013-03-17 18:21:00,72.0,56.9,29.92,South,179,0.0,0.0,59,0.00,,---,0.00,VWS V14.01,2013-03-17 22:21:00,
2013-03-17 18:22:00,72.0,56.9,29.92,South,179,0.0,0.0,59,0.00,,---,0.00,VWS V14.01,2013-03-17 22:22:00,
2013-03-17 18:23:00,71.9,56.8,29.92,South,179,0.0,0.0,59,0.00,,---,0.00,VWS V14.01,2013-03-17 22:23:00,
2013-03-17 18:24:00,71.8,56.7,29.92,South,179,0.0,0.0,59,0.00,,---,0.00,VWS V14.01,2013-03-17 22:24:00,
2013-03-17 18:25:00,71.8,56.7,29.92,South,179,0.0,0.0,59,0.00,,---,0.00,VWS V14.01,2013-03-17 22:25:00,
2013-03-17 18:26:00,71.6,57.0,29.92,South,179,0.0,0.0,60,0.00,,---,0.00,VWS V14.01,2013-03-17 22:26:00,
2013-03-17 18:27:00,71.5,56.9,29.92,South,179,0.0,0.0,60,0.00,,---,0.00,VWS V14.01,2013-03-17 22:27:00,
2013-03-17 18:28:00,71.4,56.8,29.92,South,179,0.0,0.0,60,0.00,,---,0.00,VWS V14.01,2013-03-17 22:28:00,
2013-03-17 18:29:00,71.3,56.7,29.92,South,179,0.0,0.0,60,0.00,,---,0.00,VWS V14.01,2013-03-17 22:29:00,
2013-03-17 18:30:00,71.1,56.5,29.94,South,179,0.0,0.0,60,0.00,,---,0.00,VWS V14.01,2013-03-17 22:30:00,
2013-03-17 18:31:00,71.0,56.9,29.94,South,179,0.0,0.0,61,0.00,,---,0.00,VWS V14.01,2013-03-17 22:31:00,
2013-03-17 18:32:00,70.8,56.7,29.94,South,179,0.0,0.0,61,0.00,,---,0.00,VWS V14.01,2013-03-17 22:32:00,
2013-03-17 18:33:00,70.7,57.1,29.94,South,179,0.0,0.0,62,0.00,,---,0.00,VWS V14.01,2013-03-17 22:33:00,
2013-03-17 18:34:00,70.6,57.0,29.94,South,179,0.0,0.0,62,0.00,,---,0.00,VWS V14.01,2013-03-17 22:34:00,
2013-03-17 18:35:00,70.4,56.8,29.94,South,179,0.0,0.0,62,0.00,,---,0.00,VWS V14.01,2013-03-17 22:35:00,
2013-03-17 18:36:00,70.4,56.8,29.94,South,179,0.0,0.0,62,0.00,,---,0.00,VWS V14.01,2013-03-17 22:36:00,
2013-03-17 18:37:00,70.3,56.7,29.94,South,179,0.0,0.0,62,0.00,,---,0.00,VWS V14.01,2013-03-17 22:37:00,
2013-03-17 18:38:00,70.2,57.0,29.94,South,179,0.0,0.0,63,0.00,,---,0.00,VWS V14.01,2013-03-17 22:38:00,
2013-03-17 18:39:00,70.1,56.9,29.94,South,179,0.0,0.0,63,0.00,,---,0.00,VWS V14.01,2013-03-17 22:39:00,
2013-03-17 18:40:00,70.1,56.9,29.94,South,179,0.0,0.0,63,0.00,,---,0.00,VWS V14.01,2013-03-17 22:40:00,
2013-03-17 18:41:00,70.0,56.8,29.94,South,179,0.0,0.0,63,0.00,,---,0.00,VWS V14.01,2013-03-17 22:41:00,
2013-03-17 18:42:00,70.0,56.8,29.94,South,179,0.0,0.0,63,0.00,,---,0.00,VWS V14.01,2013-03-17 22:42:00,
2013-03-17 18:43:00,69.9,56.8,29.94,South,179,0.0,0.0,63,0.00,,---,0.00,VWS V14.01,2013-03-17 22:43:00,
2013-03-17 18:44:00,69.9,56.8,29.94,South,179,0.0,0.0,63,0.00,,---,0.00,VWS V14.01,2013-03-17 22:44:00,
2013-03-17 18:45:00,74.0,55.8,29.93,SSW,213,0.0,5.0,53,0.00,,---,0.00,VWS V14.01,2013-03-17 22:45:00,
2013-03-17 18:46:00,69.9,56.8,29.94,South,179,0.0,0.0,63,0.00,,---,0.00,VWS V14.01,2013-03-17 22:46:00,
2013-03-17 18:47:00,69.9,57.2,29.94,South,179,0.0,0.0,64,0.00,,---,0.00,VWS V14.01,2013-03-17 22:47:00,
2013-03-17 18:48:00,69.9,57.2,29.94,South,179,0.0,0.0,64,0.00,,---,0.00,VWS V14.01,2013-03-17 22:48:00,
2013-03-17 18:49:00,69.8,57.1,29.94,South,179,0.0,0.0,64,0.00,,---,0.00,VWS V14.01,2013-03-17 22:49:00,
2013-03-17 18:50:00,69.8,57.1,29.94,South,179,0.0,0.0,64,0.00,,---,0.00,VWS V14.01,2013-03-17 22:50:00,
2013-03-17 18:51:00,69.8,57.1,29.94,South,179,0.0,0.0,64,0.00,,---,0.00,VWS V14.01,2013-03-17 22:51:00,
2013-03-17 18:52:00,69.7,57.0,29.94,South,179,0.0,0.0,64,0.00,,---,0.00,VWS V14.01,2013-03-17 22:52:00,
2013-03-17 18:53:00,69.7,57.4,29.94,South,179,0.0,0.0,65,0.00,,---,0.00,VWS V14.01,2013-03-17 22:53:00,
2013-03-17 18:54:00,69.7,57.4,29.94,South,179,0.0,0.0,65,0.00,,---,0.00,VWS V14.01,2013-03-17 22:54:00,
2013-03-17 18:55:00,69.6,57.3,29.94,South,179,0.0,0.0,65,0.00,,---,0.00,VWS V14.01,2013-03-17 22:55:00,
2013-03-17 18:56:00,69.6,57.3,29.94,South,179,0.0,0.0,65,0.00,,---,0.00,VWS V14.01,2013-03-17 22:56:00,
2013-03-17 18:57:00,69.5,57.2,29.94,South,179,0.0,0.0,65,0.00,,---,0.00,VWS V14.01,2013-03-17 22:57:00,
2013-03-17 18:58:00,69.5,57.7,29.94,South,179,0.0,0.0,66,0.00,,---,0.00,VWS V14.01,2013-03-17 22:58:00,
2013-03-17 18:59:00,69.4,57.6,29.94,South,179,0.0,0.0,66,0.00,,---,0.00,VWS V14.01,2013-03-17 22:59:00,
2013-03-17 19:00:00,69.3,57.5,29.94,South,179,0.0,0.0,66,0.00,,---,0.00,VWS V14.01,2013-03-17 23:00:00,
2013-03-17 19:01:00,69.3,57.5,29.94,South,179,0.0,0.0,66,0.00,,---,0.00,VWS V14.01,2013-03-17 23:01:00,
2013-03-17 19:02:00,69.3,57.0,29.94,South,179,0.0,0.0,65,0.00,,---,0.00,VWS V14.01,2013-03-17 23:02:00,
2013-03-17 19:03:00,69.2,57.4,29.94,South,179,0.0,0.0,66,0.00,,---,0.00,VWS V14.01,2013-03-17 23:03:00,
2013-03-17 19:04:00,69.2,57.4,29.94,South,179,0.0,0.0,66,0.00,,---,0.00,VWS V14.01,2013-03-17 23:04:00,
2013-03-17 19:05:00,69.1,57.3,29.94,South,179,0.0,0.0,66,0.00,,---,0.00,VWS V14.01,2013-03-17 23:05:00,
2013-03-17 19:06:00,69.0,57.2,29.94,South,179,0.0,0.0,66,0.00,,---,0.00,VWS V14.01,2013-03-17 23:06:00,
2013-03-17 19:07:00,69.0,57.6,29.94,South,179,0.0,0.0,67,0.00,,---,0.00,VWS V14.01,2013-03-17 23:07:00,
2013-03-17 19:08:00,68.9,57.5,29.94,South,179,0.0,0.0,67,0.00,,---,0.00,VWS V14.01,2013-03-17 23:08:00,
2013-03-17 19:09:00,68.9,57.5,29.94,South,179,0.0,0.0,67,0.00,,---,0.00,VWS V14.01,2013-03-17 23:09:00,
2013-03-17 19:10:00,68.8,57.4,29.94,South,179,0.0,0.0,67,0.00,,---,0.00,VWS V14.01,2013-03-17 23:10:00,
2013-03-17 19:11:00,68.7,57.7,29.94,South,179,0.0,0.0,68,0.00,,---,0.00,VWS V14.01,2013-03-17 23:11:00,
2013-03-17 19:12:00,68.7,57.7,29.94,South,179,0.0,0.0,68,0.00,,---,0.00,VWS V14.01,2013-03-17 23:12:00,
2013-03-17 19:13:00,68.6,58.0,29.94,South,179,0.0,0.0,69,0.00,,---,0.00,VWS V14.01,2013-03-17 23:13:00,
2013-03-17 19:14:00,68.6,58.4,29.94,South,179,0.0,0.0,70,0.00,,---,0.00,VWS V14.01,2013-03-17 23:14:00,
2013-03-17 19:15:00,68.5,58.3,29.94,South,179,0.0,0.0,70,0.00,,---,0.00,VWS V14.01,2013-03-17 23:15:00,
2013-03-17 19:16:00,68.5,58.3,29.94,South,179,0.0,0.0,70,0.00,,---,0.00,VWS V14.01,2013-03-17 23:16:00,
2013-03-17 19:17:00,68.4,58.6,29.94,South,179,0.0,0.0,71,0.00,,---,0.00,VWS V14.01,2013-03-17 23:17:00,
2013-03-17 19:18:00,68.4,58.6,29.94,South,179,0.0,0.0,71,0.00,,---,0.00,VWS V14.01,2013-03-17 23:18:00,
2013-03-17 19:19:00,68.3,58.5,29.94,South,179,0.0,0.0,71,0.00,,---,0.00,VWS V14.01,2013-03-17 23:19:00,
2013-03-17 19:20:00,68.2,58.8,29.94,South,179,0.0,0.0,72,0.00,,---,0.00,VWS V14.01,2013-03-17 23:20:00,
2013-03-17 19:21:00,68.1,58.7,29.94,South,179,0.0,0.0,72,0.00,,---,0.00,VWS V14.01,2013-03-17 23:21:00,
2013-03-17 19:22:00,68.1,59.1,29.94,South,179,0.0,0.0,73,0.00,,---,0.00,VWS V14.01,2013-03-17 23:22:00,
2013-03-17 19:23:00,68.0,59.0,29.94,South,179,0.0,0.0,73,0.00,,---,0.00,VWS V14.01,2013-03-17 23:23:00,
2013-03-17 19:24:00,68.0,59.0,29.94,South,179,0.0,0.0,73,0.00,,---,0.00,VWS V14.01,2013-03-17 23:24:00,
2013-03-17 19:25:00,67.9,59.3,29.94,South,179,0.0,0.0,74,0.00,,---,0.00,VWS V14.01,2013-03-17 23:25:00,
2013-03-17 19:26:00,67.9,58.9,29.94,South,179,0.0,0.0,73,0.00,,---,0.00,VWS V14.01,2013-03-17 23:26:00,
2013-03-17 19:27:00,67.7,58.7,29.94,South,179,0.0,0.0,73,0.00,,---,0.00,VWS V14.01,2013-03-17 23:27:00,
2013-03-17 19:28:00,67.7,58.7,29.94,South,179,0.0,0.0,73,0.00,,---,0.00,VWS V14.01,2013-03-17 23:28:00,
2013-03-17 19:29:00,67.6,58.7,29.94,South,179,0.0,0.0,73,0.00,,---,0.00,VWS V14.01,2013-03-17 23:29:00,
2013-03-17 19:30:00,67.6,58.7,29.93,South,179,0.0,0.0,73,0.00,,---,0.00,VWS V14.01,2013-03-17 23:30:00,
2013-03-17 19:31:00,67.5,58.5,29.93,South,179,0.0,0.0,73,0.00,,---,0.00,VWS V14.01,2013-03-17 23:31:00,
2013-03-17 19:32:00,67.5,58.5,29.93,South,179,0.0,0.0,73,0.00,,---,0.00,VWS V14.01,2013-03-17 23:32:00,
2013-03-17 19:33:00,67.5,58.5,29.93,South,179,0.0,0.0,73,0.00,,---,0.00,VWS V14.01,2013-03-17 23:33:00,
2013-03-17 19:34:00,67.4,58.5,29.93,South,179,0.0,0.0,73,0.00,,---,0.00,VWS V14.01,2013-03-17 23:34:00,
2013-03-17 19:35:00,67.4,58.5,29.93,South,179,0.0,0.0,73,0.00,,---,0.00,VWS V14.01,2013-03-17 23:35:00,
2013-03-17 19:36:00,67.4,58.5,29.93,South,179,0.0,0.0,73,0.00,,---,0.00,VWS V14.01,2013-03-17 23:36:00,
2013-03-17 19:37:00,67.4,58.5,29.93,South,179,0.0,0.0,73,0.00,,---,0.00,VWS V14.01,2013-03-17 23:37:00,
2013-03-17 19:38:00,67.4,58.5,29.93,South,179,0.0,0.0,73,0.00,,---,0.00,VWS V14.01,2013-03-17 23:38:00,
2013-03-17 19:39:00,67.4,58.8,29.93,South,179,0.0,0.0,74,0.00,,---,0.00,VWS V14.01,2013-03-17 23:39:00,
2013-03-17 19:40:00,67.4,58.8,29.93,South,179,0.0,0.0,74,0.00,,---,0.00,VWS V14.01,2013-03-17 23:40:00,
2013-03-17 19:41:00,67.4,58.8,29.93,South,179,0.0,0.0,74,0.00,,---,0.00,VWS V14.01,2013-03-17 23:41:00,
2013-03-17 19:42:00,67.4,59.2,29.93,South,179,0.0,0.0,75,0.00,,---,0.00,VWS V14.01,2013-03-17 23:42:00,
2013-03-17 19:43:00,67.4,59.6,29.93,South,179,0.0,0.0,76,0.00,,---,0.00,VWS V14.01,2013-03-17 23:43:00,
2013-03-17 19:44:00,67.4,60.0,29.93,South,179,0.0,0.0,77,0.00,,---,0.00,VWS V14.01,2013-03-17 23:44:00,
2013-03-17 19:45:00,67.4,60.0,29.94,South,179,0.0,0.0,77,0.00,,---,0.00,VWS V14.01,2013-03-17 23:45:00,
2013-03-17 19:46:00,67.4,60.0,29.94,South,179,0.0,0.0,77,0.00,,---,0.00,VWS V14.01,2013-03-17 23:46:00,
2013-03-17 19:47:00,67.3,59.8,29.94,South,179,0.0,0.0,77,0.00,,---,0.00,VWS V14.01,2013-03-17 23:47:00,
2013-03-17 19:48:00,67.2,59.8,29.94,South,179,0.0,0.0,77,0.00,,---,0.00,VWS V14.01,2013-03-17 23:48:00,
2013-03-17 19:49:00,67.2,59.8,29.94,South,179,0.0,0.0,77,0.00,,---,0.00,VWS V14.01,2013-03-17 23:49:00,
2013-03-17 19:50:00,67.1,59.7,29.94,South,179,0.0,0.0,77,0.00,,---,0.00,VWS V14.01,2013-03-17 23:50:00,
2013-03-17 19:51:00,67.0,59.6,29.94,South,179,0.0,0.0,77,0.00,,---,0.00,VWS V14.01,2013-03-17 23:51:00,
2013-03-17 19:52:00,67.0,59.6,29.94,South,179,0.0,0.0,77,0.00,,---,0.00,VWS V14.01,2013-03-17 23:52:00,
2013-03-17 19:53:00,66.9,59.5,29.94,South,179,0.0,0.0,77,0.00,,---,0.00,VWS V14.01,2013-03-17 23:53:00,
2013-03-17 19:54:00,66.8,59.7,29.94,South,179,0.0,0.0,78,0.00,,---,0.00,VWS V14.01,2013-03-17 23:54:00,
2013-03-17 19:55:00,66.7,59.6,29.94,South,179,0.0,0.0,78,0.00,,---,0.00,VWS V14.01,2013-03-17 23:55:00,
2013-03-17 19:56:00,66.6,59.5,29.94,South,179,0.0,0.0,78,0.00,,---,0.00,VWS V14.01,2013-03-17 23:56:00,
2013-03-17 19:57:00,66.5,59.8,29.94,South,179,0.0,0.0,79,0.00,,---,0.00,VWS V14.01,2013-03-17 23:57:00,
2013-03-17 19:58:00,66.5,59.8,29.94,South,179,0.0,0.0,79,0.00,,---,0.00,VWS V14.01,2013-03-17 23:58:00,
2013-03-17 19:59:00,66.4,59.7,29.94,South,179,0.0,0.0,79,0.00,,---,0.00,VWS V14.01,2013-03-17 23:59:00,
2013-03-17 20:00:00,66.3,59.6,29.94,South,179,0.0,0.0,79,0.00,,---,0.00,VWS V14.01,2013-03-18 00:00:00,
2013-03-17 20:01:00,66.2,59.5,29.94,South,179,0.0,0.0,79,0.00,,---,0.00,VWS V14.01,2013-03-18 00:01:00,
2013-03-17 20:02:00,66.2,59.5,29.94,South,179,0.0,0.0,79,0.00,,---,0.00,VWS V14.01,2013-03-18 00:02:00,
2013-03-17 20:03:00,66.1,59.4,29.94,South,179,0.0,0.0,79,0.00,,---,0.00,VWS V14.01,2013-03-18 00:03:00,
2013-03-17 20:04:00,66.1,59.8,29.94,South,179,0.0,0.0,80,0.00,,---,0.00,VWS V14.01,2013-03-18 00:04:00,
2013-03-17 20:05:00,66.0,59.7,29.94,South,179,0.0,0.0,80,0.00,,---,0.00,VWS V14.01,2013-03-18 00:05:00,
2013-03-17 20:06:00,66.0,59.7,29.94,South,179,0.0,0.0,80,0.00,,---,0.00,VWS V14.01,2013-03-18 00:06:00,
2013-03-17 20:07:00,65.9,59.6,29.94,South,179,0.0,0.0,80,0.00,,---,0.00,VWS V14.01,2013-03-18 00:07:00,
2013-03-17 20:08:00,65.8,59.5,29.94,South,179,0.0,0.0,80,0.00,,---,0.00,VWS V14.01,2013-03-18 00:08:00,
2013-03-17 20:09:00,65.8,59.5,29.94,South,179,0.0,0.0,80,0.00,,---,0.00,VWS V14.01,2013-03-18 00:09:00,
2013-03-17 20:10:00,65.7,59.4,29.94,South,179,0.0,0.0,80,0.00,,---,0.00,VWS V14.01,2013-03-18 00:10:00,
2013-03-17 20:11:00,65.7,59.4,29.94,South,179,0.0,0.0,80,0.00,,---,0.00,VWS V14.01,2013-03-18 00:11:00,
2013-03-17 20:12:00,65.6,59.3,29.94,South,179,0.0,0.0,80,0.00,,---,0.00,VWS V14.01,2013-03-18 00:12:00,
2013-03-17 20:13:00,65.6,59.3,29.94,South,179,0.0,0.0,80,0.00,,---,0.00,VWS V14.01,2013-03-18 00:13:00,
2013-03-17 20:14:00,65.6,59.6,29.94,South,179,0.0,0.0,81,0.00,,---,0.00,VWS V14.01,2013-03-18 00:14:00,
2013-03-17 20:15:00,65.5,59.5,29.95,South,179,0.0,0.0,81,0.00,,---,0.00,VWS V14.01,2013-03-18 00:15:00,
2013-03-17 20:16:00,65.5,59.5,29.95,South,179,0.0,0.0,81,0.00,,---,0.00,VWS V14.01,2013-03-18 00:16:00,
2013-03-17 20:17:00,65.4,59.4,29.95,South,179,0.0,0.0,81,0.00,,---,0.00,VWS V14.01,2013-03-18 00:17:00,
2013-03-17 20:18:00,65.4,59.4,29.95,South,179,0.0,0.0,81,0.00,,---,0.00,VWS V14.01,2013-03-18 00:18:00,
2013-03-17 20:19:00,65.4,59.4,29.95,South,179,0.0,0.0,81,0.00,,---,0.00,VWS V14.01,2013-03-18 00:19:00,
2013-03-17 20:20:00,65.4,59.8,29.95,South,179,0.0,0.0,82,0.00,,---,0.00,VWS V14.01,2013-03-18 00:20:00,
2013-03-17 20:21:00,65.3,59.7,29.95,South,179,0.0,0.0,82,0.00,,---,0.00,VWS V14.01,2013-03-18 00:21:00,
2013-03-17 20:22:00,65.3,59.7,29.95,South,179,0.0,0.0,82,0.00,,---,0.00,VWS V14.01,2013-03-18 00:22:00,
2013-03-17 20:23:00,65.3,59.7,29.95,South,179,0.0,0.0,82,0.00,,---,0.00,VWS V14.01,2013-03-18 00:23:00,
2013-03-17 20:24:00,65.3,59.7,29.95,South,179,0.0,0.0,82,0.00,,---,0.00,VWS V14.01,2013-03-18 00:24:00,
2013-03-17 20:25:00,65.3,59.7,29.95,South,179,0.0,0.0,82,0.00,,---,0.00,VWS V14.01,2013-03-18 00:25:00,
2013-03-17 20:26:00,65.3,59.7,29.95,South,179,0.0,0.0,82,0.00,,---,0.00,VWS V14.01,2013-03-18 00:26:00,
2013-03-17 20:27:00,65.1,59.5,29.95,South,179,0.0,0.0,82,0.00,,---,0.00,VWS V14.01,2013-03-18 00:27:00,
2013-03-17 20:28:00,65.1,59.5,29.95,South,179,0.0,0.0,82,0.00,,---,0.00,VWS V14.01,2013-03-18 00:28:00,
2013-03-17 20:29:00,65.0,59.4,29.95,South,179,0.0,0.0,82,0.00,,---,0.00,VWS V14.01,2013-03-18 00:29:00,
2013-03-17 20:30:00,65.0,59.4,29.95,South,179,0.0,0.0,82,0.00,,---,0.00,VWS V14.01,2013-03-18 00:30:00,
2013-03-17 20:31:00,64.9,59.3,29.95,South,179,0.0,0.0,82,0.00,,---,0.00,VWS V14.01,2013-03-18 00:31:00,
2013-03-17 20:32:00,64.9,59.3,29.95,South,179,0.0,0.0,82,0.00,,---,0.00,VWS V14.01,2013-03-18 00:32:00,
2013-03-17 20:33:00,64.9,59.3,29.95,South,179,0.0,0.0,82,0.00,,---,0.00,VWS V14.01,2013-03-18 00:33:00,
2013-03-17 20:34:00,64.8,59.2,29.95,South,179,0.0,0.0,82,0.00,,---,0.00,VWS V14.01,2013-03-18 00:34:00,
2013-03-17 20:35:00,64.8,59.5,29.95,South,179,0.0,0.0,83,0.00,,---,0.00,VWS V14.01,2013-03-18 00:35:00,
2013-03-17 20:36:00,64.8,59.5,29.95,South,179,0.0,0.0,83,0.00,,---,0.00,VWS V14.01,2013-03-18 00:36:00,
2013-03-17 20:37:00,64.8,59.5,29.95,South,179,0.0,0.0,83,0.00,,---,0.00,VWS V14.01,2013-03-18 00:37:00,
2013-03-17 20:38:00,64.8,59.9,29.95,South,179,0.0,0.0,84,0.00,,---,0.00,VWS V14.01,2013-03-18 00:38:00,
2013-03-17 20:39:00,64.8,59.9,29.95,South,179,0.0,1.0,84,0.00,,---,0.00,VWS V14.01,2013-03-18 00:39:00,
2013-03-17 20:40:00,64.7,59.8,29.95,South,179,0.0,1.0,84,0.00,,---,0.00,VWS V14.01,2013-03-18 00:40:00,
2013-03-17 20:41:00,64.7,59.8,29.95,South,179,0.0,1.0,84,0.00,,---,0.00,VWS V14.01,2013-03-18 00:41:00,
2013-03-17 20:42:00,64.7,59.8,29.95,South,179,0.0,1.0,84,0.00,,---,0.00,VWS V14.01,2013-03-18 00:42:00,
2013-03-17 20:43:00,64.7,59.8,29.95,South,179,0.0,1.0,84,0.00,,---,0.00,VWS V14.01,2013-03-18 00:43:00,
2013-03-17 20:44:00,64.6,59.7,29.95,South,179,0.0,1.0,84,0.00,,---,0.00,VWS V14.01,2013-03-18 00:44:00,
2013-03-17 20:45:00,64.5,59.6,29.96,South,179,0.0,1.0,84,0.00,,---,0.00,VWS V14.01,2013-03-18 00:45:00,
2013-03-17 20:46:00,64.5,59.6,29.96,South,179,0.0,1.0,84,0.00,,---,0.00,VWS V14.01,2013-03-18 00:46:00,
2013-03-17 20:47:00,64.5,59.9,29.96,South,179,0.0,1.0,85,0.00,,---,0.00,VWS V14.01,2013-03-18 00:47:00,
2013-03-17 20:48:00,64.4,59.8,29.96,South,179,0.0,1.0,85,0.00,,---,0.00,VWS V14.01,2013-03-18 00:48:00,
2013-03-17 20:49:00,64.4,59.8,29.96,South,179,0.0,1.0,85,0.00,,---,0.00,VWS V14.01,2013-03-18 00:49:00,
2013-03-17 20:50:00,64.4,59.8,29.96,South,179,0.0,1.0,85,0.00,,---,0.00,VWS V14.01,2013-03-18 00:50:00,
2013-03-17 20:51:00,64.3,59.7,29.96,South,179,0.0,1.0,85,0.00,,---,0.00,VWS V14.01,2013-03-18 00:51:00,
2013-03-17 20:52:00,64.3,59.7,29.96,South,179,0.0,1.0,85,0.00,,---,0.00,VWS V14.01,2013-03-18 00:52:00,
2013-03-17 20:53:00,64.3,59.7,29.96,South,179,0.0,1.0,85,0.00,,---,0.00,VWS V14.01,2013-03-18 00:53:00,
2013-03-17 20:54:00,64.3,59.7,29.96,South,179,0.0,1.0,85,0.00,,---,0.00,VWS V14.01,2013-03-18 00:54:00,
2013-03-17 20:55:00,64.3,59.7,29.96,South,179,0.0,1.0,85,0.00,,---,0.00,VWS V14.01,2013-03-18 00:55:00,
2013-03-17 20:56:00,64.3,59.7,29.96,South,179,0.0,1.0,85,0.00,,---,0.00,VWS V14.01,2013-03-18 00:56:00,
2013-03-17 20:57:00,64.3,60.0,29.96,South,179,1.0,1.0,86,0.00,,---,0.00,VWS V14.01,2013-03-18 00:57:00,
2013-03-17 20:58:00,64.3,60.0,29.96,South,178,2.0,3.0,86,0.00,,---,0.00,VWS V14.01,2013-03-18 00:58:00,
2013-03-17 20:59:00,64.3,60.0,29.96,South,177,0.0,3.0,86,0.00,,---,0.00,VWS V14.01,2013-03-18 00:59:00,
2013-03-17 21:00:00,64.3,60.0,29.97,South,177,0.0,3.0,86,0.00,,---,0.00,VWS V14.01,2013-03-18 01:00:00,
2013-03-17 21:01:00,64.3,59.7,29.97,South,177,0.0,0.0,85,0.00,,---,0.00,VWS V14.01,2013-03-18 01:01:00,
2013-03-17 21:02:00,64.3,59.7,29.97,South,177,0.0,0.0,85,0.00,,---,0.00,VWS V14.01,2013-03-18 01:02:00,
2013-03-17 21:03:00,64.3,59.7,29.97,South,177,0.0,0.0,85,0.00,,---,0.00,VWS V14.01,2013-03-18 01:03:00,
2013-03-17 21:04:00,64.3,59.7,29.97,South,177,0.0,0.0,85,0.00,,---,0.00,VWS V14.01,2013-03-18 01:04:00,
2013-03-17 21:05:00,64.3,59.7,29.97,South,177,0.0,0.0,85,0.00,,---,0.00,VWS V14.01,2013-03-18 01:05:00,
2013-03-17 21:06:00,64.3,59.7,29.97,South,177,0.0,0.0,85,0.00,,---,0.00,VWS V14.01,2013-03-18 01:06:00,
2013-03-17 21:07:00,64.3,59.7,29.97,South,177,0.0,0.0,85,0.00,,---,0.00,VWS V14.01,2013-03-18 01:07:00,
2013-03-17 21:08:00,64.3,59.7,29.97,South,177,0.0,0.0,85,0.00,,---,0.00,VWS V14.01,2013-03-18 01:08:00,
2013-03-17 21:09:00,64.3,59.7,29.97,South,177,0.0,0.0,85,0.00,,---,0.00,VWS V14.01,2013-03-18 01:09:00,
2013-03-17 21:10:00,64.3,59.7,29.97,South,177,0.0,0.0,85,0.00,,---,0.00,VWS V14.01,2013-03-18 01:10:00,
2013-03-17 21:11:00,64.3,59.7,29.97,South,177,0.0,0.0,85,0.00,,---,0.00,VWS V14.01,2013-03-18 01:11:00,
2013-03-17 21:12:00,64.3,59.7,29.97,South,177,0.0,0.0,85,0.00,,---,0.00,VWS V14.01,2013-03-18 01:12:00,
2013-03-17 21:13:00,64.3,59.4,29.97,South,177,0.0,0.0,84,0.00,,---,0.00,VWS V14.01,2013-03-18 01:13:00,
2013-03-17 21:14:00,64.3,59.4,29.97,South,177,0.0,0.0,84,0.00,,---,0.00,VWS V14.01,2013-03-18 01:14:00,
2013-03-17 21:15:00,64.3,59.4,29.97,South,177,0.0,0.0,84,0.00,,---,0.00,VWS V14.01,2013-03-18 01:15:00,
2013-03-17 21:16:00,64.3,59.4,29.97,South,177,0.0,0.0,84,0.00,,---,0.00,VWS V14.01,2013-03-18 01:16:00,
2013-03-17 21:17:00,64.3,59.4,29.97,South,177,0.0,0.0,84,0.00,,---,0.00,VWS V14.01,2013-03-18 01:17:00,
2013-03-17 21:18:00,64.3,59.4,29.97,South,177,0.0,0.0,84,0.00,,---,0.00,VWS V14.01,2013-03-18 01:18:00,
2013-03-17 21:19:00,64.3,59.4,29.97,South,177,0.0,0.0,84,0.00,,---,0.00,VWS V14.01,2013-03-18 01:19:00,
2013-03-17 21:20:00,64.3,59.4,29.97,South,177,0.0,0.0,84,0.00,,---,0.00,VWS V14.01,2013-03-18 01:20:00,
2013-03-17 21:21:00,64.3,59.4,29.97,South,177,0.0,0.0,84,0.00,,---,0.00,VWS V14.01,2013-03-18 01:21:00,
2013-03-17 21:22:00,64.4,59.8,29.97,South,177,0.0,0.0,85,0.00,,---,0.00,VWS V14.01,2013-03-18 01:22:00,
2013-03-17 21:23:00,64.4,59.8,29.97,South,177,0.0,0.0,85,0.00,,---,0.00,VWS V14.01,2013-03-18 01:23:00,
2013-03-17 21:24:00,64.4,59.8,29.97,South,177,0.0,0.0,85,0.00,,---,0.00,VWS V14.01,2013-03-18 01:24:00,
2013-03-17 21:25:00,64.4,59.8,29.97,South,177,0.0,0.0,85,0.00,,---,0.00,VWS V14.01,2013-03-18 01:25:00,
2013-03-17 21:26:00,64.5,59.9,29.97,SSW,198,3.0,5.0,85,0.00,,---,0.00,VWS V14.01,2013-03-18 01:26:00,
2013-03-17 21:27:00,64.5,60.2,29.97,SSW,200,2.0,5.0,86,0.00,,---,0.00,VWS V14.01,2013-03-18 01:27:00,
2013-03-17 21:28:00,64.5,59.9,29.97,SSW,209,2.0,5.0,85,0.00,,---,0.00,VWS V14.01,2013-03-18 01:28:00,
2013-03-17 21:29:00,64.5,59.9,29.97,SSW,209,0.0,5.0,85,0.00,,---,0.00,VWS V14.01,2013-03-18 01:29:00,
2013-03-17 21:30:00,64.4,59.8,29.98,SSW,209,0.0,5.0,85,0.00,,---,0.00,VWS V14.01,2013-03-18 01:30:00,
2013-03-17 21:31:00,64.4,59.8,29.98,SSW,209,0.0,1.0,85,0.00,,---,0.00,VWS V14.01,2013-03-18 01:31:00,
2013-03-17 21:32:00,64.3,59.4,29.98,SSW,209,0.0,1.0,84,0.00,,---,0.00,VWS V14.01,2013-03-18 01:32:00,
2013-03-17 21:33:00,64.3,59.4,29.98,SSW,209,0.0,1.0,84,0.00,,---,0.00,VWS V14.01,2013-03-18 01:33:00,
2013-03-17 21:34:00,64.3,59.4,29.98,SSW,209,0.0,1.0,84,0.00,,---,0.00,VWS V14.01,2013-03-18 01:34:00,
2013-03-17 21:35:00,64.3,59.4,29.98,SSW,209,0.0,1.0,84,0.00,,---,0.00,VWS V14.01,2013-03-18 01:35:00,
2013-03-17 21:36:00,64.3,59.4,29.98,SSW,209,0.0,1.0,84,0.00,,---,0.00,VWS V14.01,2013-03-18 01:36:00,
2013-03-17 21:37:00,64.3,59.4,29.98,SSW,209,0.0,1.0,84,0.00,,---,0.00,VWS V14.01,2013-03-18 01:37:00,
2013-03-17 21:38:00,64.3,59.4,29.98,SSW,209,0.0,1.0,84,0.00,,---,0.00,VWS V14.01,2013-03-18 01:38:00,
2013-03-17 21:39:00,64.4,59.5,29.98,SSW,209,0.0,1.0,84,0.00,,---,0.00,VWS V14.01,2013-03-18 01:39:00,
2013-03-17 21:40:00,64.5,59.6,29.98,SSW,209,0.0,1.0,84,0.00,,---,0.00,VWS V14.01,2013-03-18 01:40:00,
2013-03-17 21:41:00,64.5,59.6,29.98,SSW,209,0.0,1.0,84,0.00,,---,0.00,VWS V14.01,2013-03-18 01:41:00,
2013-03-17 21:42:00,64.6,59.7,29.98,SSW,209,0.0,1.0,84,0.00,,---,0.00,VWS V14.01,2013-03-18 01:42:00,
2013-03-17 21:43:00,64.6,59.7,29.98,SSW,209,0.0,1.0,84,0.00,,---,0.00,VWS V14.01,2013-03-18 01:43:00,
2013-03-17 21:44:00,64.6,59.7,29.98,SSW,209,0.0,1.0,84,0.00,,---,0.00,VWS V14.01,2013-03-18 01:44:00,
2013-03-17 21:45:00,64.7,59.8,29.98,SSW,209,0.0,1.0,84,0.00,,---,0.00,VWS V14.01,2013-03-18 01:45:00,
2013-03-17 21:46:00,64.7,59.8,29.98,SSW,209,0.0,1.0,84,0.00,,---,0.00,VWS V14.01,2013-03-18 01:46:00,
2013-03-17 21:47:00,64.7,59.8,29.98,SSW,209,0.0,1.0,84,0.00,,---,0.00,VWS V14.01,2013-03-18 01:47:00,
2013-03-17 21:48:00,64.8,59.9,29.98,SSW,209,0.0,1.0,84,0.00,,---,0.00,VWS V14.01,2013-03-18 01:48:00,
2013-03-17 21:49:00,64.8,59.9,29.98,SSW,209,0.0,1.0,84,0.00,,---,0.00,VWS V14.01,2013-03-18 01:49:00,
2013-03-17 21:50:00,64.8,59.9,29.98,SSW,209,0.0,1.0,84,0.00,,---,0.00,VWS V14.01,2013-03-18 01:50:00,
2013-03-17 21:51:00,64.8,59.9,29.98,SSW,209,2.0,2.0,84,0.00,,---,0.00,VWS V14.01,2013-03-18 01:51:00,
2013-03-17 21:52:00,64.8,59.5,29.98,SSW,209,0.0,2.0,83,0.00,,---,0.00,VWS V14.01,2013-03-18 01:52:00,
2013-03-17 21:53:00,64.8,59.5,29.98,SSW,209,0.0,2.0,83,0.00,,---,0.00,VWS V14.01,2013-03-18 01:53:00,
2013-03-17 21:54:00,64.9,59.6,29.98,SSW,209,0.0,2.0,83,0.00,,---,0.00,VWS V14.01,2013-03-18 01:54:00,
2013-03-17 21:55:00,64.9,60.0,29.98,SSW,209,0.0,2.0,84,0.00,,---,0.00,VWS V14.01,2013-03-18 01:55:00,
2013-03-17 21:56:00,65.0,59.7,29.98,SSW,209,0.0,2.0,83,0.00,,---,0.00,VWS V14.01,2013-03-18 01:56:00,
2013-03-17 21:57:00,65.0,59.7,29.98,SSW,209,0.0,2.0,83,0.00,,---,0.00,VWS V14.01,2013-03-18 01:57:00,
2013-03-17 21:58:00,65.0,59.7,29.98,SSW,209,0.0,2.0,83,0.00,,---,0.00,VWS V14.01,2013-03-18 01:58:00,
2013-03-17 21:59:00,65.0,59.7,29.98,SSW,209,0.0,2.0,83,0.00,,---,0.00,VWS V14.01,2013-03-18 01:59:00,
2013-03-17 22:00:00,65.1,59.8,29.99,SSW,209,0.0,2.0,83,0.00,,---,0.00,VWS V14.01,2013-03-18 02:00:00,
2013-03-17 22:01:00,65.1,59.8,29.99,SSW,209,0.0,0.0,83,0.00,,---,0.00,VWS V14.01,2013-03-18 02:01:00,
2013-03-17 22:02:00,65.2,59.9,29.99,SSW,209,0.0,0.0,83,0.00,,---,0.00,VWS V14.01,2013-03-18 02:02:00,
2013-03-17 22:03:00,65.2,59.9,29.99,SSW,209,0.0,0.0,83,0.00,,---,0.00,VWS V14.01,2013-03-18 02:03:00,
2013-03-17 22:04:00,65.2,59.9,29.99,SSW,209,0.0,0.0,83,0.00,,---,0.00,VWS V14.01,2013-03-18 02:04:00,
2013-03-17 22:05:00,65.3,60.3,29.99,SSW,209,0.0,0.0,84,0.00,,---,0.00,VWS V14.01,2013-03-18 02:05:00,
2013-03-17 22:06:00,65.3,60.3,29.99,SSW,209,0.0,0.0,84,0.00,,---,0.00,VWS V14.01,2013-03-18 02:06:00,
2013-03-17 22:07:00,65.3,60.0,29.99,SSW,209,0.0,0.0,83,0.00,,---,0.00,VWS V14.01,2013-03-18 02:07:00,
2013-03-17 22:08:00,65.3,60.0,29.99,SSW,209,0.0,0.0,83,0.00,,---,0.00,VWS V14.01,2013-03-18 02:08:00,
2013-03-17 22:09:00,65.3,60.0,29.99,SSW,209,0.0,0.0,83,0.00,,---,0.00,VWS V14.01,2013-03-18 02:09:00,
2013-03-17 22:10:00,64.5,59.9,29.96,South,179,0.0,1.0,85,0.00,,---,0.00,VWS V14.01,2013-03-18 02:10:00,
2013-03-17 22:11:00,65.3,60.0,29.99,SSW,209,0.0,0.0,83,0.00,,---,0.00,VWS V14.01,2013-03-18 02:11:00,
2013-03-17 22:12:00,65.4,60.1,29.99,SSW,209,0.0,1.0,83,0.00,,---,0.00,VWS V14.01,2013-03-18 02:12:00,
2013-03-17 22:13:00,65.3,60.0,29.99,SSW,209,1.0,1.0,83,0.00,,---,0.00,VWS V14.01,2013-03-18 02:13:00,
2013-03-17 22:14:00,65.3,60.3,29.99,SSW,209,3.0,3.0,84,0.00,,---,0.00,VWS V14.01,2013-03-18 02:14:00,
2013-03-17 22:15:00,65.3,60.0,29.98,SSW,209,0.0,3.0,83,0.00,,---,0.00,VWS V14.01,2013-03-18 02:15:00,
2013-03-17 22:16:00,65.3,60.0,29.98,SSW,209,0.0,3.0,83,0.00,,---,0.00,VWS V14.01,2013-03-18 02:16:00,
2013-03-17 22:17:00,65.2,60.2,29.98,SSW,209,0.0,3.0,84,0.00,,---,0.00,VWS V14.01,2013-03-18 02:17:00,
2013-03-17 22:18:00,65.2,60.2,29.98,SSW,209,0.0,3.0,84,0.00,,---,0.00,VWS V14.01,2013-03-18 02:18:00,
2013-03-17 22:19:00,65.2,60.2,29.98,SSW,209,0.0,3.0,84,0.00,,---,0.00,VWS V14.01,2013-03-18 02:19:00,
2013-03-17 22:20:00,65.1,60.2,29.98,SSW,209,0.0,3.0,84,0.00,,---,0.00,VWS V14.01,2013-03-18 02:20:00,
2013-03-17 22:21:00,65.1,60.2,29.98,SSW,209,0.0,3.0,84,0.00,,---,0.00,VWS V14.01,2013-03-18 02:21:00,
2013-03-17 22:22:00,65.1,60.2,29.98,SSW,209,0.0,3.0,84,0.00,,---,0.00,VWS V14.01,2013-03-18 02:22:00,
2013-03-17 22:23:00,65.0,60.0,29.98,SSW,209,0.0,3.0,84,0.00,,---,0.00,VWS V14.01,2013-03-18 02:23:00,
2013-03-17 22:24:00,65.0,60.0,29.98,SSW,209,0.0,3.0,84,0.00,,---,0.00,VWS V14.01,2013-03-18 02:24:00,
2013-03-17 22:25:00,65.0,60.0,29.98,SSW,209,0.0,3.0,84,0.00,,---,0.00,VWS V14.01,2013-03-18 02:25:00,
2013-03-17 22:26:00,64.9,60.0,29.98,SSW,209,0.0,3.0,84,0.00,,---,0.00,VWS V14.01,2013-03-18 02:26:00,
2013-03-17 22:27:00,64.9,60.3,29.98,SSW,209,2.0,3.0,85,0.00,,---,0.00,VWS V14.01,2013-03-18 02:27:00,
2013-03-17 22:28:00,64.9,60.3,29.98,SSW,203,4.0,5.0,85,0.00,,---,0.00,VWS V14.01,2013-03-18 02:28:00,
2013-03-17 22:29:00,64.8,60.2,29.98,SSW,203,2.0,5.0,85,0.00,,---,0.00,VWS V14.01,2013-03-18 02:29:00,
2013-03-17 22:30:00,64.8,60.2,29.98,SSW,203,2.0,5.0,85,0.00,,---,0.00,VWS V14.01,2013-03-18 02:30:00,
2013-03-17 22:31:00,64.7,60.1,29.98,SSW,203,0.0,3.0,85,0.00,,---,0.00,VWS V14.01,2013-03-18 02:31:00,
2013-03-17 22:32:00,64.7,60.1,29.98,SSW,203,0.0,3.0,85,0.00,,---,0.00,VWS V14.01,2013-03-18 02:32:00,
2013-03-17 22:33:00,64.6,60.0,29.98,SSW,203,0.0,3.0,85,0.00,,---,0.00,VWS V14.01,2013-03-18 02:33:00,
2013-03-17 22:34:00,64.6,60.0,29.98,SSW,203,0.0,3.0,85,0.00,,---,0.00,VWS V14.01,2013-03-18 02:34:00,
2013-03-17 22:35:00,64.6,60.0,29.98,SSW,203,0.0,3.0,85,0.00,,---,0.00,VWS V14.01,2013-03-18 02:35:00,
2013-03-17 22:36:00,64.5,59.9,29.98,SSW,203,0.0,3.0,85,0.00,,---,0.00,VWS V14.01,2013-03-18 02:36:00,
2013-03-17 22:37:00,64.5,59.9,29.98,SSW,203,0.0,3.0,85,0.00,,---,0.00,VWS V14.01,2013-03-18 02:37:00,
2013-03-17 22:38:00,64.5,60.2,29.98,SSW,203,0.0,3.0,86,0.00,,---,0.00,VWS V14.01,2013-03-18 02:38:00,
2013-03-17 22:39:00,64.5,60.2,29.98,SSW,203,0.0,3.0,86,0.00,,---,0.00,VWS V14.01,2013-03-18 02:39:00,
2013-03-17 22:40:00,64.4,60.1,29.98,SSW,203,0.0,3.0,86,0.00,,---,0.00,VWS V14.01,2013-03-18 02:40:00,
2013-03-17 22:41:00,64.4,60.1,29.98,SSW,203,0.0,3.0,86,0.00,,---,0.00,VWS V14.01,2013-03-18 02:41:00,
2013-03-17 22:42:00,64.4,60.1,29.98,SSW,203,0.0,3.0,86,0.00,,---,0.00,VWS V14.01,2013-03-18 02:42:00,
2013-03-17 22:43:00,64.3,60.0,29.98,SSW,203,0.0,3.0,86,0.00,,---,0.00,VWS V14.01,2013-03-18 02:43:00,
2013-03-17 22:44:00,64.3,60.0,29.98,SSW,203,0.0,3.0,86,0.00,,---,0.00,VWS V14.01,2013-03-18 02:44:00,
2013-03-17 22:45:00,64.3,60.0,29.98,SSW,203,0.0,3.0,86,0.00,,---,0.00,VWS V14.01,2013-03-18 02:45:00,
2013-03-17 22:46:00,64.2,59.9,29.98,SSW,203,0.0,3.0,86,0.00,,---,0.00,VWS V14.01,2013-03-18 02:46:00,
2013-03-17 22:47:00,64.2,59.9,29.98,SSW,203,0.0,3.0,86,0.00,,---,0.00,VWS V14.01,2013-03-18 02:47:00,
2013-03-17 22:48:00,64.2,60.3,29.98,SSW,203,0.0,3.0,87,0.00,,---,0.00,VWS V14.01,2013-03-18 02:48:00,
2013-03-17 22:49:00,64.2,60.3,29.98,SSW,203,0.0,3.0,87,0.00,,---,0.00,VWS V14.01,2013-03-18 02:49:00,
2013-03-17 22:50:00,64.1,60.2,29.98,SSW,203,0.0,3.0,87,0.00,,---,0.00,VWS V14.01,2013-03-18 02:50:00,
2013-03-17 22:51:00,64.1,60.2,29.98,SSW,203,0.0,3.0,87,0.00,,---,0.00,VWS V14.01,2013-03-18 02:51:00,
2013-03-17 22:52:00,64.1,60.2,29.98,SSW,203,0.0,3.0,87,0.00,,---,0.00,VWS V14.01,2013-03-18 02:52:00,
2013-03-17 22:53:00,64.1,60.2,29.98,SSW,203,0.0,3.0,87,0.00,,---,0.00,VWS V14.01,2013-03-18 02:53:00,
2013-03-17 22:54:00,64.1,60.2,29.98,SSW,203,0.0,3.0,87,0.00,,---,0.00,VWS V14.01,2013-03-18 02:54:00,
2013-03-17 22:55:00,64.1,60.2,29.98,SSW,203,0.0,3.0,87,0.00,,---,0.00,VWS V14.01,2013-03-18 02:55:00,
2013-03-17 22:56:00,64.1,60.2,29.98,SSW,203,0.0,3.0,87,0.00,,---,0.00,VWS V14.01,2013-03-18 02:56:00,
2013-03-17 22:57:00,64.0,60.1,29.98,SSW,203,0.0,3.0,87,0.00,,---,0.00,VWS V14.01,2013-03-18 02:57:00,
2013-03-17 22:58:00,64.0,60.4,29.98,SSW,203,0.0,3.0,88,0.00,,---,0.00,VWS V14.01,2013-03-18 02:58:00,
2013-03-17 22:59:00,64.0,60.4,29.98,SSW,203,0.0,3.0,88,0.00,,---,0.00,VWS V14.01,2013-03-18 02:59:00,
2013-03-17 23:00:00,64.0,60.4,29.96,SSW,203,0.0,3.0,88,0.00,,---,0.00,VWS V14.01,2013-03-18 03:00:00,
2013-03-17 23:01:00,63.9,60.3,29.96,SSW,203,0.0,0.0,88,0.00,,---,0.00,VWS V14.01,2013-03-18 03:01:00,
2013-03-17 23:02:00,63.9,60.3,29.96,SSW,203,0.0,0.0,88,0.00,,---,0.00,VWS V14.01,2013-03-18 03:02:00,
2013-03-17 23:03:00,63.9,60.3,29.96,SSW,203,0.0,0.0,88,0.00,,---,0.00,VWS V14.01,2013-03-18 03:03:00,
2013-03-17 23:04:00,63.8,60.2,29.96,SSW,203,0.0,0.0,88,0.00,,---,0.00,VWS V14.01,2013-03-18 03:04:00,
2013-03-17 23:05:00,63.8,60.2,29.96,SSW,203,0.0,1.0,88,0.00,,---,0.00,VWS V14.01,2013-03-18 03:05:00,
2013-03-17 23:06:00,63.8,60.2,29.96,SSW,203,0.0,1.0,88,0.00,,---,0.00,VWS V14.01,2013-03-18 03:06:00,
2013-03-17 23:07:00,63.7,60.4,29.96,SSW,203,0.0,1.0,89,0.00,,---,0.00,VWS V14.01,2013-03-18 03:07:00,
2013-03-17 23:08:00,63.7,60.4,29.96,SSW,203,0.0,1.0,89,0.00,,---,0.00,VWS V14.01,2013-03-18 03:08:00,
2013-03-17 23:09:00,63.6,60.0,29.96,SSW,203,0.0,1.0,88,0.00,,---,0.00,VWS V14.01,2013-03-18 03:09:00,
2013-03-17 23:10:00,63.6,60.3,29.96,SSW,203,0.0,1.0,89,0.00,,---,0.00,VWS V14.01,2013-03-18 03:10:00,
2013-03-17 23:11:00,63.6,60.3,29.96,SSW,203,0.0,1.0,89,0.00,,---,0.00,VWS V14.01,2013-03-18 03:11:00,
2013-03-17 23:12:00,63.5,60.2,29.96,SSW,203,0.0,1.0,89,0.00,,---,0.00,VWS V14.01,2013-03-18 03:12:00,
2013-03-17 23:13:00,63.5,60.2,29.96,SSW,203,0.0,1.0,89,0.00,,---,0.00,VWS V14.01,2013-03-18 03:13:00,
2013-03-17 23:14:00,63.4,60.1,29.96,SSW,203,0.0,1.0,89,0.00,,---,0.00,VWS V14.01,2013-03-18 03:14:00,
2013-03-17 23:15:00,63.4,60.1,29.97,SSW,203,0.0,1.0,89,0.00,,---,0.00,VWS V14.01,2013-03-18 03:15:00,
2013-03-17 23:16:00,63.4,60.1,29.97,SSW,203,0.0,1.0,89,0.00,,---,0.00,VWS V14.01,2013-03-18 03:16:00,
2013-03-17 23:17:00,63.3,60.0,29.97,SSW,203,0.0,1.0,89,0.00,,---,0.00,VWS V14.01,2013-03-18 03:17:00,
2013-03-17 23:18:00,63.3,60.0,29.97,SSW,203,0.0,1.0,89,0.00,,---,0.00,VWS V14.01,2013-03-18 03:18:00,
2013-03-17 23:19:00,63.2,59.9,29.97,SSW,203,0.0,1.0,89,0.00,,---,0.00,VWS V14.01,2013-03-18 03:19:00,
2013-03-17 23:20:00,63.2,59.9,29.97,SSW,203,0.0,1.0,89,0.00,,---,0.00,VWS V14.01,2013-03-18 03:20:00,
2013-03-17 23:21:00,63.2,59.9,29.97,SSW,203,0.0,1.0,89,0.00,,---,0.00,VWS V14.01,2013-03-18 03:21:00,
2013-03-17 23:22:00,63.2,59.9,29.97,SSW,203,0.0,1.0,89,0.00,,---,0.00,VWS V14.01,2013-03-18 03:22:00,
2013-03-17 23:23:00,63.1,59.8,29.97,SSW,203,0.0,1.0,89,0.00,,---,0.00,VWS V14.01,2013-03-18 03:23:00,
2013-03-17 23:24:00,63.1,59.8,29.97,SSW,203,0.0,1.0,89,0.00,,---,0.00,VWS V14.01,2013-03-18 03:24:00,
2013-03-17 23:25:00,63.0,60.0,29.97,SSW,203,0.0,1.0,90,0.00,,---,0.00,VWS V14.01,2013-03-18 03:25:00,
2013-03-17 23:26:00,63.0,60.0,29.97,SSW,203,0.0,1.0,90,0.00,,---,0.00,VWS V14.01,2013-03-18 03:26:00,
2013-03-17 23:27:00,62.9,59.9,29.97,SSW,203,0.0,1.0,90,0.00,,---,0.00,VWS V14.01,2013-03-18 03:27:00,
2013-03-17 23:28:00,62.9,59.9,29.97,SSW,203,0.0,1.0,90,0.00,,---,0.00,VWS V14.01,2013-03-18 03:28:00,
2013-03-17 23:29:00,62.9,59.9,29.97,SSW,203,0.0,1.0,90,0.00,,---,0.00,VWS V14.01,2013-03-18 03:29:00,
2013-03-17 23:30:00,62.8,59.8,29.95,SSW,203,0.0,1.0,90,0.00,,---,0.00,VWS V14.01,2013-03-18 03:30:00,
2013-03-17 23:31:00,62.8,59.8,29.95,SSW,203,0.0,0.0,90,0.00,,---,0.00,VWS V14.01,2013-03-18 03:31:00,
2013-03-17 23:32:00,62.7,59.7,29.95,SSW,203,0.0,0.0,90,0.00,,---,0.00,VWS V14.01,2013-03-18 03:32:00,
2013-03-17 23:33:00,62.7,60.0,29.95,SSW,203,0.0,0.0,91,0.00,,---,0.00,VWS V14.01,2013-03-18 03:33:00,
2013-03-17 23:34:00,62.7,60.0,29.95,SSW,203,0.0,0.0,91,0.00,,---,0.00,VWS V14.01,2013-03-18 03:34:00,
2013-03-17 23:35:00,62.7,60.0,29.95,SSW,203,0.0,0.0,91,0.00,,---,0.00,VWS V14.01,2013-03-18 03:35:00,
2013-03-17 23:36:00,62.7,60.0,29.95,SSW,203,0.0,0.0,91,0.00,,---,0.00,VWS V14.01,2013-03-18 03:36:00,
2013-03-17 23:37:00,62.7,60.0,29.95,SSW,203,0.0,0.0,91,0.00,,---,0.00,VWS V14.01,2013-03-18 03:37:00,
2013-03-17 23:38:00,62.7,60.0,29.95,SSW,203,0.0,0.0,91,0.00,,---,0.00,VWS V14.01,2013-03-18 03:38:00,
2013-03-17 23:39:00,62.7,60.0,29.95,SSW,203,0.0,0.0,91,0.00,,---,0.00,VWS V14.01,2013-03-18 03:39:00,
2013-03-17 23:40:00,62.7,60.0,29.95,SSW,203,0.0,0.0,91,0.00,,---,0.00,VWS V14.01,2013-03-18 03:40:00,
2013-03-17 23:41:00,62.7,60.0,29.95,SSW,203,0.0,0.0,91,0.00,,---,0.00,VWS V14.01,2013-03-18 03:41:00,
2013-03-17 23:42:00,62.7,60.0,29.95,SSW,203,0.0,0.0,91,0.00,,---,0.00,VWS V14.01,2013-03-18 03:42:00,
2013-03-17 23:43:00,62.7,60.0,29.95,SSW,203,0.0,0.0,91,0.00,,---,0.00,VWS V14.01,2013-03-18 03:43:00,
2013-03-17 23:44:00,62.6,59.9,29.95,SSW,203,0.0,0.0,91,0.00,,---,0.00,VWS V14.01,2013-03-18 03:44:00,
2013-03-17 23:45:00,62.6,59.9,29.95,SSW,203,0.0,0.0,91,0.00,,---,0.00,VWS V14.01,2013-03-18 03:45:00,
2013-03-17 23:46:00,62.6,59.9,29.95,SSW,203,0.0,0.0,91,0.00,,---,0.00,VWS V14.01,2013-03-18 03:46:00,
2013-03-17 23:47:00,62.6,59.9,29.95,SSW,203,0.0,0.0,91,0.00,,---,0.00,VWS V14.01,2013-03-18 03:47:00,
2013-03-17 23:48:00,62.6,59.9,29.95,SSW,203,0.0,0.0,91,0.00,,---,0.00,VWS V14.01,2013-03-18 03:48:00,
2013-03-17 23:49:00,62.6,59.9,29.95,SSW,203,0.0,0.0,91,0.00,,---,0.00,VWS V14.01,2013-03-18 03:49:00,
2013-03-17 23:50:00,62.5,59.8,29.95,SSW,203,0.0,0.0,91,0.00,,---,0.00,VWS V14.01,2013-03-18 03:50:00,
2013-03-17 23:51:00,62.5,59.8,29.95,SSW,203,0.0,0.0,91,0.00,,---,0.00,VWS V14.01,2013-03-18 03:51:00,
2013-03-17 23:52:00,62.5,59.8,29.95,SSW,203,0.0,0.0,91,0.00,,---,0.00,VWS V14.01,2013-03-18 03:52:00,
2013-03-17 23:53:00,62.5,59.8,29.95,SSW,203,0.0,0.0,91,0.00,,---,0.00,VWS V14.01,2013-03-18 03:53:00,
2013-03-17 23:54:00,62.5,59.8,29.95,SSW,203,0.0,0.0,91,0.00,,---,0.00,VWS V14.01,2013-03-18 03:54:00,
2013-03-17 23:55:00,62.5,59.8,29.95,SSW,203,0.0,0.0,91,0.00,,---,0.00,VWS V14.01,2013-03-18 03:55:00,
2013-03-17 23:56:00,62.4,59.7,29.95,SSW,203,0.0,0.0,91,0.00,,---,0.00,VWS V14.01,2013-03-18 03:56:00,
2013-03-17 23:57:00,62.4,59.7,29.95,SSW,203,0.0,0.0,91,0.00,,---,0.00,VWS V14.01,2013-03-18 03:57:00,
2013-03-17 23:58:00,62.4,59.7,29.95,SSW,203,0.0,0.0,91,0.00,,---,0.00,VWS V14.01,2013-03-18 03:58:00,
2013-03-17 23:59:00,62.4,60.0,29.95,SSW,203,0.0,0.0,92,0.00,,---,0.00,VWS V14.01,2013-03-18 03:59:00,